Darstellungsparameter: Aktuell verwendete Einstellungen:
Skalierung der Graphiken ... ?
xyx+y,   Skalierungsfaktor:      Skalierung: Modus: x, Faktor: 1
Darstellungszeitraum ... ?
Vom - - bis: - -   Zeitraum: 16.10.2009 - 15.10.2019
Min/Max/Avg-Anzeige ... ?
Zeige MMA aktuell
Zeige MMA Monat
Zeige MMA alles
Zeige --A aktuell
Zeige --A Monat
Zeige --A alles
Keine MMA-Anzeige
MMA:
Average (ber die Originaldaten)
MMA-Basis: 16.10.2009 - 15.10.2019
Quicknavigation für Darstellung... ?
Tage:      1T, 2T, 3T, 5T -1T -2T -3T -5T +1T +2T +3T +5T
Wochen: 1W, 2W, 3W -1W -2W -3W +1W +2W +3W
Monate: 1M, 3M, 6M -1M -3M -6M +1M +3M +6M
Jahre:    1J, 3J, 5J, 10J -1J -3J -5J -10J +1J +3J +5J +10J
Nutze für die Darstellung ... ?
Originaldaten oder ...
Mittelwerte Minima Maxima auf...
Stundenbasis Tagesbasis Wochenbasis
Monatsbasis Jahresbasis      Datenbasis: Mittelwerte auf Stundenbasis
Darstellen als:
Statistik (Auto) Statistik J:M      Darstellung:
Zur Graphik,    zurück zur Übersicht aller Sensoren.
 
Tabellarische Datenbersicht: ?
 
Sensor: Nr:Datum:Temp:Abs-Feuchte:Windchill:Wind:
Aussen-T/F 1 16-10-2009 00:00:00 4.48 C 4.53 g/m*3 4.48 C 0 km/h
2 16-10-2009 01:00:00 3.44 C 4.63 g/m*3 3.44 C 0 km/h
3 16-10-2009 02:00:00 2.66 C 4.73 g/m*3 2.66 C 0 km/h
4 16-10-2009 03:00:00 1.98 C 4.81 g/m*3 1.98 C 0 km/h
5 16-10-2009 04:00:00 2.48 C 5.04 g/m*3 2.48 C 0 km/h
6 16-10-2009 05:00:00 2.62 C 4.97 g/m*3 2.62 C 0 km/h
7 16-10-2009 06:00:00 2.82 C 4.9 g/m*3 2.82 C 0 km/h
8 16-10-2009 07:00:00 3.04 C 4.98 g/m*3 3.04 C 0 km/h
9 16-10-2009 08:00:00 3.74 C 5.31 g/m*3 3.74 C 0 km/h
10 16-10-2009 09:00:00 4.62 C 5.7 g/m*3 4.62 C 0 km/h
11 16-10-2009 10:00:00 5.38 C 6.3 g/m*3 5.38 C 0 km/h
12 16-10-2009 11:00:00 5.9 C 6.73 g/m*3 5.9 C 0 km/h
13 16-10-2009 12:00:00 7.02 C 7.37 g/m*3 7.02 C 0 km/h
14 16-10-2009 13:00:00 10 C 8.34 g/m*3 10 C 0 km/h
15 16-10-2009 14:00:00 11.24 C 6.54 g/m*3 11.24 C 0 km/h
16 16-10-2009 15:00:00 11.1 C 5.72 g/m*3 11.1 C 0 km/h
17 16-10-2009 16:00:00 11.64 C 5.21 g/m*3 11.64 C 0 km/h
18 16-10-2009 17:00:00 10.5 C 5.72 g/m*3 10.5 C 0 km/h
19 16-10-2009 18:00:00 8.18 C 6.59 g/m*3 8.18 C 0 km/h
20 16-10-2009 19:00:00 8.02 C 6.51 g/m*3 8.02 C 0 km/h
21 16-10-2009 20:00:00 8.62 C 5.85 g/m*3 8.62 C 0 km/h
22 16-10-2009 21:00:00 8.24 C 5.99 g/m*3 8.24 C 0 km/h
23 16-10-2009 22:00:00 8.06 C 6.22 g/m*3 8.06 C 0 km/h
24 16-10-2009 23:00:00 8.08 C 6.18 g/m*3 8.08 C 0 km/h
25 17-10-2009 00:00:00 7.98 C 6.49 g/m*3 7.98 C 0 km/h
Sensor: Nr:Datum:Temp:Abs-Feuchte:Windchill:Wind:
Aussen-T/F 26 17-10-2009 01:00:00 8.08 C 6.43 g/m*3 8.08 C 0 km/h
27 17-10-2009 02:00:00 8.14 C 6.39 g/m*3 8.14 C 0 km/h
28 17-10-2009 03:00:00 8.2 C 6.21 g/m*3 8.2 C 0 km/h
29 17-10-2009 04:00:00 8.1 C 6.07 g/m*3 8.1 C 0 km/h
30 17-10-2009 05:00:00 8.14 C 5.87 g/m*3 8.14 C 0 km/h
31 17-10-2009 06:00:00 7.42 C 5.83 g/m*3 7.42 C 0 km/h
32 17-10-2009 07:00:00 6.68 C 6.03 g/m*3 6.68 C 0 km/h
33 17-10-2009 08:00:00 6.46 C 6.16 g/m*3 6.46 C 0 km/h
34 17-10-2009 09:00:00 6.76 C 6.29 g/m*3 6.76 C 0 km/h
35 17-10-2009 10:00:00 7.9 C 6.21 g/m*3 7.9 C 0 km/h
36 17-10-2009 11:00:00 9.22 C 5.79 g/m*3 9.22 C 0 km/h
37 17-10-2009 12:00:00 9.96 C 5.02 g/m*3 9.96 C 0 km/h
38 17-10-2009 13:00:00 10.4 C 4.51 g/m*3 10.4 C 0 km/h
39 17-10-2009 14:00:00 10.48 C 4.48 g/m*3 10.48 C 0 km/h
40 17-10-2009 15:00:00 10.32 C 4.89 g/m*3 10.32 C 0 km/h
41 17-10-2009 16:00:00 10.5 C 4.71 g/m*3 10.5 C 0 km/h
42 17-10-2009 17:00:00 10.04 C 4.86 g/m*3 10.04 C 0 km/h
43 17-10-2009 18:00:00 9.4 C 4.92 g/m*3 9.4 C 0 km/h
44 17-10-2009 19:00:00 8.66 C 4.99 g/m*3 8.66 C 0 km/h
45 17-10-2009 20:00:00 8.16 C 5.16 g/m*3 8.16 C 0 km/h
46 17-10-2009 21:00:00 8.04 C 5.35 g/m*3 8.04 C 0 km/h
47 17-10-2009 22:00:00 7.94 C 5.5 g/m*3 7.94 C 0 km/h
48 17-10-2009 23:00:00 7.52 C 5.53 g/m*3 7.52 C 0 km/h
49 18-10-2009 00:00:00 6.48 C 5.54 g/m*3 6.48 C 0 km/h
50 18-10-2009 01:00:00 5.24 C 5.58 g/m*3 5.24 C 0 km/h
Sensor: Nr:Datum:Temp:Abs-Feuchte:Windchill:Wind:
Aussen-T/F 51 18-10-2009 02:00:00 5.82 C 5.84 g/m*3 5.82 C 0 km/h
52 18-10-2009 03:00:00 5.72 C 5.71 g/m*3 5.72 C 0 km/h
53 18-10-2009 04:00:00 5.52 C 5.75 g/m*3 5.52 C 0 km/h
54 18-10-2009 05:00:00 5.6 C 5.8 g/m*3 5.6 C 0 km/h
55 18-10-2009 06:00:00 5.32 C 5.77 g/m*3 5.32 C 0 km/h
56 18-10-2009 07:00:00 4.4 C 5.82 g/m*3 4.4 C 0 km/h
57 18-10-2009 08:00:00 5.08 C 6.2 g/m*3 5.08 C 0 km/h
58 18-10-2009 09:00:00 5.86 C 6.4 g/m*3 5.86 C 0 km/h
59 18-10-2009 10:00:00 7.12 C 6.33 g/m*3 7.12 C 0 km/h
60 18-10-2009 11:00:00 7.58 C 5.68 g/m*3 7.58 C 0 km/h
61 18-10-2009 12:00:00 8.98 C 5.49 g/m*3 8.98 C 0 km/h
62 18-10-2009 13:00:00 10.28 C 4.5 g/m*3 10.28 C 0 km/h
63 18-10-2009 14:00:00 11.62 C 4.08 g/m*3 11.62 C 0 km/h
64 18-10-2009 15:00:00 12.12 C 3.93 g/m*3 12.12 C 0 km/h
65 18-10-2009 16:00:00 13.52 C 3.7 g/m*3 13.52 C 0 km/h
66 18-10-2009 17:00:00 13.54 C 3.92 g/m*3 13.54 C 0 km/h
67 18-10-2009 18:00:00 10.1 C 4.41 g/m*3 10.1 C 0 km/h
68 18-10-2009 19:00:00 7.52 C 4.58 g/m*3 7.52 C 0 km/h
69 18-10-2009 20:00:00 6.26 C 4.74 g/m*3 6.26 C 0 km/h
70 18-10-2009 21:00:00 5.14 C 4.87 g/m*3 5.14 C 0 km/h
71 18-10-2009 22:00:00 4.56 C 4.95 g/m*3 4.56 C 0 km/h
72 18-10-2009 23:00:00 3.68 C 4.92 g/m*3 3.68 C 0 km/h
73 19-10-2009 00:00:00 2.9 C 4.87 g/m*3 2.9 C 0 km/h
74 19-10-2009 01:00:00 2.36 C 4.77 g/m*3 2.36 C 0 km/h
75 19-10-2009 02:00:00 1.68 C 4.68 g/m*3 1.68 C 0 km/h
Sensor: Nr:Datum:Temp:Abs-Feuchte:Windchill:Wind:
Aussen-T/F 76 19-10-2009 03:00:00 1.12 C 4.56 g/m*3 1.12 C 0 km/h
77 19-10-2009 04:00:00 0.58 C 4.46 g/m*3 0.58 C 0 km/h
78 19-10-2009 05:00:00 0.16 C 4.38 g/m*3 0.16 C 0 km/h
79 19-10-2009 06:00:00 0.08 C 4.4 g/m*3 0.08 C 0 km/h
80 19-10-2009 07:00:00 0.28 C 4.49 g/m*3 0.28 C 0 km/h
81 19-10-2009 08:00:00 0.36 C 4.45 g/m*3 0.36 C 0 km/h
82 19-10-2009 09:00:00 0.58 C 4.47 g/m*3 0.58 C 0 km/h
83 19-10-2009 10:00:00 1.18 C 4.55 g/m*3 1.18 C 0 km/h
84 19-10-2009 11:00:00 3.24 C 4.85 g/m*3 3.24 C 0 km/h
85 19-10-2009 12:00:00 5 C 5.16 g/m*3 5 C 0 km/h
86 19-10-2009 13:00:00 8.86 C 5.35 g/m*3 8.86 C 0 km/h
87 19-10-2009 14:00:00 12.96 C 4.77 g/m*3 12.96 C 0 km/h
88 19-10-2009 15:00:00 13.76 C 3.68 g/m*3 13.76 C 0 km/h
89 19-10-2009 16:00:00 14.8 C 3.14 g/m*3 14.8 C 0 km/h
90 19-10-2009 17:00:00 12.6 C 3.56 g/m*3 12.6 C 0 km/h
91 19-10-2009 18:00:00 7.44 C 3.94 g/m*3 7.44 C 0 km/h
92 19-10-2009 19:00:00 5.44 C 4.07 g/m*3 5.44 C 0 km/h
93 19-10-2009 20:00:00 4.64 C 4.3 g/m*3 4.64 C 0 km/h
94 19-10-2009 21:00:00 3.96 C 4.45 g/m*3 3.96 C 0 km/h
95 19-10-2009 22:00:00 3.38 C 4.57 g/m*3 3.38 C 0 km/h
96 19-10-2009 23:00:00 2.8 C 4.67 g/m*3 2.8 C 0 km/h
97 20-10-2009 00:00:00 2.36 C 4.69 g/m*3 2.36 C 0 km/h
98 20-10-2009 01:00:00 1.86 C 4.65 g/m*3 1.86 C 0 km/h
99 20-10-2009 02:00:00 1.4 C 4.59 g/m*3 1.4 C 0 km/h
100 20-10-2009 03:00:00 0.86 C 4.48 g/m*3 0.86 C 0 km/h
Sensor: Nr:Datum:Temp:Abs-Feuchte:Windchill:Wind:
Aussen-T/F 101 20-10-2009 04:00:00 0.4 C 4.38 g/m*3 0.4 C 0 km/h
102 20-10-2009 05:00:00 0.08 C 4.33 g/m*3 0.08 C 0 km/h
103 20-10-2009 06:00:00 -0.26 C 4.29 g/m*3 -0.26 C 0 km/h
104 20-10-2009 07:00:00 -0.42 C 4.31 g/m*3 -0.42 C 0 km/h
105 20-10-2009 08:00:00 -0.14 C 4.45 g/m*3 -0.14 C 0 km/h
106 20-10-2009 09:00:00 0.54 C 4.71 g/m*3 0.54 C 0 km/h
107 20-10-2009 10:00:00 2.56 C 4.95 g/m*3 2.56 C 0 km/h
108 20-10-2009 11:00:00 5.82 C 4.43 g/m*3 5.82 C 0 km/h
109 20-10-2009 12:00:00 7.94 C 4.4 g/m*3 7.94 C 0 km/h
110 20-10-2009 13:00:00 10.24 C 4.29 g/m*3 10.24 C 0 km/h
111 20-10-2009 14:00:00 12.22 C 4.26 g/m*3 12.22 C 0 km/h
112 20-10-2009 15:00:00 13.34 C 4.08 g/m*3 13.34 C 0 km/h
113 20-10-2009 16:00:00 13.44 C 4.06 g/m*3 13.44 C 0 km/h
114 20-10-2009 17:00:00 10.94 C 4.39 g/m*3 10.94 C 0 km/h
115 20-10-2009 18:00:00 9.42 C 4.69 g/m*3 9.42 C 0 km/h
116 20-10-2009 19:00:00 8.32 C 4.93 g/m*3 8.32 C 0 km/h
117 20-10-2009 20:00:00 7.26 C 5.03 g/m*3 7.26 C 0 km/h
118 20-10-2009 21:00:00 6.06 C 5.17 g/m*3 6.06 C 0 km/h
119 20-10-2009 22:00:00 5.3 C 5.23 g/m*3 5.3 C 0 km/h
120 20-10-2009 23:00:00 4.56 C 5.16 g/m*3 4.56 C 0 km/h
121 21-10-2009 00:00:00 4.08 C 5.14 g/m*3 4.08 C 0 km/h
122 21-10-2009 01:00:00 3.86 C 5.16 g/m*3 3.86 C 0 km/h
123 21-10-2009 02:00:00 3.98 C 5.14 g/m*3 3.98 C 0 km/h
124 21-10-2009 03:00:00 4.32 C 5.07 g/m*3 4.32 C 0 km/h
125 21-10-2009 04:00:00 4.34 C 5.02 g/m*3 4.34 C 0 km/h
Sensor: Nr:Datum:Temp:Abs-Feuchte:Windchill:Wind:
Aussen-T/F 126 21-10-2009 05:00:00 4.58 C 4.94 g/m*3 4.58 C 0 km/h
127 21-10-2009 06:00:00 4.58 C 4.94 g/m*3 4.58 C 0 km/h
128 21-10-2009 07:00:00 4.72 C 4.94 g/m*3 4.72 C 0 km/h
129 21-10-2009 08:00:00 5.14 C 4.95 g/m*3 5.14 C 0 km/h
130 21-10-2009 09:00:00 5.92 C 4.81 g/m*3 5.92 C 0 km/h
131 21-10-2009 10:00:00 7.18 C 4.7 g/m*3 7.18 C 0 km/h
132 21-10-2009 11:00:00 8.84 C 4.71 g/m*3 8.84 C 0 km/h
133 21-10-2009 12:00:00 9.98 C 4.75 g/m*3 9.98 C 0 km/h
134 21-10-2009 13:00:00 11.68 C 4.74 g/m*3 11.68 C 0 km/h
135 21-10-2009 14:00:00 13.5 C 4.73 g/m*3 13.5 C 0 km/h
136 21-10-2009 15:00:00 13.62 C 4.71 g/m*3 13.62 C 0 km/h
137 21-10-2009 16:00:00 14.72 C 4.87 g/m*3 14.72 C 0 km/h
138 21-10-2009 17:00:00 13.82 C 4.68 g/m*3 13.82 C 0 km/h
139 21-10-2009 18:00:00 11 C 4.58 g/m*3 11 C 0 km/h
140 21-10-2009 19:00:00 9.46 C 4.7 g/m*3 9.46 C 0 km/h
141 21-10-2009 20:00:00 8.5 C 4.99 g/m*3 8.5 C 0 km/h
142 21-10-2009 21:00:00 8.2 C 5.01 g/m*3 8.2 C 0 km/h
143 21-10-2009 22:00:00 8.66 C 4.87 g/m*3 8.66 C 0 km/h
144 21-10-2009 23:00:00 9.08 C 4.41 g/m*3 9.08 C 0 km/h
145 22-10-2009 00:00:00 8.94 C 4.51 g/m*3 8.94 C 0 km/h
146 22-10-2009 01:00:00 8.56 C 4.71 g/m*3 8.56 C 0 km/h
147 22-10-2009 02:00:00 8.06 C 4.91 g/m*3 8.06 C 0 km/h
148 22-10-2009 03:00:00 7.88 C 5.07 g/m*3 7.88 C 0 km/h
149 22-10-2009 04:00:00 7.48 C 5.15 g/m*3 7.48 C 0 km/h
150 22-10-2009 05:00:00 6.98 C 5.59 g/m*3 6.98 C 0 km/h
Sensor: Nr:Datum:Temp:Abs-Feuchte:Windchill:Wind:
Aussen-T/F 151 22-10-2009 06:00:00 6.86 C 5.87 g/m*3 6.86 C 0 km/h
152 22-10-2009 07:00:00 6.96 C 5.66 g/m*3 6.96 C 0 km/h
153 22-10-2009 08:00:00 7.14 C 5.58 g/m*3 7.14 C 0 km/h
154 22-10-2009 09:00:00 8.38 C 5.73 g/m*3 8.38 C 0 km/h
155 22-10-2009 10:00:00 9.56 C 5.43 g/m*3 9.56 C 0 km/h
156 22-10-2009 11:00:00 10.24 C 5.51 g/m*3 10.24 C 0 km/h
157 22-10-2009 12:00:00 10.88 C 5.66 g/m*3 10.88 C 0 km/h
158 22-10-2009 13:00:00 11.82 C 5.73 g/m*3 11.82 C 0 km/h
159 22-10-2009 14:00:00 12.34 C 5.79 g/m*3 12.34 C 0 km/h
160 22-10-2009 15:00:00 12.78 C 6.11 g/m*3 12.78 C 0 km/h
161 22-10-2009 16:00:00 12.42 C 6.63 g/m*3 12.42 C 0 km/h
162 22-10-2009 17:00:00 11.92 C 6.98 g/m*3 11.92 C 0 km/h
163 22-10-2009 18:00:00 11.54 C 6.92 g/m*3 11.54 C 0 km/h
164 22-10-2009 19:00:00 11.04 C 6.84 g/m*3 11.04 C 0 km/h
165 22-10-2009 20:00:00 10.58 C 7 g/m*3 10.58 C 0 km/h
166 22-10-2009 21:00:00 8.82 C 6.78 g/m*3 8.82 C 0 km/h
167 22-10-2009 22:00:00 7.58 C 6.71 g/m*3 7.58 C 0 km/h
168 22-10-2009 23:00:00 6.84 C 6.58 g/m*3 6.84 C 0 km/h
169 23-10-2009 00:00:00 5.98 C 6.34 g/m*3 5.98 C 0 km/h
170 23-10-2009 01:00:00 5.3 C 6.17 g/m*3 5.3 C 0 km/h
171 23-10-2009 02:00:00 4.6 C 5.96 g/m*3 4.6 C 0 km/h
172 23-10-2009 03:00:00 4.32 C 5.91 g/m*3 4.32 C 0 km/h
173 23-10-2009 04:00:00 4.68 C 6.2 g/m*3 4.68 C 0 km/h
174 23-10-2009 05:00:00 4.64 C 6.24 g/m*3 4.64 C 0 km/h
175 23-10-2009 06:00:00 4.78 C 6.25 g/m*3 4.78 C 0 km/h
Sensor: Nr:Datum:Temp:Abs-Feuchte:Windchill:Wind:
Aussen-T/F 176 23-10-2009 07:00:00 4.8 C 6.17 g/m*3 4.8 C 0 km/h
177 23-10-2009 08:00:00 5.2 C 6.25 g/m*3 5.2 C 0 km/h
178 23-10-2009 09:00:00 5.98 C 6.44 g/m*3 5.98 C 0 km/h
179 23-10-2009 10:00:00 6.86 C 6.51 g/m*3 6.86 C 0 km/h
180 23-10-2009 11:00:00 7.66 C 6.41 g/m*3 7.66 C 0 km/h
181 23-10-2009 12:00:00 8.98 C 6.73 g/m*3 8.98 C 0 km/h
182 23-10-2009 13:00:00 10.62 C 6.7 g/m*3 10.62 C 0 km/h
183 23-10-2009 14:00:00 12.5 C 6.97 g/m*3 12.5 C 0 km/h
184 23-10-2009 15:00:00 13.72 C 7.16 g/m*3 13.72 C 0 km/h
185 23-10-2009 16:00:00 14.42 C 7.4 g/m*3 14.42 C 0 km/h
186 23-10-2009 17:00:00 12.5 C 7.92 g/m*3 12.5 C 0 km/h
187 23-10-2009 18:00:00 11 C 8.45 g/m*3 11 C 0 km/h
188 23-10-2009 19:00:00 10.56 C 8.55 g/m*3 10.56 C 0 km/h
189 23-10-2009 20:00:00 10.38 C 8.47 g/m*3 10.38 C 0 km/h
190 23-10-2009 21:00:00 10.36 C 8.4 g/m*3 10.36 C 0 km/h
191 23-10-2009 22:00:00 10.36 C 8.34 g/m*3 10.36 C 0 km/h
192 23-10-2009 23:00:00 9.96 C 8.06 g/m*3 9.96 C 0 km/h
193 24-10-2009 00:00:00 8.92 C 7.86 g/m*3 8.92 C 0 km/h
194 24-10-2009 01:00:00 10.06 C 8.45 g/m*3 10.06 C 0 km/h
195 24-10-2009 02:00:00 8.84 C 7.68 g/m*3 8.84 C 0 km/h
196 24-10-2009 03:00:00 7.58 C 7.32 g/m*3 7.58 C 0 km/h
197 24-10-2009 04:00:00 7.12 C 7.23 g/m*3 7.12 C 0 km/h
198 24-10-2009 05:00:00 6.34 C 6.92 g/m*3 6.34 C 0 km/h
199 24-10-2009 06:00:00 6.16 C 6.91 g/m*3 6.16 C 0 km/h
200 24-10-2009 07:00:00 5.8 C 6.81 g/m*3 5.8 C 0 km/h
Sensor: Nr:Datum:Temp:Abs-Feuchte:Windchill:Wind:
Aussen-T/F 201 24-10-2009 08:00:00 6.64 C 7.19 g/m*3 6.64 C 0 km/h
202 24-10-2009 09:00:00 7.22 C 7.47 g/m*3 7.22 C 0 km/h
203 24-10-2009 10:00:00 9.1 C 8.43 g/m*3 9.1 C 0 km/h
204 24-10-2009 11:00:00 11.28 C 9.37 g/m*3 11.28 C 0 km/h
205 24-10-2009 12:00:00 13.58 C 7.99 g/m*3 13.58 C 0 km/h
206 24-10-2009 13:00:00 14.62 C 7.17 g/m*3 14.62 C 0 km/h
207 24-10-2009 14:00:00 14.42 C 7.23 g/m*3 14.42 C 0 km/h
208 24-10-2009 15:00:00 14.16 C 7.5 g/m*3 14.16 C 0 km/h
209 24-10-2009 16:00:00 14.26 C 7.48 g/m*3 14.26 C 0 km/h
210 24-10-2009 17:00:00 13.34 C 7.57 g/m*3 13.34 C 0 km/h
211 24-10-2009 18:00:00 12.74 C 7.63 g/m*3 12.74 C 0 km/h
212 24-10-2009 19:00:00 12.46 C 7.76 g/m*3 12.46 C 0 km/h
213 24-10-2009 20:00:00 12.38 C 7.79 g/m*3 12.38 C 0 km/h
214 24-10-2009 21:00:00 12.16 C 7.88 g/m*3 12.16 C 0 km/h
215 24-10-2009 22:00:00 11.6 C 8.44 g/m*3 11.6 C 0 km/h
216 24-10-2009 23:00:00 11.65 C 8.99 g/m*3 11.65 C 0 km/h
217 25-10-2009 00:00:00 11.8 C 9.16 g/m*3 11.8 C 0 km/h
218 25-10-2009 01:00:00 12 C 9.23 g/m*3 12 C 0 km/h
219 25-10-2009 02:00:00 11.78 C 9.36 g/m*3 11.78 C 0 km/h
220 25-10-2009 03:00:00 11.8 C 9.51 g/m*3 11.8 C 0 km/h
221 25-10-2009 04:00:00 11.84 C 9.77 g/m*3 11.84 C 0 km/h
222 25-10-2009 05:00:00 12.62 C 10.41 g/m*3 12.62 C 0 km/h
223 25-10-2009 06:00:00 12.34 C 10.12 g/m*3 12.34 C 0 km/h
224 25-10-2009 07:00:00 11.48 C 9.49 g/m*3 11.48 C 0 km/h
225 25-10-2009 08:00:00 10.62 C 8.89 g/m*3 10.62 C 0 km/h
Sensor: Nr:Datum:Temp:Abs-Feuchte:Windchill:Wind:
Aussen-T/F 226 25-10-2009 09:00:00 11.12 C 8.77 g/m*3 11.12 C 0 km/h
227 25-10-2009 10:00:00 12.66 C 8.31 g/m*3 12.66 C 0 km/h
228 25-10-2009 11:00:00 13.92 C 7.95 g/m*3 13.92 C 0 km/h
229 25-10-2009 12:00:00 15.6 C 7.39 g/m*3 15.6 C 0 km/h
230 25-10-2009 13:00:00 16.24 C 6.77 g/m*3 16.24 C 0 km/h
231 25-10-2009 14:00:00 17.24 C 6.61 g/m*3 17.24 C 0 km/h
232 25-10-2009 15:00:00 17.32 C 6.52 g/m*3 17.32 C 0 km/h
233 25-10-2009 16:00:00 15.68 C 6.74 g/m*3 15.68 C 0 km/h
234 25-10-2009 17:00:00 13.82 C 7.11 g/m*3 13.82 C 0 km/h
235 25-10-2009 18:00:00 12.64 C 7.25 g/m*3 12.64 C 0 km/h
236 25-10-2009 19:00:00 11.5 C 7.35 g/m*3 11.5 C 0 km/h
237 25-10-2009 20:00:00 10.68 C 7.38 g/m*3 10.68 C 0 km/h
238 25-10-2009 21:00:00 9.94 C 7.38 g/m*3 9.94 C 0 km/h
239 25-10-2009 22:00:00 9.12 C 7.32 g/m*3 9.12 C 0 km/h
240 25-10-2009 23:00:00 9.64 C 7.62 g/m*3 9.64 C 0 km/h
241 26-10-2009 00:00:00 9.72 C 7.75 g/m*3 9.72 C 0 km/h
242 26-10-2009 01:00:00 9.36 C 7.7 g/m*3 9.36 C 0 km/h
243 26-10-2009 02:00:00 9.3 C 7.67 g/m*3 9.3 C 0 km/h
244 26-10-2009 03:00:00 10.02 C 7.68 g/m*3 10.02 C 0 km/h
245 26-10-2009 04:00:00 10.3 C 7.58 g/m*3 10.3 C 0 km/h
246 26-10-2009 05:00:00 10.68 C 7.4 g/m*3 10.68 C 0 km/h
247 26-10-2009 06:00:00 10.2 C 7.46 g/m*3 10.2 C 0 km/h
248 26-10-2009 07:00:00 10.34 C 7.41 g/m*3 10.34 C 0 km/h
249 26-10-2009 08:00:00 10.84 C 7.41 g/m*3 10.84 C 0 km/h
250 26-10-2009 09:00:00 11.24 C 7.46 g/m*3 11.24 C 0 km/h
Sensor: Nr:Datum:Temp:Abs-Feuchte:Windchill:Wind:
Aussen-T/F 251 26-10-2009 10:00:00 11.8 C 7.49 g/m*3 11.8 C 0 km/h
252 26-10-2009 11:00:00 13.46 C 7.21 g/m*3 13.46 C 0 km/h
253 26-10-2009 12:00:00 14.34 C 7 g/m*3 14.34 C 0 km/h
254 26-10-2009 13:00:00 14.08 C 7.01 g/m*3 14.08 C 0 km/h
255 26-10-2009 14:00:00 14.02 C 6.93 g/m*3 14.02 C 0 km/h
256 26-10-2009 15:00:00 13.74 C 7.1 g/m*3 13.74 C 0 km/h
257 26-10-2009 16:00:00 13.5 C 7.16 g/m*3 13.5 C 0 km/h
258 26-10-2009 17:00:00 13.18 C 7.25 g/m*3 13.18 C 0 km/h
259 26-10-2009 18:00:00 13.02 C 7.52 g/m*3 13.02 C 0 km/h
260 26-10-2009 19:00:00 12.74 C 7.77 g/m*3 12.74 C 0 km/h
261 26-10-2009 20:00:00 12.5 C 7.96 g/m*3 12.5 C 0 km/h
262 26-10-2009 21:00:00 12.4 C 8 g/m*3 12.4 C 0 km/h
263 26-10-2009 22:00:00 12.3 C 8.04 g/m*3 12.3 C 0 km/h
264 26-10-2009 23:00:00 12.22 C 8.02 g/m*3 12.22 C 0 km/h
265 27-10-2009 00:00:00 12.2 C 7.99 g/m*3 12.2 C 0 km/h
266 27-10-2009 01:00:00 11.72 C 8.36 g/m*3 11.72 C 0 km/h
267 27-10-2009 02:00:00 11.7 C 8.22 g/m*3 11.7 C 0 km/h
268 27-10-2009 03:00:00 11.4 C 8.27 g/m*3 11.4 C 0 km/h
269 27-10-2009 04:00:00 11.34 C 8.39 g/m*3 11.34 C 0 km/h
270 27-10-2009 05:00:00 11.2 C 8.27 g/m*3 11.2 C 0 km/h
271 27-10-2009 06:00:00 11.2 C 8.13 g/m*3 11.2 C 0 km/h
272 27-10-2009 07:00:00 11.06 C 8.12 g/m*3 11.06 C 0 km/h
273 27-10-2009 08:00:00 11.22 C 8.22 g/m*3 11.22 C 0 km/h
274 27-10-2009 09:00:00 11.94 C 8.28 g/m*3 11.94 C 0 km/h
275 27-10-2009 10:00:00 12.88 C 8.1 g/m*3 12.88 C 0 km/h
Sensor: Nr:Datum:Temp:Abs-Feuchte:Windchill:Wind:
Aussen-T/F 276 27-10-2009 11:00:00 13.92 C 7.68 g/m*3 13.92 C 0 km/h
277 27-10-2009 12:00:00 14.94 C 7.28 g/m*3 14.94 C 0 km/h
278 27-10-2009 13:00:00 15.58 C 7.33 g/m*3 15.58 C 0 km/h
279 27-10-2009 14:00:00 15.74 C 7.11 g/m*3 15.74 C 0 km/h
280 27-10-2009 15:00:00 15.48 C 6.94 g/m*3 15.48 C 0 km/h
281 27-10-2009 16:00:00 14.58 C 7.22 g/m*3 14.58 C 0 km/h
282 27-10-2009 17:00:00 12.54 C 6.72 g/m*3 12.54 C 0 km/h
283 27-10-2009 18:00:00 10.76 C 6.66 g/m*3 10.76 C 0 km/h
284 27-10-2009 19:00:00 9.86 C 6.82 g/m*3 9.86 C 0 km/h
285 27-10-2009 20:00:00 9.08 C 6.84 g/m*3 9.08 C 0 km/h
286 27-10-2009 21:00:00 8.46 C 6.88 g/m*3 8.46 C 0 km/h
287 27-10-2009 22:00:00 7.8 C 6.79 g/m*3 7.8 C 0 km/h
288 27-10-2009 23:00:00 7.18 C 6.73 g/m*3 7.18 C 0 km/h
289 28-10-2009 00:00:00 6.48 C 6.56 g/m*3 6.48 C 0 km/h
290 28-10-2009 01:00:00 5.92 C 6.41 g/m*3 5.92 C 0 km/h
291 28-10-2009 02:00:00 5.52 C 6.33 g/m*3 5.52 C 0 km/h
292 28-10-2009 03:00:00 5.66 C 6.47 g/m*3 5.66 C 0 km/h
293 28-10-2009 04:00:00 5.82 C 6.6 g/m*3 5.82 C 0 km/h
294 28-10-2009 05:00:00 5.44 C 6.44 g/m*3 5.44 C 0 km/h
295 28-10-2009 06:00:00 5.3 C 6.39 g/m*3 5.3 C 0 km/h
296 28-10-2009 07:00:00 5.06 C 6.34 g/m*3 5.06 C 0 km/h
297 28-10-2009 08:00:00 5.34 C 6.49 g/m*3 5.34 C 0 km/h
298 28-10-2009 09:00:00 6.34 C 6.83 g/m*3 6.34 C 0 km/h
299 28-10-2009 10:00:00 7.2 C 6.92 g/m*3 7.2 C 0 km/h
300 28-10-2009 11:00:00 9.02 C 7.24 g/m*3 9.02 C 0 km/h
Sensor: Nr:Datum:Temp:Abs-Feuchte:Windchill:Wind:
Aussen-T/F 301 28-10-2009 12:00:00 11.04 C 7.25 g/m*3 11.04 C 0 km/h
302 28-10-2009 13:00:00 13.46 C 7.72 g/m*3 13.46 C 0 km/h
303 28-10-2009 14:00:00 16 C 7.49 g/m*3 16 C 0 km/h
304 28-10-2009 15:00:00 14.7 C 7.58 g/m*3 14.7 C 0 km/h
305 28-10-2009 16:00:00 13.02 C 7.95 g/m*3 13.02 C 0 km/h
306 28-10-2009 17:00:00 11.46 C 7.75 g/m*3 11.46 C 0 km/h
307 28-10-2009 18:00:00 10.22 C 7.51 g/m*3 10.22 C 0 km/h
308 28-10-2009 19:00:00 9.2 C 7.48 g/m*3 9.2 C 0 km/h
309 28-10-2009 20:00:00 8.26 C 7.25 g/m*3 8.26 C 0 km/h
310 28-10-2009 21:00:00 7.46 C 7.04 g/m*3 7.46 C 0 km/h
311 28-10-2009 22:00:00 6.9 C 6.91 g/m*3 6.9 C 0 km/h
312 28-10-2009 23:00:00 6.28 C 6.74 g/m*3 6.28 C 0 km/h
313 29-10-2009 00:00:00 5.78 C 6.6 g/m*3 5.78 C 0 km/h
314 29-10-2009 01:00:00 5.64 C 6.62 g/m*3 5.64 C 0 km/h
315 29-10-2009 02:00:00 5.8 C 6.79 g/m*3 5.8 C 0 km/h
316 29-10-2009 03:00:00 5.74 C 6.78 g/m*3 5.74 C 0 km/h
317 29-10-2009 04:00:00 5.48 C 6.66 g/m*3 5.48 C 0 km/h
318 29-10-2009 05:00:00 5.56 C 6.7 g/m*3 5.56 C 0 km/h
319 29-10-2009 06:00:00 5.58 C 6.71 g/m*3 5.58 C 0 km/h
320 29-10-2009 07:00:00 5.78 C 6.74 g/m*3 5.78 C 0 km/h
321 29-10-2009 08:00:00 6.3 C 6.84 g/m*3 6.3 C 0 km/h
322 29-10-2009 09:00:00 7.42 C 7.1 g/m*3 7.42 C 0 km/h
323 29-10-2009 10:00:00 8.64 C 7.17 g/m*3 8.64 C 0 km/h
324 29-10-2009 11:00:00 10.24 C 7.25 g/m*3 10.24 C 0 km/h
325 29-10-2009 12:00:00 10.98 C 7.42 g/m*3 10.98 C 0 km/h
Sensor: Nr:Datum:Temp:Abs-Feuchte:Windchill:Wind:
Aussen-T/F 326 29-10-2009 13:00:00 11.72 C 7.88 g/m*3 11.72 C 0 km/h
327 29-10-2009 14:00:00 11.94 C 7.96 g/m*3 11.94 C 0 km/h
328 29-10-2009 15:00:00 11.9 C 8.11 g/m*3 11.9 C 0 km/h
329 29-10-2009 16:00:00 11.52 C 8.13 g/m*3 11.52 C 0 km/h
330 29-10-2009 17:00:00 10.98 C 8.14 g/m*3 10.98 C 0 km/h
331 29-10-2009 18:00:00 10.7 C 8.27 g/m*3 10.7 C 0 km/h
332 29-10-2009 19:00:00 10.4 C 8.23 g/m*3 10.4 C 0 km/h
333 29-10-2009 20:00:00 10.4 C 8.38 g/m*3 10.4 C 0 km/h
334 29-10-2009 21:00:00 10.12 C 8.28 g/m*3 10.12 C 0 km/h
335 29-10-2009 22:00:00 10.08 C 8.31 g/m*3 10.08 C 0 km/h
336 29-10-2009 23:00:00 9.94 C 8.27 g/m*3 9.94 C 0 km/h
337 30-10-2009 00:00:00 9.62 C 8.2 g/m*3 9.62 C 0 km/h
338 30-10-2009 01:00:00 9.68 C 8.36 g/m*3 9.68 C 0 km/h
339 30-10-2009 02:00:00 9.7 C 8.39 g/m*3 9.7 C 0 km/h
340 30-10-2009 03:00:00 9.86 C 8.48 g/m*3 9.86 C 0 km/h
341 30-10-2009 04:00:00 9.78 C 8.43 g/m*3 9.78 C 0 km/h
342 30-10-2009 05:00:00 9.6 C 8.35 g/m*3 9.6 C 0 km/h
343 30-10-2009 06:00:00 8.66 C 7.99 g/m*3 8.66 C 0 km/h
344 30-10-2009 07:00:00 8.1 C 7.79 g/m*3 8.1 C 0 km/h
345 30-10-2009 08:00:00 8.4 C 8.03 g/m*3 8.4 C 0 km/h
346 30-10-2009 09:00:00 8.88 C 8.21 g/m*3 8.88 C 0 km/h
347 30-10-2009 10:00:00 10.14 C 8.21 g/m*3 10.14 C 0 km/h
348 30-10-2009 11:00:00 11.76 C 7.52 g/m*3 11.76 C 0 km/h
349 30-10-2009 12:00:00 13.42 C 7.24 g/m*3 13.42 C 0 km/h
350 30-10-2009 13:00:00 14.88 C 7.28 g/m*3 14.88 C 0 km/h
Sensor: Nr:Datum:Temp:Abs-Feuchte:Windchill:Wind:
Aussen-T/F 351 30-10-2009 14:00:00 17.04 C 6.64 g/m*3 17.04 C 0 km/h
352 30-10-2009 15:00:00 17.18 C 5.73 g/m*3 17.18 C 0 km/h
353 30-10-2009 16:00:00 15.58 C 6.19 g/m*3 15.58 C 0 km/h
354 30-10-2009 17:00:00 11.84 C 6.63 g/m*3 11.84 C 0 km/h
355 30-10-2009 18:00:00 10.24 C 6.85 g/m*3 10.24 C 0 km/h
356 30-10-2009 19:00:00 9.44 C 6.96 g/m*3 9.44 C 0 km/h
357 30-10-2009 20:00:00 8.44 C 6.82 g/m*3 8.44 C 0 km/h
358 30-10-2009 21:00:00 7.52 C 6.7 g/m*3 7.52 C 0 km/h
359 30-10-2009 22:00:00 7 C 6.56 g/m*3 7 C 0 km/h
360 30-10-2009 23:00:00 6.22 C 6.32 g/m*3 6.22 C 0 km/h
361 31-10-2009 00:00:00 5.68 C 6.25 g/m*3 5.68 C 0 km/h
362 31-10-2009 01:00:00 5.12 C 6.12 g/m*3 5.12 C 0 km/h
363 31-10-2009 02:00:00 4.46 C 5.9 g/m*3 4.46 C 0 km/h
364 31-10-2009 03:00:00 3.94 C 5.79 g/m*3 3.94 C 0 km/h
365 31-10-2009 04:00:00 3.72 C 5.74 g/m*3 3.72 C 0 km/h
366 31-10-2009 05:00:00 3.82 C 5.83 g/m*3 3.82 C 0 km/h
367 31-10-2009 06:00:00 3.58 C 5.79 g/m*3 3.58 C 0 km/h
368 31-10-2009 07:00:00 3.74 C 5.94 g/m*3 3.74 C 0 km/h
369 31-10-2009 08:00:00 4.24 C 6.14 g/m*3 4.24 C 0 km/h
370 31-10-2009 09:00:00 5.22 C 6.48 g/m*3 5.22 C 0 km/h
371 31-10-2009 10:00:00 7.02 C 6.75 g/m*3 7.02 C 0 km/h
372 31-10-2009 11:00:00 8.74 C 6.36 g/m*3 8.74 C 0 km/h
373 31-10-2009 12:00:00 9.94 C 5.54 g/m*3 9.94 C 0 km/h
374 31-10-2009 13:00:00 11.5 C 5.06 g/m*3 11.5 C 0 km/h
375 31-10-2009 14:00:00 12.88 C 4.59 g/m*3 12.88 C 0 km/h
Sensor: Nr:Datum:Temp:Abs-Feuchte:Windchill:Wind:
Aussen-T/F 376 31-10-2009 15:00:00 13.16 C 4.51 g/m*3 13.16 C 0 km/h
377 31-10-2009 16:00:00 11.48 C 4.62 g/m*3 11.48 C 0 km/h
378 31-10-2009 17:00:00 9.08 C 4.8 g/m*3 9.08 C 0 km/h
379 31-10-2009 18:00:00 8.18 C 5.1 g/m*3 8.18 C 0 km/h
380 31-10-2009 19:00:00 6.82 C 5.33 g/m*3 6.82 C 0 km/h
381 31-10-2009 20:00:00 6.5 C 5.58 g/m*3 6.5 C 0 km/h
382 31-10-2009 21:00:00 6.76 C 5.68 g/m*3 6.76 C 0 km/h
383 31-10-2009 22:00:00 6.64 C 5.71 g/m*3 6.64 C 0 km/h
384 31-10-2009 23:00:00 6.52 C 5.71 g/m*3 6.52 C 0 km/h
385 01-11-2009 00:00:00 5.96 C 5.7 g/m*3 5.96 C 0 km/h
386 01-11-2009 01:00:00 5.62 C 5.79 g/m*3 5.62 C 0 km/h
387 01-11-2009 02:00:00 5.1 C 5.75 g/m*3 5.1 C 0 km/h
388 01-11-2009 03:00:00 5.52 C 6.09 g/m*3 5.52 C 0 km/h
389 01-11-2009 04:00:00 5.68 C 6.15 g/m*3 5.68 C 0 km/h
390 01-11-2009 05:00:00 6.1 C 6.22 g/m*3 6.1 C 0 km/h
391 01-11-2009 06:00:00 6.66 C 6.4 g/m*3 6.66 C 0 km/h
392 01-11-2009 07:00:00 6.78 C 6.35 g/m*3 6.78 C 0 km/h
393 01-11-2009 08:00:00 7.82 C 6.37 g/m*3 7.82 C 0 km/h
394 01-11-2009 09:00:00 8.8 C 6.14 g/m*3 8.8 C 0 km/h
395 01-11-2009 10:00:00 9.76 C 6.14 g/m*3 9.76 C 0 km/h
396 01-11-2009 11:00:00 12.26 C 6.46 g/m*3 12.26 C 0 km/h
397 01-11-2009 12:00:00 13.6 C 6.33 g/m*3 13.6 C 0 km/h
398 01-11-2009 13:00:00 14.16 C 6.33 g/m*3 14.16 C 0 km/h
399 01-11-2009 14:00:00 13.6 C 6.33 g/m*3 13.6 C 0 km/h
400 01-11-2009 15:00:00 12.28 C 6.36 g/m*3 12.28 C 0 km/h
Sensor: Nr:Datum:Temp:Abs-Feuchte:Windchill:Wind:
Aussen-T/F 401 01-11-2009 16:00:00 11.52 C 6.52 g/m*3 11.52 C 0 km/h
402 01-11-2009 17:00:00 11.04 C 6.74 g/m*3 11.04 C 0 km/h
403 01-11-2009 18:00:00 9.94 C 7.02 g/m*3 9.94 C 0 km/h
404 01-11-2009 19:00:00 9.44 C 7.69 g/m*3 9.44 C 0 km/h
405 01-11-2009 20:00:00 9.44 C 8.07 g/m*3 9.44 C 0 km/h
406 01-11-2009 21:00:00 9.44 C 8.18 g/m*3 9.44 C 0 km/h
407 01-11-2009 22:00:00 9.66 C 8.4 g/m*3 9.66 C 0 km/h
408 01-11-2009 23:00:00 9.98 C 8.6 g/m*3 9.98 C 0 km/h
409 02-11-2009 00:00:00 10.2 C 8.76 g/m*3 10.2 C 0 km/h
410 02-11-2009 01:00:00 10.26 C 8.83 g/m*3 10.26 C 0 km/h
411 02-11-2009 02:00:00 10.68 C 9.22 g/m*3 10.68 C 0 km/h
412 02-11-2009 03:00:00 10.98 C 9.5 g/m*3 10.98 C 0 km/h
413 02-11-2009 04:00:00 10.36 C 9.13 g/m*3 10.36 C 0 km/h
414 02-11-2009 05:00:00 10.42 C 9.17 g/m*3 10.42 C 0 km/h
415 02-11-2009 06:00:00 10 C 8.93 g/m*3 10 C 0 km/h
416 02-11-2009 07:00:00 10 C 8.93 g/m*3 10 C 0 km/h
417 02-11-2009 08:00:00 10.26 C 9.07 g/m*3 10.26 C 0 km/h
418 02-11-2009 09:00:00 10.8 C 9.39 g/m*3 10.8 C 0 km/h
419 02-11-2009 10:00:00 11.36 C 9.32 g/m*3 11.36 C 0 km/h
420 02-11-2009 11:00:00 12.26 C 8.93 g/m*3 12.26 C 0 km/h
421 02-11-2009 12:00:00 13 C 8.32 g/m*3 13 C 0 km/h
422 02-11-2009 13:00:00 13.18 C 7.71 g/m*3 13.18 C 0 km/h
423 02-11-2009 14:00:00 13.36 C 6.91 g/m*3 13.36 C 0 km/h
424 02-11-2009 15:00:00 12.34 C 6.92 g/m*3 12.34 C 0 km/h
425 02-11-2009 16:00:00 9.32 C 7.74 g/m*3 9.32 C 0 km/h
Sensor: Nr:Datum:Temp:Abs-Feuchte:Windchill:Wind:
Aussen-T/F 426 02-11-2009 17:00:00 9.06 C 8.02 g/m*3 9.06 C 0 km/h
427 02-11-2009 18:00:00 8.86 C 8.09 g/m*3 8.86 C 0 km/h
428 02-11-2009 19:00:00 8.7 C 7.97 g/m*3 8.7 C 0 km/h
429 02-11-2009 20:00:00 8.7 C 7.47 g/m*3 8.7 C 0 km/h
430 02-11-2009 21:00:00 8.28 C 7 g/m*3 8.28 C 0 km/h
431 02-11-2009 22:00:00 7.92 C 6.56 g/m*3 7.92 C 0 km/h
432 02-11-2009 23:00:00 7.46 C 6.61 g/m*3 7.46 C 0 km/h
433 03-11-2009 00:00:00 7.02 C 6.47 g/m*3 7.02 C 0 km/h
434 03-11-2009 01:00:00 6.34 C 6.41 g/m*3 6.34 C 0 km/h
435 03-11-2009 02:00:00 6.1 C 6.43 g/m*3 6.1 C 0 km/h
436 03-11-2009 03:00:00 6.9 C 6.31 g/m*3 6.9 C 0 km/h
437 03-11-2009 04:00:00 6.84 C 6.12 g/m*3 6.84 C 0 km/h
438 03-11-2009 05:00:00 6.04 C 6 g/m*3 6.04 C 0 km/h
439 03-11-2009 06:00:00 5.16 C 5.92 g/m*3 5.16 C 0 km/h
440 03-11-2009 07:00:00 4.52 C 5.84 g/m*3 4.52 C 0 km/h
441 03-11-2009 08:00:00 4.08 C 5.78 g/m*3 4.08 C 0 km/h
442 03-11-2009 09:00:00 5.66 C 6.53 g/m*3 5.66 C 0 km/h
443 03-11-2009 10:00:00 7.5 C 6.72 g/m*3 7.5 C 0 km/h
444 03-11-2009 11:00:00 8.6 C 5.95 g/m*3 8.6 C 0 km/h
445 03-11-2009 12:00:00 10 C 5.88 g/m*3 10 C 0 km/h
446 03-11-2009 13:00:00 11.24 C 5.06 g/m*3 11.24 C 0 km/h
447 03-11-2009 14:00:00 10.82 C 5.09 g/m*3 10.82 C 0 km/h
448 03-11-2009 15:00:00 10.54 C 5.11 g/m*3 10.54 C 0 km/h
449 03-11-2009 16:00:00 10 C 5.24 g/m*3 10 C 0 km/h
450 03-11-2009 17:00:00 9.6 C 5.59 g/m*3 9.6 C 0 km/h
Sensor: Nr:Datum:Temp:Abs-Feuchte:Windchill:Wind:
Aussen-T/F 451 03-11-2009 18:00:00 8.88 C 6.21 g/m*3 8.88 C 0 km/h
452 03-11-2009 19:00:00 9.02 C 6.48 g/m*3 9.02 C 0 km/h
453 03-11-2009 20:00:00 9.26 C 6.56 g/m*3 9.26 C 0 km/h
454 03-11-2009 21:00:00 9.38 C 6.7 g/m*3 9.38 C 0 km/h
455 03-11-2009 22:00:00 9.66 C 7.1 g/m*3 9.66 C 0 km/h
456 03-11-2009 23:00:00 10.32 C 7.33 g/m*3 10.32 C 0 km/h
457 04-11-2009 00:00:00 10.02 C 7.64 g/m*3 10.02 C 0 km/h
458 04-11-2009 01:00:00 9.94 C 8.01 g/m*3 9.94 C 0 km/h
459 04-11-2009 02:00:00 9.9 C 8.33 g/m*3 9.9 C 0 km/h
460 04-11-2009 03:00:00 9.84 C 8.61 g/m*3 9.84 C 0 km/h
461 04-11-2009 04:00:00 9.54 C 8.54 g/m*3 9.54 C 0 km/h
462 04-11-2009 05:00:00 9.1 C 8.27 g/m*3 9.1 C 0 km/h
463 04-11-2009 06:00:00 8 C 7.62 g/m*3 8 C 0 km/h
464 04-11-2009 07:00:00 7.56 C 7.14 g/m*3 7.56 C 0 km/h
465 04-11-2009 08:00:00 7.88 C 7.24 g/m*3 7.88 C 0 km/h
466 04-11-2009 09:00:00 7.82 C 7.27 g/m*3 7.82 C 0 km/h
467 04-11-2009 10:00:00 7.94 C 6.77 g/m*3 7.94 C 0 km/h
468 04-11-2009 11:00:00 8.52 C 6.89 g/m*3 8.52 C 0 km/h
469 04-11-2009 12:00:00 8.66 C 6.81 g/m*3 8.66 C 0 km/h
470 04-11-2009 13:00:00 9.92 C 6.32 g/m*3 9.92 C 0 km/h
471 04-11-2009 14:00:00 10.54 C 6.03 g/m*3 10.54 C 0 km/h
472 04-11-2009 15:00:00 9.76 C 5.96 g/m*3 9.76 C 0 km/h
473 04-11-2009 16:00:00 9.12 C 6.36 g/m*3 9.12 C 0 km/h
474 04-11-2009 17:00:00 8.14 C 6.76 g/m*3 8.14 C 0 km/h
475 04-11-2009 18:00:00 8.12 C 6.88 g/m*3 8.12 C 0 km/h
Sensor: Nr:Datum:Temp:Abs-Feuchte:Windchill:Wind:
Aussen-T/F 476 04-11-2009 19:00:00 8.26 C 6.41 g/m*3 8.26 C 0 km/h
477 04-11-2009 20:00:00 8.14 C 6.11 g/m*3 8.14 C 0 km/h
478 04-11-2009 21:00:00 7.7 C 6.08 g/m*3 7.7 C 0 km/h
479 04-11-2009 22:00:00 7.62 C 6.11 g/m*3 7.62 C 0 km/h
480 04-11-2009 23:00:00 7.96 C 6.14 g/m*3 7.96 C 0 km/h
481 05-11-2009 00:00:00 8.12 C 6.13 g/m*3 8.12 C 0 km/h
482 05-11-2009 01:00:00 8.2 C 6.01 g/m*3 8.2 C 0 km/h
483 05-11-2009 02:00:00 8.34 C 5.81 g/m*3 8.34 C 0 km/h
484 05-11-2009 03:00:00 8.64 C 5.75 g/m*3 8.64 C 0 km/h
485 05-11-2009 04:00:00 8.04 C 6.2 g/m*3 8.04 C 0 km/h
486 05-11-2009 05:00:00 7.68 C 6.53 g/m*3 7.68 C 0 km/h
487 05-11-2009 06:00:00 7.34 C 6.64 g/m*3 7.34 C 0 km/h
488 05-11-2009 07:00:00 7.5 C 6.68 g/m*3 7.5 C 0 km/h
489 05-11-2009 08:00:00 8.14 C 6.52 g/m*3 8.14 C 0 km/h
490 05-11-2009 09:00:00 8.88 C 6.35 g/m*3 8.88 C 0 km/h
491 05-11-2009 10:00:00 9.72 C 6.13 g/m*3 9.72 C 0 km/h
492 05-11-2009 11:00:00 10.02 C 6.06 g/m*3 10.02 C 0 km/h
493 05-11-2009 12:00:00 11.1 C 5.9 g/m*3 11.1 C 0 km/h
494 05-11-2009 13:00:00 11.6 C 5.7 g/m*3 11.6 C 0 km/h
495 05-11-2009 14:00:00 11.2 C 5.62 g/m*3 11.2 C 0 km/h
496 05-11-2009 15:00:00 10.84 C 5.65 g/m*3 10.84 C 0 km/h
497 05-11-2009 16:00:00 10.42 C 5.69 g/m*3 10.42 C 0 km/h
498 05-11-2009 17:00:00 10.08 C 5.8 g/m*3 10.08 C 0 km/h
499 05-11-2009 18:00:00 9.96 C 5.96 g/m*3 9.96 C 0 km/h
500 05-11-2009 19:00:00 9.92 C 6.11 g/m*3 9.92 C 0 km/h
Sensor: Nr:Datum:Temp:Abs-Feuchte:Windchill:Wind:
Aussen-T/F 501 05-11-2009 20:00:00 9.74 C 6.38 g/m*3 9.74 C 0 km/h
502 05-11-2009 21:00:00 9.44 C 6.62 g/m*3 9.44 C 0 km/h
503 05-11-2009 22:00:00 9.075 C 6.95 g/m*3 9.07 C 0 km/h
504 05-11-2009 23:00:00 9.1 C 6.81 g/m*3 9.1 C 0 km/h
505 06-11-2009 00:00:00 9.02 C 6.55 g/m*3 9.02 C 0 km/h
506 06-11-2009 01:00:00 9.18 C 6.49 g/m*3 9.18 C 0 km/h
507 06-11-2009 02:00:00 9 C 6.52 g/m*3 9 C 0 km/h
508 06-11-2009 03:00:00 8.92 C 6.54 g/m*3 8.92 C 0 km/h
509 06-11-2009 04:00:00 9 C 6.63 g/m*3 9 C 0 km/h
510 06-11-2009 05:00:00 8.94 C 6.78 g/m*3 8.94 C 0 km/h
511 06-11-2009 06:00:00 9.08 C 6.82 g/m*3 9.08 C 0 km/h
512 06-11-2009 07:00:00 9.08 C 6.68 g/m*3 9.08 C 0 km/h
513 06-11-2009 08:00:00 9 C 6.82 g/m*3 9 C 0 km/h
514 06-11-2009 09:00:00 9.74 C 6.93 g/m*3 9.74 C 0 km/h
515 06-11-2009 10:00:00 10.32 C 6.44 g/m*3 10.32 C 0 km/h
516 06-11-2009 11:00:00 10.86 C 6.17 g/m*3 10.86 C 0 km/h
517 06-11-2009 12:00:00 10.78 C 5.9 g/m*3 10.78 C 0 km/h
518 06-11-2009 13:00:00 10.66 C 5.68 g/m*3 10.66 C 0 km/h
519 06-11-2009 14:00:00 10.4 C 5.84 g/m*3 10.4 C 0 km/h
520 06-11-2009 15:00:00 10.5 C 5.61 g/m*3 10.5 C 0 km/h
521 06-11-2009 16:00:00 10.1 C 5.69 g/m*3 10.1 C 0 km/h
522 06-11-2009 17:00:00 9.64 C 5.84 g/m*3 9.64 C 0 km/h
523 06-11-2009 18:00:00 9.28 C 6.05 g/m*3 9.28 C 0 km/h
524 06-11-2009 19:00:00 9.2 C 6.14 g/m*3 9.2 C 0 km/h
525 06-11-2009 20:00:00 9.08 C 6.19 g/m*3 9.08 C 0 km/h
Sensor: Nr:Datum:Temp:Abs-Feuchte:Windchill:Wind:
Aussen-T/F 526 06-11-2009 21:00:00 8.72 C 6.11 g/m*3 8.72 C 0 km/h
527 06-11-2009 22:00:00 8.36 C 5.99 g/m*3 8.36 C 0 km/h
528 06-11-2009 23:00:00 7.54 C 5.91 g/m*3 7.54 C 0 km/h
529 07-11-2009 00:00:00 7.12 C 5.89 g/m*3 7.12 C 0 km/h
530 07-11-2009 01:00:00 7.46 C 5.81 g/m*3 7.46 C 0 km/h
531 07-11-2009 02:00:00 7.74 C 5.66 g/m*3 7.74 C 0 km/h
532 07-11-2009 03:00:00 7.8 C 5.57 g/m*3 7.8 C 0 km/h
533 07-11-2009 04:00:00 7.78 C 5.48 g/m*3 7.78 C 0 km/h
534 07-11-2009 05:00:00 7.74 C 5.41 g/m*3 7.74 C 0 km/h
535 07-11-2009 06:00:00 7.84 C 5.32 g/m*3 7.84 C 0 km/h
536 07-11-2009 07:00:00 6.54 C 5.87 g/m*3 6.54 C 0 km/h
537 07-11-2009 08:00:00 6.74 C 6.25 g/m*3 6.74 C 0 km/h
538 07-11-2009 09:00:00 7.68 C 5.9 g/m*3 7.68 C 0 km/h
539 07-11-2009 10:00:00 7.48 C 5.85 g/m*3 7.48 C 0 km/h
540 07-11-2009 11:00:00 7.9 C 5.93 g/m*3 7.9 C 0 km/h
541 07-11-2009 12:00:00 8.32 C 5.92 g/m*3 8.32 C 0 km/h
542 07-11-2009 13:00:00 8.36 C 6.13 g/m*3 8.36 C 0 km/h
543 07-11-2009 14:00:00 10 C 6.26 g/m*3 10 C 0 km/h
544 07-11-2009 15:00:00 10.76 C 5.97 g/m*3 10.76 C 0 km/h
545 07-11-2009 16:00:00 9.82 C 5.93 g/m*3 9.82 C 0 km/h
546 07-11-2009 17:00:00 8.3 C 5.87 g/m*3 8.3 C 0 km/h
547 07-11-2009 18:00:00 8.56 C 6.14 g/m*3 8.56 C 0 km/h
548 07-11-2009 19:00:00 8.56 C 6.15 g/m*3 8.56 C 0 km/h
549 07-11-2009 20:00:00 8.34 C 6.12 g/m*3 8.34 C 0 km/h
550 07-11-2009 21:00:00 8.18 C 6.24 g/m*3 8.18 C 0 km/h
Sensor: Nr:Datum:Temp:Abs-Feuchte:Windchill:Wind:
Aussen-T/F 551 07-11-2009 22:00:00 7.9 C 6.36 g/m*3 7.9 C 0 km/h
552 07-11-2009 23:00:00 7.86 C 6.42 g/m*3 7.86 C 0 km/h
553 08-11-2009 00:00:00 7.24 C 6.5 g/m*3 7.24 C 0 km/h
554 08-11-2009 01:00:00 7.24 C 6.67 g/m*3 7.24 C 0 km/h
555 08-11-2009 02:00:00 7.3 C 6.61 g/m*3 7.3 C 0 km/h
556 08-11-2009 03:00:00 7.02 C 6.56 g/m*3 7.02 C 0 km/h
557 08-11-2009 04:00:00 7.02 C 6.7 g/m*3 7.02 C 0 km/h
558 08-11-2009 05:00:00 6.2 C 6.43 g/m*3 6.2 C 0 km/h
559 08-11-2009 06:00:00 4.98 C 6.08 g/m*3 4.98 C 0 km/h
560 08-11-2009 07:00:00 4.66 C 6.05 g/m*3 4.66 C 0 km/h
561 08-11-2009 08:00:00 3.88 C 5.78 g/m*3 3.88 C 0 km/h
562 08-11-2009 09:00:00 3.88 C 5.88 g/m*3 3.88 C 0 km/h
563 08-11-2009 10:00:00 4.92 C 6.26 g/m*3 4.92 C 0 km/h
564 08-11-2009 11:00:00 7.04 C 6.4 g/m*3 7.04 C 0 km/h
565 08-11-2009 12:00:00 8 C 5.77 g/m*3 8 C 0 km/h
566 08-11-2009 13:00:00 8.16 C 5.88 g/m*3 8.16 C 0 km/h
567 08-11-2009 14:00:00 8.32 C 6.01 g/m*3 8.32 C 0 km/h
568 08-11-2009 15:00:00 8.84 C 6.13 g/m*3 8.84 C 0 km/h
569 08-11-2009 16:00:00 8.48 C 6.16 g/m*3 8.48 C 0 km/h
570 08-11-2009 17:00:00 7.86 C 6.23 g/m*3 7.86 C 0 km/h
571 08-11-2009 18:00:00 7.26 C 6.43 g/m*3 7.26 C 0 km/h
572 08-11-2009 19:00:00 7.38 C 6.67 g/m*3 7.38 C 0 km/h
573 08-11-2009 20:00:00 7.48 C 6.68 g/m*3 7.48 C 0 km/h
574 08-11-2009 21:00:00 7.46 C 6.59 g/m*3 7.46 C 0 km/h
575 08-11-2009 22:00:00 7.54 C 6.6 g/m*3 7.54 C 0 km/h
Sensor: Nr:Datum:Temp:Abs-Feuchte:Windchill:Wind:
Aussen-T/F 576 08-11-2009 23:00:00 7.44 C 6.47 g/m*3 7.44 C 0 km/h
577 09-11-2009 00:00:00 6.94 C 6.34 g/m*3 6.94 C 0 km/h
578 09-11-2009 01:00:00 6.8 C 6.36 g/m*3 6.8 C 0 km/h
579 09-11-2009 02:00:00 6.92 C 6.23 g/m*3 6.92 C 0 km/h
580 09-11-2009 03:00:00 7.02 C 6.07 g/m*3 7.02 C 0 km/h
581 09-11-2009 04:00:00 7.06 C 5.97 g/m*3 7.06 C 0 km/h
582 09-11-2009 05:00:00 7.16 C 5.87 g/m*3 7.16 C 0 km/h
583 09-11-2009 06:00:00 7.02 C 5.82 g/m*3 7.02 C 0 km/h
584 09-11-2009 07:00:00 6.96 C 5.67 g/m*3 6.96 C 0 km/h
585 09-11-2009 08:00:00 6.9 C 5.62 g/m*3 6.9 C 0 km/h
586 09-11-2009 09:00:00 6.9 C 5.62 g/m*3 6.9 C 0 km/h
587 09-11-2009 10:00:00 6.78 C 5.8 g/m*3 6.78 C 0 km/h
588 09-11-2009 11:00:00 6.46 C 6.31 g/m*3 6.46 C 0 km/h
589 09-11-2009 12:00:00 6.26 C 6.39 g/m*3 6.26 C 0 km/h
590 09-11-2009 13:00:00 6.2 C 6.4 g/m*3 6.2 C 0 km/h
591 09-11-2009 14:00:00 6.2 C 6.44 g/m*3 6.2 C 0 km/h
592 09-11-2009 15:00:00 5.92 C 6.58 g/m*3 5.92 C 0 km/h
593 09-11-2009 16:00:00 5.72 C 6.67 g/m*3 5.72 C 0 km/h
594 09-11-2009 17:00:00 5.4 C 6.63 g/m*3 5.4 C 0 km/h
595 09-11-2009 18:00:00 5.08 C 6.49 g/m*3 5.08 C 0 km/h
596 09-11-2009 19:00:00 5.12 C 6.51 g/m*3 5.12 C 0 km/h
597 09-11-2009 20:00:00 5.2 C 6.54 g/m*3 5.2 C 0 km/h
598 09-11-2009 21:00:00 5.08 C 6.49 g/m*3 5.08 C 0 km/h
599 09-11-2009 22:00:00 5 C 6.46 g/m*3 5 C 0 km/h
600 09-11-2009 23:00:00 4.98 C 6.45 g/m*3 4.98 C 0 km/h
Sensor: Nr:Datum:Temp:Abs-Feuchte:Windchill:Wind:
Aussen-T/F 601 10-11-2009 00:00:00 4.98 C 6.45 g/m*3 4.98 C 0 km/h
602 10-11-2009 01:00:00 4.98 C 6.45 g/m*3 4.98 C 0 km/h
603 10-11-2009 02:00:00 4.94 C 6.43 g/m*3 4.94 C 0 km/h
604 10-11-2009 03:00:00 4.92 C 6.42 g/m*3 4.92 C 0 km/h
605 10-11-2009 04:00:00 5.06 C 6.48 g/m*3 5.06 C 0 km/h
606 10-11-2009 05:00:00 5.2 C 6.54 g/m*3 5.2 C 0 km/h
607 10-11-2009 06:00:00 5.38 C 6.62 g/m*3 5.38 C 0 km/h
608 10-11-2009 07:00:00 5.38 C 6.62 g/m*3 5.38 C 0 km/h
609 10-11-2009 08:00:00 5.26 C 6.57 g/m*3 5.26 C 0 km/h
610 10-11-2009 09:00:00 5.7 C 6.76 g/m*3 5.7 C 0 km/h
611 10-11-2009 10:00:00 5.76 C 6.79 g/m*3 5.76 C 0 km/h
612 10-11-2009 11:00:00 6.18 C 6.98 g/m*3 6.18 C 0 km/h
613 10-11-2009 12:00:00 6.32 C 7.04 g/m*3 6.32 C 0 km/h
614 10-11-2009 13:00:00 7.04 C 7.26 g/m*3 7.04 C 0 km/h
615 10-11-2009 14:00:00 7.78 C 7.04 g/m*3 7.78 C 0 km/h
616 10-11-2009 15:00:00 7.16 C 6.94 g/m*3 7.16 C 0 km/h
617 10-11-2009 16:00:00 6.66 C 6.97 g/m*3 6.66 C 0 km/h
618 10-11-2009 17:00:00 6.5 C 6.97 g/m*3 6.5 C 0 km/h
619 10-11-2009 18:00:00 6.54 C 6.93 g/m*3 6.54 C 0 km/h
620 10-11-2009 19:00:00 6.66 C 6.88 g/m*3 6.66 C 0 km/h
621 10-11-2009 20:00:00 6.7 C 6.85 g/m*3 6.7 C 0 km/h
622 10-11-2009 21:00:00 6.6 C 6.93 g/m*3 6.6 C 0 km/h
623 10-11-2009 22:00:00 6.52 C 7.01 g/m*3 6.52 C 0 km/h
624 10-11-2009 23:00:00 6.5 C 7.08 g/m*3 6.5 C 0 km/h
625 11-11-2009 00:00:00 6.44 C 7.1 g/m*3 6.44 C 0 km/h
Sensor: Nr:Datum:Temp:Abs-Feuchte:Windchill:Wind:
Aussen-T/F 626 11-11-2009 01:00:00 6.24 C 7 g/m*3 6.24 C 0 km/h
627 11-11-2009 02:00:00 5.32 C 6.59 g/m*3 5.32 C 0 km/h
628 11-11-2009 03:00:00 5.36 C 6.61 g/m*3 5.36 C 0 km/h
629 11-11-2009 04:00:00 5.4 C 6.61 g/m*3 5.4 C 0 km/h
630 11-11-2009 05:00:00 5.5 C 6.32 g/m*3 5.5 C 0 km/h
631 11-11-2009 06:00:00 5.62 C 6.02 g/m*3 5.62 C 0 km/h
632 11-11-2009 07:00:00 5.7 C 5.89 g/m*3 5.7 C 0 km/h
633 11-11-2009 08:00:00 5.7 C 5.84 g/m*3 5.7 C 0 km/h
634 11-11-2009 09:00:00 5.96 C 5.86 g/m*3 5.96 C 0 km/h
635 11-11-2009 10:00:00 6.44 C 6.17 g/m*3 6.44 C 0 km/h
636 11-11-2009 11:00:00 7.06 C 6.25 g/m*3 7.06 C 0 km/h
637 11-11-2009 12:00:00 7.26 C 6.12 g/m*3 7.26 C 0 km/h
638 11-11-2009 13:00:00 7.48 C 6.25 g/m*3 7.48 C 0 km/h
639 11-11-2009 14:00:00 7.74 C 6.19 g/m*3 7.74 C 0 km/h
640 11-11-2009 15:00:00 7.66 C 6.2 g/m*3 7.66 C 0 km/h
641 11-11-2009 16:00:00 6.98 C 6.14 g/m*3 6.98 C 0 km/h
642 11-11-2009 17:00:00 6.48 C 6.14 g/m*3 6.48 C 0 km/h
643 11-11-2009 18:00:00 6.56 C 6.13 g/m*3 6.56 C 0 km/h
644 11-11-2009 19:00:00 6.56 C 6.08 g/m*3 6.56 C 0 km/h
645 11-11-2009 20:00:00 6.38 C 5.89 g/m*3 6.38 C 0 km/h
646 11-11-2009 21:00:00 6.28 C 5.74 g/m*3 6.28 C 0 km/h
647 11-11-2009 22:00:00 5.86 C 5.61 g/m*3 5.86 C 0 km/h
648 11-11-2009 23:00:00 4.08 C 5.37 g/m*3 4.08 C 0 km/h
649 12-11-2009 00:00:00 2.84 C 5.18 g/m*3 2.84 C 0 km/h
650 12-11-2009 01:00:00 1.86 C 4.93 g/m*3 1.86 C 0 km/h
Sensor: Nr:Datum:Temp:Abs-Feuchte:Windchill:Wind:
Aussen-T/F 651 12-11-2009 02:00:00 1.24 C 4.8 g/m*3 1.24 C 0 km/h
652 12-11-2009 03:00:00 0.9 C 4.73 g/m*3 0.9 C 0 km/h
653 12-11-2009 04:00:00 0.52 C 4.67 g/m*3 0.52 C 0 km/h
654 12-11-2009 05:00:00 0.42 C 4.69 g/m*3 0.42 C 0 km/h
655 12-11-2009 06:00:00 1.06 C 4.95 g/m*3 1.06 C 0 km/h
656 12-11-2009 07:00:00 1.44 C 5.08 g/m*3 1.44 C 0 km/h
657 12-11-2009 08:00:00 2.16 C 5.34 g/m*3 2.16 C 0 km/h
658 12-11-2009 09:00:00 3.46 C 5.83 g/m*3 3.46 C 0 km/h
659 12-11-2009 10:00:00 3.64 C 5.9 g/m*3 3.64 C 0 km/h
660 12-11-2009 11:00:00 4.62 C 6.29 g/m*3 4.62 C 0 km/h
661 12-11-2009 12:00:00 5.54 C 6.59 g/m*3 5.54 C 0 km/h
662 12-11-2009 13:00:00 6.06 C 6.62 g/m*3 6.06 C 0 km/h
663 12-11-2009 14:00:00 7.04 C 6.74 g/m*3 7.04 C 0 km/h
664 12-11-2009 15:00:00 7.36 C 6.81 g/m*3 7.36 C 0 km/h
665 12-11-2009 16:00:00 7.52 C 6.97 g/m*3 7.52 C 0 km/h
666 12-11-2009 17:00:00 7.76 C 7.15 g/m*3 7.76 C 0 km/h
667 12-11-2009 18:00:00 8.04 C 7.19 g/m*3 8.04 C 0 km/h
668 12-11-2009 19:00:00 7.86 C 7.28 g/m*3 7.86 C 0 km/h
669 12-11-2009 20:00:00 7.72 C 7.34 g/m*3 7.72 C 0 km/h
670 12-11-2009 21:00:00 7.2 C 7.22 g/m*3 7.2 C 0 km/h
671 12-11-2009 22:00:00 7.4 C 7.41 g/m*3 7.4 C 0 km/h
672 12-11-2009 23:00:00 8.18 C 7.49 g/m*3 8.18 C 0 km/h
673 13-11-2009 00:00:00 7.98 C 7.13 g/m*3 7.98 C 0 km/h
674 13-11-2009 01:00:00 7.34 C 7.19 g/m*3 7.34 C 0 km/h
675 13-11-2009 02:00:00 7.64 C 7.46 g/m*3 7.64 C 0 km/h
Sensor: Nr:Datum:Temp:Abs-Feuchte:Windchill:Wind:
Aussen-T/F 676 13-11-2009 03:00:00 8.44 C 7.89 g/m*3 8.44 C 0 km/h
677 13-11-2009 04:00:00 8.62 C 8.04 g/m*3 8.62 C 0 km/h
678 13-11-2009 05:00:00 9.18 C 8.42 g/m*3 9.18 C 0 km/h
679 13-11-2009 06:00:00 10.12 C 8.84 g/m*3 10.12 C 0 km/h
680 13-11-2009 07:00:00 10.1 C 8.89 g/m*3 10.1 C 0 km/h
681 13-11-2009 08:00:00 10.98 C 9.06 g/m*3 10.98 C 0 km/h
682 13-11-2009 09:00:00 11.78 C 8.77 g/m*3 11.78 C 0 km/h
683 13-11-2009 10:00:00 13.1 C 8.7 g/m*3 13.1 C 0 km/h
684 13-11-2009 11:00:00 13.74 C 8.52 g/m*3 13.74 C 0 km/h
685 13-11-2009 12:00:00 14.12 C 8.21 g/m*3 14.12 C 0 km/h
686 13-11-2009 13:00:00 15.08 C 7.96 g/m*3 15.08 C 0 km/h
687 13-11-2009 14:00:00 17.34 C 7.15 g/m*3 17.34 C 0 km/h
688 13-11-2009 15:00:00 16.54 C 7.43 g/m*3 16.54 C 0 km/h
689 13-11-2009 16:00:00 14.08 C 7.83 g/m*3 14.08 C 0 km/h
690 13-11-2009 17:00:00 12.08 C 8.08 g/m*3 12.08 C 0 km/h
691 13-11-2009 18:00:00 11.2 C 8.07 g/m*3 11.2 C 0 km/h
692 13-11-2009 19:00:00 10.84 C 8.24 g/m*3 10.84 C 0 km/h
693 13-11-2009 20:00:00 10.42 C 8.28 g/m*3 10.42 C 0 km/h
694 13-11-2009 21:00:00 10.26 C 8.43 g/m*3 10.26 C 0 km/h
695 13-11-2009 22:00:00 9.94 C 8.41 g/m*3 9.94 C 0 km/h
696 13-11-2009 23:00:00 9.7 C 8.44 g/m*3 9.7 C 0 km/h
697 14-11-2009 00:00:00 9.5 C 8.39 g/m*3 9.5 C 0 km/h
698 14-11-2009 01:00:00 9.42 C 8.42 g/m*3 9.42 C 0 km/h
699 14-11-2009 02:00:00 9.28 C 8.4 g/m*3 9.28 C 0 km/h
700 14-11-2009 03:00:00 9.88 C 8.73 g/m*3 9.88 C 0 km/h
Sensor: Nr:Datum:Temp:Abs-Feuchte:Windchill:Wind:
Aussen-T/F 701 14-11-2009 04:00:00 10.44 C 8.83 g/m*3 10.44 C 0 km/h
702 14-11-2009 05:00:00 10.74 C 8.49 g/m*3 10.74 C 0 km/h
703 14-11-2009 06:00:00 10.84 C 8.15 g/m*3 10.84 C 0 km/h
704 14-11-2009 07:00:00 10.7 C 8 g/m*3 10.7 C 0 km/h
705 14-11-2009 08:00:00 10.9 C 7.92 g/m*3 10.9 C 0 km/h
706 14-11-2009 09:00:00 11.92 C 7.85 g/m*3 11.92 C 0 km/h
707 14-11-2009 10:00:00 14.24 C 7.22 g/m*3 14.24 C 0 km/h
708 14-11-2009 11:00:00 14.7 C 7.08 g/m*3 14.7 C 0 km/h
709 14-11-2009 12:00:00 14.6 C 7.41 g/m*3 14.6 C 0 km/h
710 14-11-2009 13:00:00 13.06 C 8.83 g/m*3 13.06 C 0 km/h
711 14-11-2009 14:00:00 13.4 C 8.16 g/m*3 13.4 C 0 km/h
712 14-11-2009 15:00:00 13.16 C 7.74 g/m*3 13.16 C 0 km/h
713 14-11-2009 16:00:00 12.64 C 7.36 g/m*3 12.64 C 0 km/h
714 14-11-2009 17:00:00 11.86 C 7.25 g/m*3 11.86 C 0 km/h
715 14-11-2009 18:00:00 11.12 C 7.38 g/m*3 11.12 C 0 km/h
716 14-11-2009 19:00:00 10.46 C 7.41 g/m*3 10.46 C 0 km/h
717 14-11-2009 20:00:00 10.88 C 7.45 g/m*3 10.88 C 0 km/h
718 14-11-2009 21:00:00 11.62 C 7.18 g/m*3 11.62 C 0 km/h
719 14-11-2009 22:00:00 12.76 C 6.84 g/m*3 12.76 C 0 km/h
720 14-11-2009 23:00:00 12.98 C 6.61 g/m*3 12.98 C 0 km/h
721 15-11-2009 00:00:00 12.46 C 6.87 g/m*3 12.46 C 0 km/h
722 15-11-2009 01:00:00 12.14 C 6.88 g/m*3 12.14 C 0 km/h
723 15-11-2009 02:00:00 11.58 C 6.83 g/m*3 11.58 C 0 km/h
724 15-11-2009 03:00:00 11.38 C 6.79 g/m*3 11.38 C 0 km/h
725 15-11-2009 04:00:00 11.2 C 6.79 g/m*3 11.2 C 0 km/h
Sensor: Nr:Datum:Temp:Abs-Feuchte:Windchill:Wind:
Aussen-T/F 726 15-11-2009 05:00:00 10 C 6.8 g/m*3 10 C 0 km/h
727 15-11-2009 06:00:00 9.32 C 6.87 g/m*3 9.32 C 0 km/h
728 15-11-2009 07:00:00 9.58 C 7.04 g/m*3 9.58 C 0 km/h
729 15-11-2009 08:00:00 10.6 C 7.03 g/m*3 10.6 C 0 km/h
730 15-11-2009 09:00:00 11.38 C 7.24 g/m*3 11.38 C 0 km/h
731 15-11-2009 10:00:00 11.92 C 7.25 g/m*3 11.92 C 0 km/h
732 15-11-2009 11:00:00 12.36 C 7.3 g/m*3 12.36 C 0 km/h
733 15-11-2009 12:00:00 13.08 C 7.32 g/m*3 13.08 C 0 km/h
734 15-11-2009 13:00:00 13.36 C 7.24 g/m*3 13.36 C 0 km/h
735 15-11-2009 14:00:00 13.38 C 6.8 g/m*3 13.38 C 0 km/h
736 15-11-2009 15:00:00 13.9 C 6.26 g/m*3 13.9 C 0 km/h
737 15-11-2009 16:00:00 12.78 C 6.38 g/m*3 12.78 C 0 km/h
738 15-11-2009 17:00:00 11.84 C 6.46 g/m*3 11.84 C 0 km/h
739 15-11-2009 18:00:00 11.08 C 6.54 g/m*3 11.08 C 0 km/h
740 15-11-2009 19:00:00 10.62 C 6.59 g/m*3 10.62 C 0 km/h
741 15-11-2009 20:00:00 9.66 C 6.77 g/m*3 9.66 C 0 km/h
742 15-11-2009 21:00:00 9.08 C 6.79 g/m*3 9.08 C 0 km/h
743 15-11-2009 22:00:00 8.48 C 6.84 g/m*3 8.48 C 0 km/h
744 15-11-2009 23:00:00 7.92 C 6.76 g/m*3 7.92 C 0 km/h
745 16-11-2009 00:00:00 7.56 C 6.72 g/m*3 7.56 C 0 km/h
746 16-11-2009 01:00:00 7.2 C 6.64 g/m*3 7.2 C 0 km/h
747 16-11-2009 02:00:00 7.1 C 6.72 g/m*3 7.1 C 0 km/h
748 16-11-2009 03:00:00 7.04 C 6.81 g/m*3 7.04 C 0 km/h
749 16-11-2009 04:00:00 7.44 C 7 g/m*3 7.44 C 0 km/h
750 16-11-2009 05:00:00 7.56 C 6.99 g/m*3 7.56 C 0 km/h
Sensor: Nr:Datum:Temp:Abs-Feuchte:Windchill:Wind:
Aussen-T/F 751 16-11-2009 06:00:00 7.9 C 7.21 g/m*3 7.9 C 0 km/h
752 16-11-2009 07:00:00 8 C 7.32 g/m*3 8 C 0 km/h
753 16-11-2009 08:00:00 8.34 C 7.61 g/m*3 8.34 C 0 km/h
754 16-11-2009 09:00:00 9 C 8.11 g/m*3 9 C 0 km/h
755 16-11-2009 10:00:00 9.86 C 8.72 g/m*3 9.86 C 0 km/h
756 16-11-2009 11:00:00 10.26 C 8.96 g/m*3 10.26 C 0 km/h
757 16-11-2009 12:00:00 11.26 C 9.6 g/m*3 11.26 C 0 km/h
758 16-11-2009 13:00:00 12.44 C 10.32 g/m*3 12.44 C 0 km/h
759 16-11-2009 14:00:00 13.36 C 10.62 g/m*3 13.36 C 0 km/h
760 16-11-2009 15:00:00 14 C 10.4 g/m*3 14 C 0 km/h
761 16-11-2009 16:00:00 14.24 C 10.21 g/m*3 14.24 C 0 km/h
762 16-11-2009 17:00:00 14.4 C 9.82 g/m*3 14.4 C 0 km/h
763 16-11-2009 18:00:00 14.38 C 9.58 g/m*3 14.38 C 0 km/h
764 16-11-2009 19:00:00 14.74 C 9.26 g/m*3 14.74 C 0 km/h
765 16-11-2009 20:00:00 14.5 C 9.2 g/m*3 14.5 C 0 km/h
766 16-11-2009 21:00:00 14.08 C 9.38 g/m*3 14.08 C 0 km/h
767 16-11-2009 22:00:00 13.74 C 9.66 g/m*3 13.74 C 0 km/h
768 16-11-2009 23:00:00 13.84 C 9.48 g/m*3 13.84 C 0 km/h
769 17-11-2009 00:00:00 13.88 C 9.17 g/m*3 13.88 C 0 km/h
770 17-11-2009 01:00:00 13.8 C 8.84 g/m*3 13.8 C 0 km/h
771 17-11-2009 02:00:00 13.42 C 8.8 g/m*3 13.42 C 0 km/h
772 17-11-2009 03:00:00 12.78 C 9.17 g/m*3 12.78 C 0 km/h
773 17-11-2009 04:00:00 12.66 C 9.19 g/m*3 12.66 C 0 km/h
774 17-11-2009 05:00:00 12.32 C 9.28 g/m*3 12.32 C 0 km/h
775 17-11-2009 06:00:00 12.14 C 9.2 g/m*3 12.14 C 0 km/h
Sensor: Nr:Datum:Temp:Abs-Feuchte:Windchill:Wind:
Aussen-T/F 776 17-11-2009 07:00:00 11.5 C 9.21 g/m*3 11.5 C 0 km/h
777 17-11-2009 08:00:00 10.8 C 8.84 g/m*3 10.8 C 0 km/h
778 17-11-2009 09:00:00 9.92 C 8.38 g/m*3 9.92 C 0 km/h
779 17-11-2009 10:00:00 9.64 C 8.49 g/m*3 9.64 C 0 km/h
780 17-11-2009 11:00:00 10.06 C 8.79 g/m*3 10.06 C 0 km/h
781 17-11-2009 12:00:00 10.22 C 8.86 g/m*3 10.22 C 0 km/h
782 17-11-2009 13:00:00 10.22 C 8.75 g/m*3 10.22 C 0 km/h
783 17-11-2009 14:00:00 10.42 C 8.74 g/m*3 10.42 C 0 km/h
784 17-11-2009 15:00:00 10.22 C 8.5 g/m*3 10.22 C 0 km/h
785 17-11-2009 16:00:00 9.66 C 8.11 g/m*3 9.66 C 0 km/h
786 17-11-2009 17:00:00 9.5 C 8.1 g/m*3 9.5 C 0 km/h
787 17-11-2009 18:00:00 9.52 C 7.95 g/m*3 9.52 C 0 km/h
788 17-11-2009 19:00:00 9.78 C 7.67 g/m*3 9.78 C 0 km/h
789 17-11-2009 20:00:00 9.82 C 7.56 g/m*3 9.82 C 0 km/h
790 17-11-2009 21:00:00 9.65 C 7.42 g/m*3 9.65 C 0 km/h
791 17-11-2009 22:00:00 9.44 C 7.22 g/m*3 9.44 C 0 km/h
792 17-11-2009 23:00:00 9.56 C 7.16 g/m*3 9.56 C 0 km/h
793 18-11-2009 00:00:00 9.5 C 7.06 g/m*3 9.5 C 0 km/h
794 18-11-2009 01:00:00 9.32 C 7 g/m*3 9.32 C 0 km/h
795 18-11-2009 02:00:00 9.16 C 6.91 g/m*3 9.16 C 0 km/h
796 18-11-2009 03:00:00 8.88 C 6.89 g/m*3 8.88 C 0 km/h
797 18-11-2009 04:00:00 8.66 C 7.02 g/m*3 8.66 C 0 km/h
798 18-11-2009 05:00:00 8.82 C 7.02 g/m*3 8.82 C 0 km/h
799 18-11-2009 06:00:00 8.84 C 6.79 g/m*3 8.84 C 0 km/h
800 18-11-2009 07:00:00 8.28 C 6.73 g/m*3 8.28 C 0 km/h
Sensor: Nr:Datum:Temp:Abs-Feuchte:Windchill:Wind:
Aussen-T/F 801 18-11-2009 08:00:00 8.96 C 6.54 g/m*3 8.96 C 0 km/h
802 18-11-2009 09:00:00 9.66 C 6.03 g/m*3 9.66 C 0 km/h
803 18-11-2009 10:00:00 10.5 C 5.9 g/m*3 10.5 C 0 km/h
804 18-11-2009 11:00:00 11.18 C 5.63 g/m*3 11.18 C 0 km/h
805 18-11-2009 12:00:00 11.78 C 5.34 g/m*3 11.78 C 0 km/h
806 18-11-2009 13:00:00 12.06 C 5.22 g/m*3 12.06 C 0 km/h
807 18-11-2009 14:00:00 11.86 C 5.32 g/m*3 11.86 C 0 km/h
808 18-11-2009 15:00:00 11.6 C 5.3 g/m*3 11.6 C 0 km/h
809 18-11-2009 16:00:00 11.06 C 5.45 g/m*3 11.06 C 0 km/h
810 18-11-2009 17:00:00 11.2 C 5.51 g/m*3 11.2 C 0 km/h
811 18-11-2009 18:00:00 11 C 5.77 g/m*3 11 C 0 km/h
812 18-11-2009 19:00:00 11.34 C 5.93 g/m*3 11.34 C 0 km/h
813 18-11-2009 20:00:00 11.18 C 6.01 g/m*3 11.18 C 0 km/h
814 18-11-2009 21:00:00 10.74 C 6.12 g/m*3 10.74 C 0 km/h
815 18-11-2009 22:00:00 10.14 C 6.26 g/m*3 10.14 C 0 km/h
816 18-11-2009 23:00:00 10.16 C 6.44 g/m*3 10.16 C 0 km/h
817 19-11-2009 00:00:00 9.84 C 6.57 g/m*3 9.84 C 0 km/h
818 19-11-2009 01:00:00 9.86 C 6.8 g/m*3 9.86 C 0 km/h
819 19-11-2009 02:00:00 10.3 C 6.9 g/m*3 10.3 C 0 km/h
820 19-11-2009 03:00:00 10.54 C 6.86 g/m*3 10.54 C 0 km/h
821 19-11-2009 04:00:00 9.84 C 6.77 g/m*3 9.84 C 0 km/h
822 19-11-2009 05:00:00 9.22 C 6.88 g/m*3 9.22 C 0 km/h
823 19-11-2009 06:00:00 9.56 C 7 g/m*3 9.56 C 0 km/h
824 19-11-2009 07:00:00 9.76 C 6.89 g/m*3 9.76 C 0 km/h
825 19-11-2009 08:00:00 9.84 C 6.79 g/m*3 9.84 C 0 km/h
Sensor: Nr:Datum:Temp:Abs-Feuchte:Windchill:Wind:
Aussen-T/F 826 19-11-2009 09:00:00 9.92 C 6.64 g/m*3 9.92 C 0 km/h
827 19-11-2009 10:00:00 9.82 C 6.47 g/m*3 9.82 C 0 km/h
828 19-11-2009 11:00:00 10.5 C 6.23 g/m*3 10.5 C 0 km/h
829 19-11-2009 12:00:00 12.02 C 6.12 g/m*3 12.02 C 0 km/h
830 19-11-2009 13:00:00 13.92 C 5.74 g/m*3 13.92 C 0 km/h
831 19-11-2009 14:00:00 14.84 C 5.94 g/m*3 14.84 C 0 km/h
832 19-11-2009 15:00:00 12.46 C 6.27 g/m*3 12.46 C 0 km/h
833 19-11-2009 16:00:00 10.88 C 6.46 g/m*3 10.88 C 0 km/h
834 19-11-2009 17:00:00 9.5 C 6.43 g/m*3 9.5 C 0 km/h
835 19-11-2009 18:00:00 8.54 C 6.45 g/m*3 8.54 C 0 km/h
836 19-11-2009 19:00:00 7.86 C 6.52 g/m*3 7.86 C 0 km/h
837 19-11-2009 20:00:00 7.74 C 6.44 g/m*3 7.74 C 0 km/h
838 19-11-2009 21:00:00 6.5 C 6.31 g/m*3 6.5 C 0 km/h
839 19-11-2009 22:00:00 5.96 C 6.27 g/m*3 5.96 C 0 km/h
840 19-11-2009 23:00:00 5.42 C 6.19 g/m*3 5.42 C 0 km/h
841 20-11-2009 00:00:00 4.92 C 6.07 g/m*3 4.92 C 0 km/h
842 20-11-2009 01:00:00 4.58 C 6.01 g/m*3 4.58 C 0 km/h
843 20-11-2009 02:00:00 4.22 C 5.9 g/m*3 4.22 C 0 km/h
844 20-11-2009 03:00:00 3.88 C 5.84 g/m*3 3.88 C 0 km/h
845 20-11-2009 04:00:00 3.58 C 5.75 g/m*3 3.58 C 0 km/h
846 20-11-2009 05:00:00 3.42 C 5.74 g/m*3 3.42 C 0 km/h
847 20-11-2009 06:00:00 3.08 C 5.62 g/m*3 3.08 C 0 km/h
848 20-11-2009 07:00:00 3.02 C 5.66 g/m*3 3.02 C 0 km/h
849 20-11-2009 08:00:00 2.86 C 5.6 g/m*3 2.86 C 0 km/h
850 20-11-2009 09:00:00 3.44 C 5.82 g/m*3 3.44 C 0 km/h
Sensor: Nr:Datum:Temp:Abs-Feuchte:Windchill:Wind:
Aussen-T/F 851 20-11-2009 10:00:00 4.86 C 6.4 g/m*3 4.86 C 0 km/h
852 20-11-2009 11:00:00 6.16 C 6.95 g/m*3 6.16 C 0 km/h
853 20-11-2009 12:00:00 9.26 C 8.39 g/m*3 9.26 C 0 km/h
854 20-11-2009 13:00:00 13.54 C 7.93 g/m*3 13.54 C 0 km/h
855 20-11-2009 14:00:00 15.22 C 6.52 g/m*3 15.22 C 0 km/h
856 20-11-2009 15:00:00 14.48 C 6.83 g/m*3 14.48 C 0 km/h
857 20-11-2009 16:00:00 12.7 C 7.35 g/m*3 12.7 C 0 km/h
858 20-11-2009 17:00:00 11.76 C 7.56 g/m*3 11.76 C 0 km/h
859 20-11-2009 18:00:00 11.48 C 7.74 g/m*3 11.48 C 0 km/h
860 20-11-2009 19:00:00 11.04 C 7.75 g/m*3 11.04 C 0 km/h
861 20-11-2009 20:00:00 10.56 C 7.67 g/m*3 10.56 C 0 km/h
862 20-11-2009 21:00:00 10.56 C 7.73 g/m*3 10.56 C 0 km/h
863 20-11-2009 22:00:00 10.38 C 7.78 g/m*3 10.38 C 0 km/h
864 20-11-2009 23:00:00 10.1 C 7.74 g/m*3 10.1 C 0 km/h
865 21-11-2009 00:00:00 10.04 C 7.78 g/m*3 10.04 C 0 km/h
866 21-11-2009 01:00:00 10.22 C 7.79 g/m*3 10.22 C 0 km/h
867 21-11-2009 02:00:00 10.04 C 7.82 g/m*3 10.04 C 0 km/h
868 21-11-2009 03:00:00 10.1 C 7.81 g/m*3 10.1 C 0 km/h
869 21-11-2009 04:00:00 10 C 7.84 g/m*3 10 C 0 km/h
870 21-11-2009 05:00:00 9.48 C 7.69 g/m*3 9.48 C 0 km/h
871 21-11-2009 06:00:00 9.34 C 7.75 g/m*3 9.34 C 0 km/h
872 21-11-2009 07:00:00 9.38 C 7.93 g/m*3 9.38 C 0 km/h
873 21-11-2009 08:00:00 9.42 C 8.11 g/m*3 9.42 C 0 km/h
874 21-11-2009 09:00:00 9.82 C 8.3 g/m*3 9.82 C 0 km/h
875 21-11-2009 10:00:00 10.4 C 8.48 g/m*3 10.4 C 0 km/h
Sensor: Nr:Datum:Temp:Abs-Feuchte:Windchill:Wind:
Aussen-T/F 876 21-11-2009 11:00:00 12.16 C 9 g/m*3 12.16 C 0 km/h
877 21-11-2009 12:00:00 13.88 C 8.41 g/m*3 13.88 C 0 km/h
878 21-11-2009 13:00:00 14.42 C 8.56 g/m*3 14.42 C 0 km/h
879 21-11-2009 14:00:00 15.2 C 7.71 g/m*3 15.2 C 0 km/h
880 21-11-2009 15:00:00 15 C 7.74 g/m*3 15 C 0 km/h
881 21-11-2009 16:00:00 14.22 C 7.36 g/m*3 14.22 C 0 km/h
882 21-11-2009 17:00:00 13.42 C 7.17 g/m*3 13.42 C 0 km/h
883 21-11-2009 18:00:00 12.56 C 7.2 g/m*3 12.56 C 0 km/h
884 21-11-2009 19:00:00 12.38 C 7.27 g/m*3 12.38 C 0 km/h
885 21-11-2009 20:00:00 12.18 C 7.09 g/m*3 12.18 C 0 km/h
886 21-11-2009 21:00:00 12.14 C 6.92 g/m*3 12.14 C 0 km/h
887 21-11-2009 22:00:00 12.36 C 6.82 g/m*3 12.36 C 0 km/h
888 21-11-2009 23:00:00 12 C 7.01 g/m*3 12 C 0 km/h
889 22-11-2009 00:00:00 11.62 C 7.24 g/m*3 11.62 C 0 km/h
890 22-11-2009 01:00:00 11.02 C 7.54 g/m*3 11.02 C 0 km/h
891 22-11-2009 02:00:00 10.8 C 7.45 g/m*3 10.8 C 0 km/h
892 22-11-2009 03:00:00 11.36 C 6.82 g/m*3 11.36 C 0 km/h
893 22-11-2009 04:00:00 10.5 C 7.06 g/m*3 10.5 C 0 km/h
894 22-11-2009 05:00:00 10.18 C 7.07 g/m*3 10.18 C 0 km/h
895 22-11-2009 06:00:00 9.98 C 7.28 g/m*3 9.98 C 0 km/h
896 22-11-2009 07:00:00 9.82 C 7.3 g/m*3 9.82 C 0 km/h
897 22-11-2009 08:00:00 11.7 C 7.45 g/m*3 11.7 C 0 km/h
898 22-11-2009 09:00:00 13.92 C 7.27 g/m*3 13.92 C 0 km/h
899 22-11-2009 10:00:00 13.9 C 6.57 g/m*3 13.9 C 0 km/h
900 22-11-2009 11:00:00 13.88 C 6.01 g/m*3 13.88 C 0 km/h
Sensor: Nr:Datum:Temp:Abs-Feuchte:Windchill:Wind:
Aussen-T/F 901 22-11-2009 12:00:00 13.72 C 6.07 g/m*3 13.72 C 0 km/h
902 22-11-2009 13:00:00 13.82 C 5.96 g/m*3 13.82 C 0 km/h
903 22-11-2009 14:00:00 14 C 5.65 g/m*3 14 C 0 km/h
904 22-11-2009 15:00:00 13.28 C 5.47 g/m*3 13.28 C 0 km/h
905 22-11-2009 16:00:00 12.66 C 5.57 g/m*3 12.66 C 0 km/h
906 22-11-2009 17:00:00 11.58 C 5.69 g/m*3 11.58 C 0 km/h
907 22-11-2009 18:00:00 11.68 C 5.58 g/m*3 11.68 C 0 km/h
908 22-11-2009 19:00:00 12.1 C 5.47 g/m*3 12.1 C 0 km/h
909 22-11-2009 20:00:00 11.02 C 6.65 g/m*3 11.02 C 0 km/h
910 22-11-2009 21:00:00 10.82 C 5.94 g/m*3 10.82 C 0 km/h
911 22-11-2009 22:00:00 10.56 C 5.51 g/m*3 10.56 C 0 km/h
912 22-11-2009 23:00:00 10.28 C 5.66 g/m*3 10.28 C 0 km/h
913 23-11-2009 00:00:00 10.32 C 5.41 g/m*3 10.32 C 0 km/h
914 23-11-2009 01:00:00 8.76 C 6.48 g/m*3 8.76 C 0 km/h
915 23-11-2009 02:00:00 8.62 C 6.25 g/m*3 8.62 C 0 km/h
916 23-11-2009 03:00:00 8.52 C 6.07 g/m*3 8.52 C 0 km/h
917 23-11-2009 04:00:00 8.7 C 5.85 g/m*3 8.7 C 0 km/h
918 23-11-2009 05:00:00 8.76 C 5.94 g/m*3 8.76 C 0 km/h
919 23-11-2009 06:00:00 9.04 C 5.9 g/m*3 9.04 C 0 km/h
920 23-11-2009 07:00:00 8.94 C 6.15 g/m*3 8.94 C 0 km/h
921 23-11-2009 08:00:00 9.48 C 6.05 g/m*3 9.48 C 0 km/h
922 23-11-2009 09:00:00 9.94 C 6.18 g/m*3 9.94 C 0 km/h
923 23-11-2009 10:00:00 10.4 C 6.19 g/m*3 10.4 C 0 km/h
924 23-11-2009 11:00:00 10.82 C 6.49 g/m*3 10.82 C 0 km/h
925 23-11-2009 12:00:00 11.22 C 6.74 g/m*3 11.22 C 0 km/h
Sensor: Nr:Datum:Temp:Abs-Feuchte:Windchill:Wind:
Aussen-T/F 926 23-11-2009 13:00:00 10.58 C 7.45 g/m*3 10.58 C 0 km/h
927 23-11-2009 14:00:00 11.12 C 7.77 g/m*3 11.12 C 0 km/h
928 23-11-2009 15:00:00 11.32 C 8.01 g/m*3 11.32 C 0 km/h
929 23-11-2009 16:00:00 11.2 C 8.09 g/m*3 11.2 C 0 km/h
930 23-11-2009 17:00:00 10.98 C 8.2 g/m*3 10.98 C 0 km/h
931 23-11-2009 18:00:00 11.7 C 7.91 g/m*3 11.7 C 0 km/h
932 23-11-2009 19:00:00 11.72 C 7.83 g/m*3 11.72 C 0 km/h
933 23-11-2009 20:00:00 11.74 C 7.95 g/m*3 11.74 C 0 km/h
934 23-11-2009 21:00:00 11.44 C 8.31 g/m*3 11.44 C 0 km/h
935 23-11-2009 22:00:00 11.98 C 8.05 g/m*3 11.98 C 0 km/h
936 23-11-2009 23:00:00 10.72 C 7.81 g/m*3 10.72 C 0 km/h
937 24-11-2009 00:00:00 11.14 C 6.32 g/m*3 11.14 C 0 km/h
938 24-11-2009 01:00:00 11.1 C 6.39 g/m*3 11.1 C 0 km/h
939 24-11-2009 02:00:00 11.08 C 6.2 g/m*3 11.08 C 0 km/h
940 24-11-2009 03:00:00 10.76 C 6.21 g/m*3 10.76 C 0 km/h
941 24-11-2009 04:00:00 10.54 C 6.3 g/m*3 10.54 C 0 km/h
942 24-11-2009 05:00:00 10.52 C 6.41 g/m*3 10.52 C 0 km/h
943 24-11-2009 06:00:00 10.4 C 6.53 g/m*3 10.4 C 0 km/h
944 24-11-2009 07:00:00 10.2 C 6.38 g/m*3 10.2 C 0 km/h
945 24-11-2009 08:00:00 9.5 C 6.35 g/m*3 9.5 C 0 km/h
946 24-11-2009 09:00:00 10.02 C 6.53 g/m*3 10.02 C 0 km/h
947 24-11-2009 10:00:00 10.42 C 7.16 g/m*3 10.42 C 0 km/h
948 24-11-2009 11:00:00 11.28 C 7.93 g/m*3 11.28 C 0 km/h
949 24-11-2009 12:00:00 11.92 C 8.74 g/m*3 11.92 C 0 km/h
950 24-11-2009 13:00:00 13.12 C 9.28 g/m*3 13.12 C 0 km/h
Sensor: Nr:Datum:Temp:Abs-Feuchte:Windchill:Wind:
Aussen-T/F 951 24-11-2009 14:00:00 14.2 C 8.5 g/m*3 14.2 C 0 km/h
952 24-11-2009 15:00:00 13.78 C 8.38 g/m*3 13.78 C 0 km/h
953 24-11-2009 16:00:00 13.34 C 8.25 g/m*3 13.34 C 0 km/h
954 24-11-2009 17:00:00 13.26 C 8.21 g/m*3 13.26 C 0 km/h
955 24-11-2009 18:00:00 13.06 C 8.29 g/m*3 13.06 C 0 km/h
956 24-11-2009 19:00:00 13.04 C 8.07 g/m*3 13.04 C 0 km/h
957 24-11-2009 20:00:00 13.1 C 7.85 g/m*3 13.1 C 0 km/h
958 24-11-2009 21:00:00 13.28 C 7.64 g/m*3 13.28 C 0 km/h
959 24-11-2009 22:00:00 13.32 C 7.36 g/m*3 13.32 C 0 km/h
960 24-11-2009 23:00:00 13.18 C 6.88 g/m*3 13.18 C 0 km/h
961 25-11-2009 00:00:00 13.18 C 6.54 g/m*3 13.18 C 0 km/h
962 25-11-2009 01:00:00 13.04 C 6.78 g/m*3 13.04 C 0 km/h
963 25-11-2009 02:00:00 12.9 C 6.99 g/m*3 12.9 C 0 km/h
964 25-11-2009 03:00:00 13.02 C 6.56 g/m*3 13.02 C 0 km/h
965 25-11-2009 04:00:00 12.88 C 6.37 g/m*3 12.88 C 0 km/h
966 25-11-2009 05:00:00 12.4 C 6.29 g/m*3 12.4 C 0 km/h
967 25-11-2009 06:00:00 11.54 C 6.34 g/m*3 11.54 C 0 km/h
968 25-11-2009 07:00:00 10.64 C 6.28 g/m*3 10.64 C 0 km/h
969 25-11-2009 08:00:00 9.5 C 6.3 g/m*3 9.5 C 0 km/h
970 25-11-2009 09:00:00 9.6 C 6.38 g/m*3 9.6 C 0 km/h
971 25-11-2009 10:00:00 11.14 C 6.2 g/m*3 11.14 C 0 km/h
972 25-11-2009 11:00:00 12.14 C 6.13 g/m*3 12.14 C 0 km/h
973 25-11-2009 12:00:00 13.78 C 5.47 g/m*3 13.78 C 0 km/h
974 25-11-2009 13:00:00 14.92 C 4.9 g/m*3 14.92 C 0 km/h
975 25-11-2009 14:00:00 15.16 C 4.66 g/m*3 15.16 C 0 km/h
Sensor: Nr:Datum:Temp:Abs-Feuchte:Windchill:Wind:
Aussen-T/F 976 25-11-2009 15:00:00 14.54 C 4.89 g/m*3 14.54 C 0 km/h
977 25-11-2009 16:00:00 14.02 C 4.93 g/m*3 14.02 C 0 km/h
978 25-11-2009 17:00:00 13.36 C 5.36 g/m*3 13.36 C 0 km/h
979 25-11-2009 18:00:00 11.82 C 6.74 g/m*3 11.82 C 0 km/h
980 25-11-2009 19:00:00 10.1 C 7.74 g/m*3 10.1 C 0 km/h
981 25-11-2009 20:00:00 10.2 C 7.59 g/m*3 10.2 C 0 km/h
982 25-11-2009 21:00:00 10.22 C 7.22 g/m*3 10.22 C 0 km/h
983 25-11-2009 22:00:00 10.08 C 6.86 g/m*3 10.08 C 0 km/h
984 25-11-2009 23:00:00 9.92 C 6.66 g/m*3 9.92 C 0 km/h
985 26-11-2009 00:00:00 9.78 C 6.47 g/m*3 9.78 C 0 km/h
986 26-11-2009 01:00:00 9.46 C 6.17 g/m*3 9.46 C 0 km/h
987 26-11-2009 02:00:00 9.12 C 5.81 g/m*3 9.12 C 0 km/h
988 26-11-2009 03:00:00 9.44 C 5.82 g/m*3 9.44 C 0 km/h
989 26-11-2009 04:00:00 9.52 C 5.69 g/m*3 9.52 C 0 km/h
990 26-11-2009 05:00:00 9.66 C 5.52 g/m*3 9.66 C 0 km/h
991 26-11-2009 06:00:00 9.62 C 5.5 g/m*3 9.62 C 0 km/h
992 26-11-2009 07:00:00 9.74 C 5.45 g/m*3 9.74 C 0 km/h
993 26-11-2009 08:00:00 9.9 C 5.45 g/m*3 9.9 C 0 km/h
994 26-11-2009 09:00:00 9.98 C 5.39 g/m*3 9.98 C 0 km/h
995 26-11-2009 10:00:00 10.2 C 5.25 g/m*3 10.2 C 0 km/h
996 26-11-2009 11:00:00 10.82 C 5.21 g/m*3 10.82 C 0 km/h
997 26-11-2009 12:00:00 11.14 C 5.29 g/m*3 11.14 C 0 km/h
998 26-11-2009 13:00:00 11.34 C 5.64 g/m*3 11.34 C 0 km/h
999 26-11-2009 14:00:00 10.7 C 5.8 g/m*3 10.7 C 0 km/h
1000 26-11-2009 15:00:00 10.74 C 5.71 g/m*3 10.74 C 0 km/h
Sensor: Nr:Datum:Temp:Abs-Feuchte:Windchill:Wind:
Aussen-T/F 1001 26-11-2009 16:00:00 10.16 C 5.39 g/m*3 10.16 C 0 km/h
1002 26-11-2009 17:00:00 9.88 C 5.58 g/m*3 9.88 C 0 km/h
1003 26-11-2009 18:00:00 10.02 C 5.65 g/m*3 10.02 C 0 km/h
1004 26-11-2009 19:00:00 9.56 C 6.1 g/m*3 9.56 C 0 km/h
1005 26-11-2009 20:00:00 8.66 C 6.69 g/m*3 8.66 C 0 km/h
1006 26-11-2009 21:00:00 9.76 C 5.96 g/m*3 9.76 C 0 km/h
1007 26-11-2009 22:00:00 10.1 C 5.83 g/m*3 10.1 C 0 km/h
1008 26-11-2009 23:00:00 10.44 C 5.76 g/m*3 10.44 C 0 km/h
1009 27-11-2009 00:00:00 10.66 C 5.82 g/m*3 10.66 C 0 km/h
1010 27-11-2009 01:00:00 10.76 C 5.94 g/m*3 10.76 C 0 km/h
1011 27-11-2009 02:00:00 10.96 C 5.71 g/m*3 10.96 C 0 km/h
1012 27-11-2009 03:00:00 10.8 C 5.63 g/m*3 10.8 C 0 km/h
1013 27-11-2009 04:00:00 9.44 C 5.98 g/m*3 9.44 C 0 km/h
1014 27-11-2009 05:00:00 9.04 C 6.1 g/m*3 9.04 C 0 km/h
1015 27-11-2009 06:00:00 8.2 C 6.63 g/m*3 8.2 C 0 km/h
1016 27-11-2009 07:00:00 7.52 C 6.86 g/m*3 7.52 C 0 km/h
1017 27-11-2009 08:00:00 8.16 C 6.38 g/m*3 8.16 C 0 km/h
1018 27-11-2009 09:00:00 8.58 C 5.66 g/m*3 8.58 C 0 km/h
1019 27-11-2009 10:00:00 9.06 C 5.56 g/m*3 9.06 C 0 km/h
1020 27-11-2009 11:00:00 9.44 C 5.51 g/m*3 9.44 C 0 km/h
1021 27-11-2009 12:00:00 9.22 C 5.44 g/m*3 9.22 C 0 km/h
1022 27-11-2009 13:00:00 9.84 C 5.26 g/m*3 9.84 C 0 km/h
1023 27-11-2009 14:00:00 9.76 C 5 g/m*3 9.76 C 0 km/h
1024 27-11-2009 15:00:00 9.36 C 5.14 g/m*3 9.36 C 0 km/h
1025 27-11-2009 16:00:00 8.6 C 5.29 g/m*3 8.6 C 0 km/h
Sensor: Nr:Datum:Temp:Abs-Feuchte:Windchill:Wind:
Aussen-T/F 1026 27-11-2009 17:00:00 8.4 C 4.92 g/m*3 8.4 C 0 km/h
1027 27-11-2009 18:00:00 8.44 C 4.92 g/m*3 8.44 C 0 km/h
1028 27-11-2009 19:00:00 8.46 C 5.04 g/m*3 8.46 C 0 km/h
1029 27-11-2009 20:00:00 8.2 C 5.11 g/m*3 8.2 C 0 km/h
1030 27-11-2009 21:00:00 8.16 C 5.13 g/m*3 8.16 C 0 km/h
1031 27-11-2009 22:00:00 8.04 C 5.16 g/m*3 8.04 C 0 km/h
1032 27-11-2009 23:00:00 7.92 C 5.46 g/m*3 7.92 C 0 km/h
1033 28-11-2009 00:00:00 7.86 C 5.34 g/m*3 7.86 C 0 km/h
1034 28-11-2009 01:00:00 7.34 C 5.85 g/m*3 7.34 C 0 km/h
1035 28-11-2009 02:00:00 7.58 C 5.58 g/m*3 7.58 C 0 km/h
1036 28-11-2009 03:00:00 7.96 C 5.38 g/m*3 7.96 C 0 km/h
1037 28-11-2009 04:00:00 7.66 C 5.27 g/m*3 7.66 C 0 km/h
1038 28-11-2009 05:00:00 7.36 C 5.63 g/m*3 7.36 C 0 km/h
1039 28-11-2009 06:00:00 7.46 C 5.72 g/m*3 7.46 C 0 km/h
1040 28-11-2009 07:00:00 7.36 C 5.63 g/m*3 7.36 C 0 km/h
1041 28-11-2009 08:00:00 7.38 C 5.7 g/m*3 7.38 C 0 km/h
1042 28-11-2009 09:00:00 8.14 C 5.76 g/m*3 8.14 C 0 km/h
1043 28-11-2009 10:00:00 8.74 C 5.86 g/m*3 8.74 C 0 km/h
1044 28-11-2009 11:00:00 9.52 C 5.76 g/m*3 9.52 C 0 km/h
1045 28-11-2009 12:00:00 8.44 C 6.36 g/m*3 8.44 C 0 km/h
1046 28-11-2009 13:00:00 8.8 C 6.37 g/m*3 8.8 C 0 km/h
1047 28-11-2009 14:00:00 9.28 C 6.19 g/m*3 9.28 C 0 km/h
1048 28-11-2009 15:00:00 9.28 C 6.35 g/m*3 9.28 C 0 km/h
1049 28-11-2009 16:00:00 9.44 C 6.55 g/m*3 9.44 C 0 km/h
1050 28-11-2009 17:00:00 9.64 C 6.52 g/m*3 9.64 C 0 km/h
Sensor: Nr:Datum:Temp:Abs-Feuchte:Windchill:Wind:
Aussen-T/F 1051 28-11-2009 18:00:00 9.84 C 6.55 g/m*3 9.84 C 0 km/h
1052 28-11-2009 19:00:00 9.9 C 6.67 g/m*3 9.9 C 0 km/h
1053 28-11-2009 20:00:00 10.3 C 6.45 g/m*3 10.3 C 0 km/h
1054 28-11-2009 21:00:00 10.74 C 6.16 g/m*3 10.74 C 0 km/h
1055 28-11-2009 22:00:00 10.6 C 5.7 g/m*3 10.6 C 0 km/h
1056 28-11-2009 23:00:00 10.34 C 5.55 g/m*3 10.34 C 0 km/h
1057 29-11-2009 00:00:00 9.64 C 5.38 g/m*3 9.64 C 0 km/h
1058 29-11-2009 01:00:00 10.12 C 5.09 g/m*3 10.12 C 0 km/h
1059 29-11-2009 02:00:00 10.64 C 4.81 g/m*3 10.64 C 0 km/h
1060 29-11-2009 03:00:00 10 C 4.81 g/m*3 10 C 0 km/h
1061 29-11-2009 04:00:00 8.6 C 5.04 g/m*3 8.6 C 0 km/h
1062 29-11-2009 05:00:00 8.34 C 5 g/m*3 8.34 C 0 km/h
1063 29-11-2009 06:00:00 8.14 C 4.91 g/m*3 8.14 C 0 km/h
1064 29-11-2009 07:00:00 8.12 C 4.9 g/m*3 8.12 C 0 km/h
1065 29-11-2009 08:00:00 8.62 C 5.21 g/m*3 8.62 C 0 km/h
1066 29-11-2009 09:00:00 9.44 C 5.31 g/m*3 9.44 C 0 km/h
1067 29-11-2009 10:00:00 10.44 C 5.37 g/m*3 10.44 C 0 km/h
1068 29-11-2009 11:00:00 11.4 C 5.21 g/m*3 11.4 C 0 km/h
1069 29-11-2009 12:00:00 12.5 C 5.23 g/m*3 12.5 C 0 km/h
1070 29-11-2009 13:00:00 13.32 C 5.53 g/m*3 13.32 C 0 km/h
1071 29-11-2009 14:00:00 10.94 C 6.98 g/m*3 10.94 C 0 km/h
1072 29-11-2009 15:00:00 10.14 C 7.24 g/m*3 10.14 C 0 km/h
1073 29-11-2009 16:00:00 9.68 C 7.2 g/m*3 9.68 C 0 km/h
1074 29-11-2009 17:00:00 9.16 C 7.32 g/m*3 9.16 C 0 km/h
1075 29-11-2009 18:00:00 8.42 C 7.27 g/m*3 8.42 C 0 km/h
Sensor: Nr:Datum:Temp:Abs-Feuchte:Windchill:Wind:
Aussen-T/F 1076 29-11-2009 19:00:00 8.16 C 7.42 g/m*3 8.16 C 0 km/h
1077 29-11-2009 20:00:00 8 C 7.54 g/m*3 8 C 0 km/h
1078 29-11-2009 21:00:00 7.5 C 7.4 g/m*3 7.5 C 0 km/h
1079 29-11-2009 22:00:00 7.175 C 7.31 g/m*3 7.18 C 0 km/h
1080 29-11-2009 23:00:00 7.04 C 7.3 g/m*3 7.04 C 0 km/h
1081 30-11-2009 00:00:00 6.68 C 7.21 g/m*3 6.68 C 0 km/h
1082 30-11-2009 01:00:00 6.38 C 7.07 g/m*3 6.38 C 0 km/h
1083 30-11-2009 02:00:00 6.24 C 7 g/m*3 6.24 C 0 km/h
1084 30-11-2009 03:00:00 6.18 C 6.82 g/m*3 6.18 C 0 km/h
1085 30-11-2009 04:00:00 6.22 C 6.64 g/m*3 6.22 C 0 km/h
1086 30-11-2009 05:00:00 6.34 C 6.66 g/m*3 6.34 C 0 km/h
1087 30-11-2009 06:00:00 6.26 C 6.6 g/m*3 6.26 C 0 km/h
1088 30-11-2009 07:00:00 5.96 C 6.38 g/m*3 5.96 C 0 km/h
1089 30-11-2009 08:00:00 5.66 C 6.37 g/m*3 5.66 C 0 km/h
1090 30-11-2009 09:00:00 6.16 C 6.57 g/m*3 6.16 C 0 km/h
1091 30-11-2009 10:00:00 6.74 C 6.45 g/m*3 6.74 C 0 km/h
1092 30-11-2009 11:00:00 7.38 C 6.21 g/m*3 7.38 C 0 km/h
1093 30-11-2009 12:00:00 7.8 C 6.02 g/m*3 7.8 C 0 km/h
1094 30-11-2009 13:00:00 8.1 C 5.82 g/m*3 8.1 C 0 km/h
1095 30-11-2009 14:00:00 8.32 C 5.67 g/m*3 8.32 C 0 km/h
1096 30-11-2009 15:00:00 7.88 C 5.76 g/m*3 7.88 C 0 km/h
1097 30-11-2009 16:00:00 6.66 C 5.84 g/m*3 6.66 C 0 km/h
1098 30-11-2009 17:00:00 5.98 C 5.93 g/m*3 5.98 C 0 km/h
1099 30-11-2009 18:00:00 6 C 6.04 g/m*3 6 C 0 km/h
1100 30-11-2009 19:00:00 5.94 C 6.07 g/m*3 5.94 C 0 km/h
Sensor: Nr:Datum:Temp:Abs-Feuchte:Windchill:Wind:
Aussen-T/F 1101 30-11-2009 20:00:00 5.86 C 6.11 g/m*3 5.86 C 0 km/h
1102 30-11-2009 21:00:00 5.58 C 6.04 g/m*3 5.58 C 0 km/h
1103 30-11-2009 22:00:00 5.32 C 6.01 g/m*3 5.32 C 0 km/h
1104 30-11-2009 23:00:00 5.4 C 6.08 g/m*3 5.4 C 0 km/h
1105 01-12-2009 00:00:00 5.58 C 6.16 g/m*3 5.58 C 0 km/h
1106 01-12-2009 01:00:00 5.48 C 6.1 g/m*3 5.48 C 0 km/h
1107 01-12-2009 02:00:00 5.4 C 6.11 g/m*3 5.4 C 0 km/h
1108 01-12-2009 03:00:00 5.28 C 5.91 g/m*3 5.28 C 0 km/h
1109 01-12-2009 04:00:00 4.82 C 5.75 g/m*3 4.82 C 0 km/h
1110 01-12-2009 05:00:00 4.96 C 5.91 g/m*3 4.96 C 0 km/h
1111 01-12-2009 06:00:00 5.06 C 5.94 g/m*3 5.06 C 0 km/h
1112 01-12-2009 07:00:00 4.98 C 5.96 g/m*3 4.98 C 0 km/h
1113 01-12-2009 08:00:00 4.84 C 5.96 g/m*3 4.84 C 0 km/h
1114 01-12-2009 09:00:00 5.2 C 6.06 g/m*3 5.2 C 0 km/h
1115 01-12-2009 10:00:00 5.66 C 6.12 g/m*3 5.66 C 0 km/h
1116 01-12-2009 11:00:00 6.34 C 6.03 g/m*3 6.34 C 0 km/h
1117 01-12-2009 12:00:00 6.82 C 5.84 g/m*3 6.82 C 0 km/h
1118 01-12-2009 13:00:00 6.9 C 5.76 g/m*3 6.9 C 0 km/h
1119 01-12-2009 14:00:00 6.8 C 5.78 g/m*3 6.8 C 0 km/h
1120 01-12-2009 15:00:00 6.58 C 5.87 g/m*3 6.58 C 0 km/h
1121 01-12-2009 16:00:00 6.2 C 5.81 g/m*3 6.2 C 0 km/h
1122 01-12-2009 17:00:00 5.86 C 5.85 g/m*3 5.86 C 0 km/h
1123 01-12-2009 18:00:00 5.74 C 5.91 g/m*3 5.74 C 0 km/h
1124 01-12-2009 19:00:00 5.64 C 5.88 g/m*3 5.64 C 0 km/h
1125 01-12-2009 20:00:00 5.54 C 5.84 g/m*3 5.54 C 0 km/h
Sensor: Nr:Datum:Temp:Abs-Feuchte:Windchill:Wind:
Aussen-T/F 1126 01-12-2009 21:00:00 5.44 C 5.89 g/m*3 5.44 C 0 km/h
1127 01-12-2009 22:00:00 5.42 C 5.94 g/m*3 5.42 C 0 km/h
1128 01-12-2009 23:00:00 5.2 C 5.77 g/m*3 5.2 C 0 km/h
1129 02-12-2009 00:00:00 5.16 C 5.58 g/m*3 5.16 C 0 km/h
1130 02-12-2009 01:00:00 4.58 C 5.47 g/m*3 4.58 C 0 km/h
1131 02-12-2009 02:00:00 4.64 C 5.65 g/m*3 4.64 C 0 km/h
1132 02-12-2009 03:00:00 4.82 C 5.8 g/m*3 4.82 C 0 km/h
1133 02-12-2009 04:00:00 4.92 C 5.89 g/m*3 4.92 C 0 km/h
1134 02-12-2009 05:00:00 4.88 C 5.86 g/m*3 4.88 C 0 km/h
1135 02-12-2009 06:00:00 4.94 C 5.89 g/m*3 4.94 C 0 km/h
1136 02-12-2009 07:00:00 5.08 C 5.96 g/m*3 5.08 C 0 km/h
1137 02-12-2009 08:00:00 4.72 C 5.83 g/m*3 4.72 C 0 km/h
1138 02-12-2009 09:00:00 4.54 C 5.69 g/m*3 4.54 C 0 km/h
1139 02-12-2009 10:00:00 5.04 C 5.31 g/m*3 5.04 C 0 km/h
1140 02-12-2009 11:00:00 5.64 C 4.86 g/m*3 5.64 C 0 km/h
1141 02-12-2009 12:00:00 7.06 C 4.37 g/m*3 7.06 C 0 km/h
1142 02-12-2009 13:00:00 7.74 C 4.28 g/m*3 7.74 C 0 km/h
1143 02-12-2009 14:00:00 7.88 C 4.32 g/m*3 7.88 C 0 km/h
1144 02-12-2009 15:00:00 7.62 C 4.28 g/m*3 7.62 C 0 km/h
1145 02-12-2009 16:00:00 7.08 C 4.3 g/m*3 7.08 C 0 km/h
1146 02-12-2009 17:00:00 6.66 C 4.52 g/m*3 6.66 C 0 km/h
1147 02-12-2009 18:00:00 6.46 C 4.65 g/m*3 6.46 C 0 km/h
1148 02-12-2009 19:00:00 6.56 C 4.83 g/m*3 6.56 C 0 km/h
1149 02-12-2009 20:00:00 6.56 C 5.04 g/m*3 6.56 C 0 km/h
1150 02-12-2009 21:00:00 6.92 C 5.09 g/m*3 6.92 C 0 km/h
Sensor: Nr:Datum:Temp:Abs-Feuchte:Windchill:Wind:
Aussen-T/F 1151 02-12-2009 22:00:00 6.96 C 5.21 g/m*3 6.96 C 0 km/h
1152 02-12-2009 23:00:00 6.58 C 5.34 g/m*3 6.58 C 0 km/h
1153 03-12-2009 00:00:00 6.84 C 5.41 g/m*3 6.84 C 0 km/h
1154 03-12-2009 01:00:00 7.12 C 5.29 g/m*3 7.12 C 0 km/h
1155 03-12-2009 02:00:00 7.24 C 5.27 g/m*3 7.24 C 0 km/h
1156 03-12-2009 03:00:00 7.46 C 5.49 g/m*3 7.46 C 0 km/h
1157 03-12-2009 04:00:00 7.94 C 5.85 g/m*3 7.94 C 0 km/h
1158 03-12-2009 05:00:00 7.48 C 6.27 g/m*3 7.48 C 0 km/h
1159 03-12-2009 06:00:00 7.86 C 6.34 g/m*3 7.86 C 0 km/h
1160 03-12-2009 07:00:00 7.5 C 6.29 g/m*3 7.5 C 0 km/h
1161 03-12-2009 08:00:00 7.84 C 6.27 g/m*3 7.84 C 0 km/h
1162 03-12-2009 09:00:00 8.1 C 6.46 g/m*3 8.1 C 0 km/h
1163 03-12-2009 10:00:00 9.14 C 6.44 g/m*3 9.14 C 0 km/h
1164 03-12-2009 11:00:00 10.1 C 6.34 g/m*3 10.1 C 0 km/h
1165 03-12-2009 12:00:00 10.38 C 6.22 g/m*3 10.38 C 0 km/h
1166 03-12-2009 13:00:00 10.54 C 6.18 g/m*3 10.54 C 0 km/h
1167 03-12-2009 14:00:00 10.46 C 6.13 g/m*3 10.46 C 0 km/h
1168 03-12-2009 15:00:00 9.72 C 6.3 g/m*3 9.72 C 0 km/h
1169 03-12-2009 16:00:00 9.38 C 6.18 g/m*3 9.38 C 0 km/h
1170 03-12-2009 17:00:00 9.3 C 6.2 g/m*3 9.3 C 0 km/h
1171 03-12-2009 18:00:00 8.72 C 6.48 g/m*3 8.72 C 0 km/h
1172 03-12-2009 19:00:00 9.08 C 6.24 g/m*3 9.08 C 0 km/h
1173 03-12-2009 20:00:00 9.14 C 5.96 g/m*3 9.14 C 0 km/h
1174 03-12-2009 21:00:00 8.58 C 5.94 g/m*3 8.58 C 0 km/h
1175 03-12-2009 22:00:00 8.28 C 6.03 g/m*3 8.28 C 0 km/h
Sensor: Nr:Datum:Temp:Abs-Feuchte:Windchill:Wind:
Aussen-T/F 1176 03-12-2009 23:00:00 6.68 C 5.99 g/m*3 6.68 C 0 km/h
1177 04-12-2009 00:00:00 6.68 C 5.4 g/m*3 6.68 C 0 km/h
1178 04-12-2009 01:00:00 6.26 C 5.09 g/m*3 6.26 C 0 km/h
1179 04-12-2009 02:00:00 5.84 C 5.07 g/m*3 5.84 C 0 km/h
1180 04-12-2009 03:00:00 5.46 C 5.17 g/m*3 5.46 C 0 km/h
1181 04-12-2009 04:00:00 5.06 C 4.75 g/m*3 5.06 C 0 km/h
1182 04-12-2009 05:00:00 3.7 C 4.5 g/m*3 3.7 C 0 km/h
1183 04-12-2009 06:00:00 3.22 C 4.67 g/m*3 3.22 C 0 km/h
1184 04-12-2009 07:00:00 3.72 C 4.56 g/m*3 3.72 C 0 km/h
1185 04-12-2009 08:00:00 3.08 C 4.58 g/m*3 3.08 C 0 km/h
1186 04-12-2009 09:00:00 4.06 C 4.51 g/m*3 4.06 C 0 km/h
1187 04-12-2009 10:00:00 4.1 C 4.13 g/m*3 4.1 C 0 km/h
1188 04-12-2009 11:00:00 4.16 C 4.09 g/m*3 4.16 C 0 km/h
1189 04-12-2009 12:00:00 5.26 C 4.13 g/m*3 5.26 C 0 km/h
1190 04-12-2009 13:00:00 5.04 C 3.9 g/m*3 5.04 C 0 km/h
1191 04-12-2009 14:00:00 4.9 C 3.77 g/m*3 4.9 C 0 km/h
1192 04-12-2009 15:00:00 4.72 C 3.64 g/m*3 4.72 C 0 km/h
1193 04-12-2009 16:00:00 4.88 C 3.78 g/m*3 4.88 C 0 km/h
1194 04-12-2009 17:00:00 4.74 C 3.99 g/m*3 4.74 C 0 km/h
1195 04-12-2009 18:00:00 4.84 C 4.14 g/m*3 4.84 C 0 km/h
1196 04-12-2009 19:00:00 5.02 C 4.12 g/m*3 5.02 C 0 km/h
1197 04-12-2009 20:00:00 5.02 C 4.22 g/m*3 5.02 C 0 km/h
1198 04-12-2009 21:00:00 5.12 C 4.31 g/m*3 5.12 C 0 km/h
1199 04-12-2009 22:00:00 5.14 C 4.27 g/m*3 5.14 C 0 km/h
1200 04-12-2009 23:00:00 3.72 C 4.12 g/m*3 3.72 C 0 km/h
Sensor: Nr:Datum:Temp:Abs-Feuchte:Windchill:Wind:
Aussen-T/F 1201 05-12-2009 00:00:00 2.68 C 4.28 g/m*3 2.68 C 0 km/h
1202 05-12-2009 01:00:00 2.96 C 4.35 g/m*3 2.96 C 0 km/h
1203 05-12-2009 02:00:00 2.78 C 4.3 g/m*3 2.78 C 0 km/h
1204 05-12-2009 03:00:00 3.02 C 4.37 g/m*3 3.02 C 0 km/h
1205 05-12-2009 04:00:00 3.3 C 4.34 g/m*3 3.3 C 0 km/h
1206 05-12-2009 05:00:00 3.36 C 4.32 g/m*3 3.36 C 0 km/h
1207 05-12-2009 06:00:00 3.46 C 4.26 g/m*3 3.46 C 0 km/h
1208 05-12-2009 07:00:00 3.7 C 4.13 g/m*3 3.7 C 0 km/h
1209 05-12-2009 08:00:00 4.02 C 4.05 g/m*3 4.02 C 0 km/h
1210 05-12-2009 09:00:00 4.34 C 4.12 g/m*3 4.34 C 0 km/h
1211 05-12-2009 10:00:00 5.02 C 4.16 g/m*3 5.02 C 0 km/h
1212 05-12-2009 11:00:00 5.4 C 4.62 g/m*3 5.4 C 0 km/h
1213 05-12-2009 12:00:00 6.26 C 4.93 g/m*3 6.26 C 0 km/h
1214 05-12-2009 13:00:00 6.82 C 5.24 g/m*3 6.82 C 0 km/h
1215 05-12-2009 14:00:00 7.1 C 5.46 g/m*3 7.1 C 0 km/h
1216 05-12-2009 15:00:00 6.44 C 5.77 g/m*3 6.44 C 0 km/h
1217 05-12-2009 16:00:00 6.14 C 6.07 g/m*3 6.14 C 0 km/h
1218 05-12-2009 17:00:00 6.54 C 6.35 g/m*3 6.54 C 0 km/h
1219 05-12-2009 18:00:00 7.26 C 6.26 g/m*3 7.26 C 0 km/h
1220 05-12-2009 19:00:00 7.4 C 6.38 g/m*3 7.4 C 0 km/h
1221 05-12-2009 20:00:00 7.68 C 6.62 g/m*3 7.68 C 0 km/h
1222 05-12-2009 21:00:00 7.86 C 6.75 g/m*3 7.86 C 0 km/h
1223 05-12-2009 22:00:00 7.86 C 6.8 g/m*3 7.86 C 0 km/h
1224 05-12-2009 23:00:00 8.14 C 6.89 g/m*3 8.14 C 0 km/h
1225 06-12-2009 00:00:00 8.96 C 7.03 g/m*3 8.96 C 0 km/h
Sensor: Nr:Datum:Temp:Abs-Feuchte:Windchill:Wind:
Aussen-T/F 1226 06-12-2009 01:00:00 9.38 C 7.14 g/m*3 9.38 C 0 km/h
1227 06-12-2009 02:00:00 9.64 C 7.16 g/m*3 9.64 C 0 km/h
1228 06-12-2009 03:00:00 9.9 C 7.11 g/m*3 9.9 C 0 km/h
1229 06-12-2009 04:00:00 9.92 C 7.14 g/m*3 9.92 C 0 km/h
1230 06-12-2009 05:00:00 9.72 C 7.31 g/m*3 9.72 C 0 km/h
1231 06-12-2009 06:00:00 9.18 C 7.49 g/m*3 9.18 C 0 km/h
1232 06-12-2009 07:00:00 8.5 C 7.56 g/m*3 8.5 C 0 km/h
1233 06-12-2009 08:00:00 8.2 C 7.59 g/m*3 8.2 C 0 km/h
1234 06-12-2009 09:00:00 8.46 C 7.78 g/m*3 8.46 C 0 km/h
1235 06-12-2009 10:00:00 9.16 C 7.89 g/m*3 9.16 C 0 km/h
1236 06-12-2009 11:00:00 9.76 C 7.92 g/m*3 9.76 C 0 km/h
1237 06-12-2009 12:00:00 10.16 C 7.67 g/m*3 10.16 C 0 km/h
1238 06-12-2009 13:00:00 10.62 C 7.33 g/m*3 10.62 C 0 km/h
1239 06-12-2009 14:00:00 11.78 C 7.08 g/m*3 11.78 C 0 km/h
1240 06-12-2009 15:00:00 11.28 C 7.4 g/m*3 11.28 C 0 km/h
1241 06-12-2009 16:00:00 11.1 C 7.37 g/m*3 11.1 C 0 km/h
1242 06-12-2009 17:00:00 10.92 C 7.59 g/m*3 10.92 C 0 km/h
1243 06-12-2009 18:00:00 11 C 7.71 g/m*3 11 C 0 km/h
1244 06-12-2009 19:00:00 11.28 C 7.84 g/m*3 11.28 C 0 km/h
1245 06-12-2009 20:00:00 10.64 C 8.24 g/m*3 10.64 C 0 km/h
1246 06-12-2009 21:00:00 9.7 C 7.93 g/m*3 9.7 C 0 km/h
1247 06-12-2009 22:00:00 8.86 C 7.79 g/m*3 8.86 C 0 km/h
1248 06-12-2009 23:00:00 7.8 C 7.08 g/m*3 7.8 C 0 km/h
1249 07-12-2009 00:00:00 6.78 C 6.43 g/m*3 6.78 C 0 km/h
1250 07-12-2009 01:00:00 6.48 C 6.41 g/m*3 6.48 C 0 km/h
Sensor: Nr:Datum:Temp:Abs-Feuchte:Windchill:Wind:
Aussen-T/F 1251 07-12-2009 02:00:00 4.84 C 5.94 g/m*3 4.84 C 0 km/h
1252 07-12-2009 03:00:00 4.18 C 5.84 g/m*3 4.18 C 0 km/h
1253 07-12-2009 04:00:00 3.42 C 5.63 g/m*3 3.42 C 0 km/h
1254 07-12-2009 05:00:00 2.6 C 5.43 g/m*3 2.6 C 0 km/h
1255 07-12-2009 06:00:00 2.5 C 5.43 g/m*3 2.5 C 0 km/h
1256 07-12-2009 07:00:00 2.88 C 5.6 g/m*3 2.88 C 0 km/h
1257 07-12-2009 08:00:00 3.12 C 5.69 g/m*3 3.12 C 0 km/h
1258 07-12-2009 09:00:00 3.8 C 5.96 g/m*3 3.8 C 0 km/h
1259 07-12-2009 10:00:00 5.78 C 6.5 g/m*3 5.78 C 0 km/h
1260 07-12-2009 11:00:00 6.82 C 6.22 g/m*3 6.82 C 0 km/h
1261 07-12-2009 12:00:00 7.52 C 6.01 g/m*3 7.52 C 0 km/h
1262 07-12-2009 13:00:00 7.72 C 5.78 g/m*3 7.72 C 0 km/h
1263 07-12-2009 14:00:00 7.88 C 5.38 g/m*3 7.88 C 0 km/h
1264 07-12-2009 15:00:00 7.2 C 5.26 g/m*3 7.2 C 0 km/h
1265 07-12-2009 16:00:00 6.58 C 5.38 g/m*3 6.58 C 0 km/h
1266 07-12-2009 17:00:00 6.34 C 5.85 g/m*3 6.34 C 0 km/h
1267 07-12-2009 18:00:00 6.54 C 6.06 g/m*3 6.54 C 0 km/h
1268 07-12-2009 19:00:00 6.34 C 6.15 g/m*3 6.34 C 0 km/h
1269 07-12-2009 20:00:00 6.3 C 6.37 g/m*3 6.3 C 0 km/h
1270 07-12-2009 21:00:00 6.36 C 6.72 g/m*3 6.36 C 0 km/h
1271 07-12-2009 22:00:00 6.06 C 6.75 g/m*3 6.06 C 0 km/h
1272 07-12-2009 23:00:00 6.34 C 7.01 g/m*3 6.34 C 0 km/h
1273 08-12-2009 00:00:00 6.44 C 7.1 g/m*3 6.44 C 0 km/h
1274 08-12-2009 01:00:00 6.98 C 7.35 g/m*3 6.98 C 0 km/h
1275 08-12-2009 02:00:00 7.2 C 7.46 g/m*3 7.2 C 0 km/h
Sensor: Nr:Datum:Temp:Abs-Feuchte:Windchill:Wind:
Aussen-T/F 1276 08-12-2009 03:00:00 7.7 C 7.7 g/m*3 7.7 C 0 km/h
1277 08-12-2009 04:00:00 7.92 C 7.81 g/m*3 7.92 C 0 km/h
1278 08-12-2009 05:00:00 8.28 C 7.61 g/m*3 8.28 C 0 km/h
1279 08-12-2009 06:00:00 7.62 C 6.07 g/m*3 7.62 C 0 km/h
1280 08-12-2009 07:00:00 6.74 C 5.96 g/m*3 6.74 C 0 km/h
1281 08-12-2009 08:00:00 6.02 C 6.05 g/m*3 6.02 C 0 km/h
1282 08-12-2009 09:00:00 6.34 C 5.98 g/m*3 6.34 C 0 km/h
1283 08-12-2009 10:00:00 6.98 C 5.82 g/m*3 6.98 C 0 km/h
1284 08-12-2009 11:00:00 7.42 C 5.83 g/m*3 7.42 C 0 km/h
1285 08-12-2009 12:00:00 7.66 C 5.68 g/m*3 7.66 C 0 km/h
1286 08-12-2009 13:00:00 7.76 C 5.49 g/m*3 7.76 C 0 km/h
1287 08-12-2009 14:00:00 7.68 C 5.57 g/m*3 7.68 C 0 km/h
1288 08-12-2009 15:00:00 7.54 C 5.62 g/m*3 7.54 C 0 km/h
1289 08-12-2009 16:00:00 6.96 C 5.64 g/m*3 6.96 C 0 km/h
1290 08-12-2009 17:00:00 6.44 C 5.69 g/m*3 6.44 C 0 km/h
1291 08-12-2009 18:00:00 5.84 C 5.77 g/m*3 5.84 C 0 km/h
1292 08-12-2009 19:00:00 6 C 5.85 g/m*3 6 C 0 km/h
1293 08-12-2009 20:00:00 6.28 C 5.97 g/m*3 6.28 C 0 km/h
1294 08-12-2009 21:00:00 6.42 C 6.12 g/m*3 6.42 C 0 km/h
1295 08-12-2009 22:00:00 6.36 C 6.14 g/m*3 6.36 C 0 km/h
1296 08-12-2009 23:00:00 6.42 C 6.27 g/m*3 6.42 C 0 km/h
1297 09-12-2009 00:00:00 6.08 C 6.44 g/m*3 6.08 C 0 km/h
1298 09-12-2009 01:00:00 6.02 C 6.48 g/m*3 6.02 C 0 km/h
1299 09-12-2009 02:00:00 5.82 C 6.33 g/m*3 5.82 C 0 km/h
1300 09-12-2009 03:00:00 5.74 C 6.22 g/m*3 5.74 C 0 km/h
Sensor: Nr:Datum:Temp:Abs-Feuchte:Windchill:Wind:
Aussen-T/F 1301 09-12-2009 04:00:00 5.9 C 5.94 g/m*3 5.9 C 0 km/h
1302 09-12-2009 05:00:00 5.96 C 5.78 g/m*3 5.96 C 0 km/h
1303 09-12-2009 06:00:00 6.04 C 5.62 g/m*3 6.04 C 0 km/h
1304 09-12-2009 07:00:00 6.34 C 5.57 g/m*3 6.34 C 0 km/h
1305 09-12-2009 08:00:00 5.9 C 5.57 g/m*3 5.9 C 0 km/h
1306 09-12-2009 09:00:00 5.66 C 5.72 g/m*3 5.66 C 0 km/h
1307 09-12-2009 10:00:00 7.26 C 5.69 g/m*3 7.26 C 0 km/h
1308 09-12-2009 11:00:00 7.96 C 5.59 g/m*3 7.96 C 0 km/h
1309 09-12-2009 12:00:00 8.44 C 5.63 g/m*3 8.44 C 0 km/h
1310 09-12-2009 13:00:00 8.94 C 5.74 g/m*3 8.94 C 0 km/h
1311 09-12-2009 14:00:00 9.06 C 5.95 g/m*3 9.06 C 0 km/h
1312 09-12-2009 15:00:00 9.16 C 5.91 g/m*3 9.16 C 0 km/h
1313 09-12-2009 16:00:00 8.76 C 6.15 g/m*3 8.76 C 0 km/h
1314 09-12-2009 17:00:00 8.38 C 6.34 g/m*3 8.38 C 0 km/h
1315 09-12-2009 18:00:00 8.22 C 6.52 g/m*3 8.22 C 0 km/h
1316 09-12-2009 19:00:00 7.82 C 6.64 g/m*3 7.82 C 0 km/h
1317 09-12-2009 20:00:00 7.76 C 6.98 g/m*3 7.76 C 0 km/h
1318 09-12-2009 21:00:00 7.7 C 7.07 g/m*3 7.7 C 0 km/h
1319 09-12-2009 22:00:00 7.62 C 7.13 g/m*3 7.62 C 0 km/h
1320 09-12-2009 23:00:00 7.52 C 7.21 g/m*3 7.52 C 0 km/h
1321 10-12-2009 00:00:00 7.44 C 7.35 g/m*3 7.44 C 0 km/h
1322 10-12-2009 01:00:00 7.58 C 7.48 g/m*3 7.58 C 0 km/h
1323 10-12-2009 02:00:00 7.64 C 7.51 g/m*3 7.64 C 0 km/h
1324 10-12-2009 03:00:00 7.74 C 7.61 g/m*3 7.74 C 0 km/h
1325 10-12-2009 04:00:00 7.8 C 7.67 g/m*3 7.8 C 0 km/h
Sensor: Nr:Datum:Temp:Abs-Feuchte:Windchill:Wind:
Aussen-T/F 1326 10-12-2009 05:00:00 7.86 C 7.72 g/m*3 7.86 C 0 km/h
1327 10-12-2009 06:00:00 8.5 C 8.08 g/m*3 8.5 C 0 km/h
1328 10-12-2009 07:00:00 8.9 C 8.32 g/m*3 8.9 C 0 km/h
1329 10-12-2009 08:00:00 8.62 C 8.17 g/m*3 8.62 C 0 km/h
1330 10-12-2009 09:00:00 8.8 C 8.27 g/m*3 8.8 C 0 km/h
1331 10-12-2009 10:00:00 8.98 C 8.33 g/m*3 8.98 C 0 km/h
1332 10-12-2009 11:00:00 9.68 C 8.36 g/m*3 9.68 C 0 km/h
1333 10-12-2009 12:00:00 10.04 C 7.35 g/m*3 10.04 C 0 km/h
1334 10-12-2009 13:00:00 10.62 C 6.33 g/m*3 10.62 C 0 km/h
1335 10-12-2009 14:00:00 10.84 C 5.95 g/m*3 10.84 C 0 km/h
1336 10-12-2009 15:00:00 10.58 C 5.46 g/m*3 10.58 C 0 km/h
1337 10-12-2009 16:00:00 9.96 C 5.1 g/m*3 9.96 C 0 km/h
1338 10-12-2009 17:00:00 9.32 C 5.38 g/m*3 9.32 C 0 km/h
1339 10-12-2009 18:00:00 8.66 C 5.42 g/m*3 8.66 C 0 km/h
1340 10-12-2009 19:00:00 8.3 C 6.02 g/m*3 8.3 C 0 km/h
1341 10-12-2009 20:00:00 8.52 C 6.04 g/m*3 8.52 C 0 km/h
1342 10-12-2009 21:00:00 8.08 C 6.23 g/m*3 8.08 C 0 km/h
1343 10-12-2009 22:00:00 8.4 C 6.16 g/m*3 8.4 C 0 km/h
1344 10-12-2009 23:00:00 8 C 6.55 g/m*3 8 C 0 km/h
1345 11-12-2009 00:00:00 7.64 C 7.06 g/m*3 7.64 C 0 km/h
1346 11-12-2009 01:00:00 7.84 C 7.07 g/m*3 7.84 C 0 km/h
1347 11-12-2009 02:00:00 7.92 C 6.93 g/m*3 7.92 C 0 km/h
1348 11-12-2009 03:00:00 7.94 C 6.98 g/m*3 7.94 C 0 km/h
1349 11-12-2009 04:00:00 8.1 C 6.91 g/m*3 8.1 C 0 km/h
1350 11-12-2009 05:00:00 7.86 C 7 g/m*3 7.86 C 0 km/h
Sensor: Nr:Datum:Temp:Abs-Feuchte:Windchill:Wind:
Aussen-T/F 1351 11-12-2009 06:00:00 7.62 C 6.87 g/m*3 7.62 C 0 km/h
1352 11-12-2009 07:00:00 7.34 C 6.99 g/m*3 7.34 C 0 km/h
1353 11-12-2009 08:00:00 7.7 C 6.6 g/m*3 7.7 C 0 km/h
1354 11-12-2009 09:00:00 7.64 C 6.22 g/m*3 7.64 C 0 km/h
1355 11-12-2009 10:00:00 7.38 C 5.53 g/m*3 7.38 C 0 km/h
1356 11-12-2009 11:00:00 7.74 C 5.4 g/m*3 7.74 C 0 km/h
1357 11-12-2009 12:00:00 7.9 C 5.29 g/m*3 7.9 C 0 km/h
1358 11-12-2009 13:00:00 7.8 C 5.34 g/m*3 7.8 C 0 km/h
1359 11-12-2009 14:00:00 7.38 C 5.19 g/m*3 7.38 C 0 km/h
1360 11-12-2009 15:00:00 7 C 5.25 g/m*3 7 C 0 km/h
1361 11-12-2009 16:00:00 6.36 C 5.66 g/m*3 6.36 C 0 km/h
1362 11-12-2009 17:00:00 6.02 C 5.86 g/m*3 6.02 C 0 km/h
1363 11-12-2009 18:00:00 5.68 C 6.31 g/m*3 5.68 C 0 km/h
1364 11-12-2009 19:00:00 5.16 C 6.29 g/m*3 5.16 C 0 km/h
1365 11-12-2009 20:00:00 3.88 C 5.75 g/m*3 3.88 C 0 km/h
1366 11-12-2009 21:00:00 3.34 C 5.61 g/m*3 3.34 C 0 km/h
1367 11-12-2009 22:00:00 3.38 C 5.67 g/m*3 3.38 C 0 km/h
1368 11-12-2009 23:00:00 3.34 C 5.66 g/m*3 3.34 C 0 km/h
1369 12-12-2009 00:00:00 3.26 C 5.65 g/m*3 3.26 C 0 km/h
1370 12-12-2009 01:00:00 3.24 C 5.68 g/m*3 3.24 C 0 km/h
1371 12-12-2009 02:00:00 3.24 C 5.7 g/m*3 3.24 C 0 km/h
1372 12-12-2009 03:00:00 3.28 C 5.68 g/m*3 3.28 C 0 km/h
1373 12-12-2009 04:00:00 2.98 C 5.5 g/m*3 2.98 C 0 km/h
1374 12-12-2009 05:00:00 2.94 C 5.48 g/m*3 2.94 C 0 km/h
1375 12-12-2009 06:00:00 3.02 C 5.49 g/m*3 3.02 C 0 km/h
Sensor: Nr:Datum:Temp:Abs-Feuchte:Windchill:Wind:
Aussen-T/F 1376 12-12-2009 07:00:00 3.1 C 5.51 g/m*3 3.1 C 0 km/h
1377 12-12-2009 08:00:00 3.16 C 5.53 g/m*3 3.16 C 0 km/h
1378 12-12-2009 09:00:00 3.3 C 5.58 g/m*3 3.3 C 0 km/h
1379 12-12-2009 10:00:00 3.4 C 5.56 g/m*3 3.4 C 0 km/h
1380 12-12-2009 11:00:00 3.66 C 5.63 g/m*3 3.66 C 0 km/h
1381 12-12-2009 12:00:00 3.84 C 5.56 g/m*3 3.84 C 0 km/h
1382 12-12-2009 13:00:00 4.36 C 5.52 g/m*3 4.36 C 0 km/h
1383 12-12-2009 14:00:00 4.58 C 5.42 g/m*3 4.58 C 0 km/h
1384 12-12-2009 15:00:00 4.4 C 5.13 g/m*3 4.4 C 0 km/h
1385 12-12-2009 16:00:00 4.24 C 4.82 g/m*3 4.24 C 0 km/h
1386 12-12-2009 17:00:00 4.04 C 4.77 g/m*3 4.04 C 0 km/h
1387 12-12-2009 18:00:00 3.88 C 4.84 g/m*3 3.88 C 0 km/h
1388 12-12-2009 19:00:00 3.4 C 4.72 g/m*3 3.4 C 0 km/h
1389 12-12-2009 20:00:00 2.94 C 4.78 g/m*3 2.94 C 0 km/h
1390 12-12-2009 21:00:00 3.1 C 4.79 g/m*3 3.1 C 0 km/h
1391 12-12-2009 22:00:00 3.02 C 4.82 g/m*3 3.02 C 0 km/h
1392 12-12-2009 23:00:00 3.1 C 4.7 g/m*3 3.1 C 0 km/h
1393 13-12-2009 00:00:00 3.1 C 4.63 g/m*3 3.1 C 0 km/h
1394 13-12-2009 01:00:00 2.88 C 4.62 g/m*3 2.88 C 0 km/h
1395 13-12-2009 02:00:00 2.36 C 4.74 g/m*3 2.36 C 0 km/h
1396 13-12-2009 03:00:00 2.18 C 4.91 g/m*3 2.18 C 0 km/h
1397 13-12-2009 04:00:00 2.2 C 4.93 g/m*3 2.2 C 0 km/h
1398 13-12-2009 05:00:00 2.2 C 4.86 g/m*3 2.2 C 0 km/h
1399 13-12-2009 06:00:00 2.14 C 4.63 g/m*3 2.14 C 0 km/h
1400 13-12-2009 07:00:00 1.76 C 4.03 g/m*3 1.76 C 0 km/h
Sensor: Nr:Datum:Temp:Abs-Feuchte:Windchill:Wind:
Aussen-T/F 1401 13-12-2009 08:00:00 1.72 C 4.08 g/m*3 1.72 C 0 km/h
1402 13-12-2009 09:00:00 1.98 C 4.12 g/m*3 1.98 C 0 km/h
1403 13-12-2009 10:00:00 2.18 C 3.77 g/m*3 2.18 C 0 km/h
1404 13-12-2009 11:00:00 2.52 C 3.59 g/m*3 2.52 C 0 km/h
1405 13-12-2009 12:00:00 2.68 C 3.53 g/m*3 2.68 C 0 km/h
1406 13-12-2009 13:00:00 2.7 C 3.46 g/m*3 2.7 C 0 km/h
1407 13-12-2009 14:00:00 2.04 C 3 g/m*3 2.04 C 0 km/h
1408 13-12-2009 15:00:00 1.44 C 2.82 g/m*3 1.44 C 0 km/h
1409 13-12-2009 16:00:00 1.04 C 2.71 g/m*3 1.04 C 0 km/h
1410 13-12-2009 17:00:00 0.72 C 2.52 g/m*3 0.72 C 0 km/h
1411 13-12-2009 18:00:00 0.38 C 2.41 g/m*3 0.38 C 0 km/h
1412 13-12-2009 19:00:00 -0.18 C 2.39 g/m*3 -0.18 C 0 km/h
1413 13-12-2009 20:00:00 -0.68 C 2.44 g/m*3 -0.68 C 0 km/h
1414 13-12-2009 21:00:00 -0.78 C 2.52 g/m*3 -0.78 C 0 km/h
1415 13-12-2009 22:00:00 -0.45 C 2.58 g/m*3 -0.45 C 0 km/h
1416 13-12-2009 23:00:00 -0.3 C 2.58 g/m*3 -0.3 C 0 km/h
1417 14-12-2009 00:00:00 -0.38 C 2.76 g/m*3 -0.38 C 0 km/h
1418 14-12-2009 01:00:00 -1.38 C 2.84 g/m*3 -1.38 C 0 km/h
1419 14-12-2009 02:00:00 -2.36 C 2.81 g/m*3 -2.36 C 0 km/h
1420 14-12-2009 03:00:00 -2.32 C 2.94 g/m*3 -2.32 C 0 km/h
1421 14-12-2009 04:00:00 -1.42 C 3.04 g/m*3 -1.42 C 0 km/h
1422 14-12-2009 05:00:00 -0.92 C 2.84 g/m*3 -0.92 C 0 km/h
1423 14-12-2009 06:00:00 -0.74 C 2.62 g/m*3 -0.74 C 0 km/h
1424 14-12-2009 07:00:00 -0.76 C 2.56 g/m*3 -0.76 C 0 km/h
1425 14-12-2009 08:00:00 -0.7 C 2.62 g/m*3 -0.7 C 0 km/h
Sensor: Nr:Datum:Temp:Abs-Feuchte:Windchill:Wind:
Aussen-T/F 1426 14-12-2009 09:00:00 -0.7 C 2.6 g/m*3 -0.7 C 0 km/h
1427 14-12-2009 10:00:00 -0.44 C 2.49 g/m*3 -0.44 C 0 km/h
1428 14-12-2009 11:00:00 0 C 2.5 g/m*3 0 C 0 km/h
1429 14-12-2009 12:00:00 0.1 C 2.44 g/m*3 0.1 C 0 km/h
1430 14-12-2009 13:00:00 0.14 C 2.45 g/m*3 0.14 C 0 km/h
1431 14-12-2009 14:00:00 0.36 C 2.6 g/m*3 0.36 C 0 km/h
1432 14-12-2009 15:00:00 -0.26 C 2.6 g/m*3 -0.26 C 0 km/h
1433 14-12-2009 16:00:00 -0.5 C 2.65 g/m*3 -0.5 C 0 km/h
1434 14-12-2009 17:00:00 -0.54 C 2.68 g/m*3 -0.54 C 0 km/h
1435 14-12-2009 18:00:00 -0.68 C 2.61 g/m*3 -0.68 C 0 km/h
1436 14-12-2009 19:00:00 -0.72 C 2.66 g/m*3 -0.72 C 0 km/h
1437 14-12-2009 20:00:00 -0.6 C 2.69 g/m*3 -0.6 C 0 km/h
1438 14-12-2009 21:00:00 -0.5 C 2.71 g/m*3 -0.5 C 0 km/h
1439 14-12-2009 22:00:00 -1.7 C 2.62 g/m*3 -1.7 C 0 km/h
1440 14-12-2009 23:00:00 -2.34 C 2.64 g/m*3 -2.34 C 0 km/h
1441 15-12-2009 00:00:00 -2.9 C 2.69 g/m*3 -2.9 C 0 km/h
1442 15-12-2009 01:00:00 -3.36 C 2.72 g/m*3 -3.36 C 0 km/h
1443 15-12-2009 02:00:00 -3.18 C 2.82 g/m*3 -3.18 C 0 km/h
1444 15-12-2009 03:00:00 -2.36 C 2.9 g/m*3 -2.36 C 0 km/h
1445 15-12-2009 04:00:00 -1.96 C 2.96 g/m*3 -1.96 C 0 km/h
1446 15-12-2009 05:00:00 -1.84 C 3.02 g/m*3 -1.84 C 0 km/h
1447 15-12-2009 06:00:00 -1.6 C 3.12 g/m*3 -1.6 C 0 km/h
1448 15-12-2009 07:00:00 -1.62 C 3.15 g/m*3 -1.62 C 0 km/h
1449 15-12-2009 08:00:00 -1.16 C 3.22 g/m*3 -1.16 C 0 km/h
1450 15-12-2009 09:00:00 -0.68 C 3.25 g/m*3 -0.68 C 0 km/h
Sensor: Nr:Datum:Temp:Abs-Feuchte:Windchill:Wind:
Aussen-T/F 1451 15-12-2009 10:00:00 0.08 C 3.16 g/m*3 0.08 C 0 km/h
1452 15-12-2009 11:00:00 0.44 C 3.11 g/m*3 0.44 C 0 km/h
1453 15-12-2009 12:00:00 0.88 C 2.92 g/m*3 0.88 C 0 km/h
1454 15-12-2009 13:00:00 1.34 C 2.84 g/m*3 1.34 C 0 km/h
1455 15-12-2009 14:00:00 1.48 C 2.67 g/m*3 1.48 C 0 km/h
1456 15-12-2009 15:00:00 1.14 C 2.64 g/m*3 1.14 C 0 km/h
1457 15-12-2009 16:00:00 0.92 C 2.64 g/m*3 0.92 C 0 km/h
1458 15-12-2009 17:00:00 0.64 C 2.67 g/m*3 0.64 C 0 km/h
1459 15-12-2009 18:00:00 0.6 C 2.65 g/m*3 0.6 C 0 km/h
1460 15-12-2009 19:00:00 0.42 C 2.71 g/m*3 0.42 C 0 km/h
1461 15-12-2009 20:00:00 0.48 C 2.7 g/m*3 0.48 C 0 km/h
1462 15-12-2009 21:00:00 0.34 C 2.68 g/m*3 0.34 C 0 km/h
1463 15-12-2009 22:00:00 0.06 C 2.67 g/m*3 0.06 C 0 km/h
1464 15-12-2009 23:00:00 -0.18 C 2.72 g/m*3 -0.18 C 0 km/h
1465 16-12-2009 00:00:00 -0.32 C 2.77 g/m*3 -0.32 C 0 km/h
1466 16-12-2009 01:00:00 -1.04 C 2.75 g/m*3 -1.04 C 0 km/h
1467 16-12-2009 02:00:00 -1.22 C 2.79 g/m*3 -1.22 C 0 km/h
1468 16-12-2009 03:00:00 -1.06 C 2.81 g/m*3 -1.06 C 0 km/h
1469 16-12-2009 04:00:00 -1.04 C 2.79 g/m*3 -1.04 C 0 km/h
1470 16-12-2009 05:00:00 -1.16 C 2.85 g/m*3 -1.16 C 0 km/h
1471 16-12-2009 06:00:00 -1.16 C 2.86 g/m*3 -1.16 C 0 km/h
1472 16-12-2009 07:00:00 -1.2 C 2.87 g/m*3 -1.2 C 0 km/h
1473 16-12-2009 08:00:00 -1.2 C 2.9 g/m*3 -1.2 C 0 km/h
1474 16-12-2009 09:00:00 -1.06 C 2.96 g/m*3 -1.06 C 0 km/h
1475 16-12-2009 10:00:00 -0.28 C 2.98 g/m*3 -0.28 C 0 km/h
Sensor: Nr:Datum:Temp:Abs-Feuchte:Windchill:Wind:
Aussen-T/F 1476 16-12-2009 11:00:00 0.2 C 2.92 g/m*3 0.2 C 0 km/h
1477 16-12-2009 12:00:00 0.84 C 2.95 g/m*3 0.84 C 0 km/h
1478 16-12-2009 13:00:00 0.92 C 2.84 g/m*3 0.92 C 0 km/h
1479 16-12-2009 14:00:00 1.02 C 2.75 g/m*3 1.02 C 0 km/h
1480 16-12-2009 15:00:00 0.06 C 2.63 g/m*3 0.06 C 0 km/h
1481 16-12-2009 16:00:00 -0.92 C 2.55 g/m*3 -0.92 C 0 km/h
1482 16-12-2009 17:00:00 -1.72 C 2.56 g/m*3 -1.72 C 0 km/h
1483 16-12-2009 18:00:00 -2.02 C 2.69 g/m*3 -2.02 C 0 km/h
1484 16-12-2009 19:00:00 -2.14 C 2.71 g/m*3 -2.14 C 0 km/h
1485 16-12-2009 20:00:00 -2.88 C 2.69 g/m*3 -2.88 C 0 km/h
1486 16-12-2009 21:00:00 -3.38 C 2.71 g/m*3 -3.38 C 0 km/h
1487 16-12-2009 22:00:00 -3.82 C 2.73 g/m*3 -3.82 C 0 km/h
1488 16-12-2009 23:00:00 -4.2 C 2.7 g/m*3 -4.2 C 0 km/h
1489 17-12-2009 00:00:00 -4.9 C 2.63 g/m*3 -4.9 C 0 km/h
1490 17-12-2009 01:00:00 -5.36 C 2.61 g/m*3 -5.36 C 0 km/h
1491 17-12-2009 02:00:00 -5.66 C 2.61 g/m*3 -5.66 C 0 km/h
1492 17-12-2009 03:00:00 -5.52 C 2.7 g/m*3 -5.52 C 0 km/h
1493 17-12-2009 04:00:00 -5.54 C 2.72 g/m*3 -5.54 C 0 km/h
1494 17-12-2009 05:00:00 -5.92 C 2.64 g/m*3 -5.92 C 0 km/h
1495 17-12-2009 06:00:00 -6.1 C 2.61 g/m*3 -6.1 C 0 km/h
1496 17-12-2009 07:00:00 -6.36 C 2.56 g/m*3 -6.36 C 0 km/h
1497 17-12-2009 08:00:00 -6.44 C 2.56 g/m*3 -6.44 C 0 km/h
1498 17-12-2009 09:00:00 -5.88 C 2.66 g/m*3 -5.88 C 0 km/h
1499 17-12-2009 10:00:00 -5.28 C 2.77 g/m*3 -5.28 C 0 km/h
1500 17-12-2009 11:00:00 -4.18 C 2.95 g/m*3 -4.18 C 0 km/h
Sensor: Nr:Datum:Temp:Abs-Feuchte:Windchill:Wind:
Aussen-T/F 1501 17-12-2009 12:00:00 -3.02 C 3 g/m*3 -3.02 C 0 km/h
1502 17-12-2009 13:00:00 -1.62 C 2.68 g/m*3 -1.62 C 0 km/h
1503 17-12-2009 14:00:00 -1.34 C 2.61 g/m*3 -1.34 C 0 km/h
1504 17-12-2009 15:00:00 -1.76 C 2.48 g/m*3 -1.76 C 0 km/h
1505 17-12-2009 16:00:00 -2.54 C 2.52 g/m*3 -2.54 C 0 km/h
1506 17-12-2009 17:00:00 -3.72 C 2.38 g/m*3 -3.72 C 0 km/h
1507 17-12-2009 18:00:00 -4.56 C 2.32 g/m*3 -4.56 C 0 km/h
1508 17-12-2009 19:00:00 -4.66 C 2.41 g/m*3 -4.66 C 0 km/h
1509 17-12-2009 20:00:00 -4.4 C 2.52 g/m*3 -4.4 C 0 km/h
1510 17-12-2009 21:00:00 -4.08 C 2.56 g/m*3 -4.08 C 0 km/h
1511 17-12-2009 22:00:00 -3.84 C 2.54 g/m*3 -3.84 C 0 km/h
1512 17-12-2009 23:00:00 -4 C 2.44 g/m*3 -4 C 0 km/h
1513 18-12-2009 00:00:00 -5.06 C 2.35 g/m*3 -5.06 C 0 km/h
1514 18-12-2009 01:00:00 -5.6 C 2.36 g/m*3 -5.6 C 0 km/h
1515 18-12-2009 02:00:00 -5.9 C 2.32 g/m*3 -5.9 C 0 km/h
1516 18-12-2009 03:00:00 -6.56 C 2.28 g/m*3 -6.56 C 0 km/h
1517 18-12-2009 04:00:00 -6.86 C 2.3 g/m*3 -6.86 C 0 km/h
1518 18-12-2009 05:00:00 -7.32 C 2.27 g/m*3 -7.32 C 0 km/h
1519 18-12-2009 06:00:00 -7.7 C 2.23 g/m*3 -7.7 C 0 km/h
1520 18-12-2009 07:00:00 -7.56 C 2.27 g/m*3 -7.56 C 0 km/h
1521 18-12-2009 08:00:00 -6.64 C 2.42 g/m*3 -6.64 C 0 km/h
1522 18-12-2009 09:00:00 -6.3 C 2.45 g/m*3 -6.3 C 0 km/h
1523 18-12-2009 10:00:00 -4.8 C 2.61 g/m*3 -4.8 C 0 km/h
1524 18-12-2009 11:00:00 -3.74 C 2.53 g/m*3 -3.74 C 0 km/h
1525 18-12-2009 12:00:00 -3.04 C 2.46 g/m*3 -3.04 C 0 km/h
Sensor: Nr:Datum:Temp:Abs-Feuchte:Windchill:Wind:
Aussen-T/F 1526 18-12-2009 13:00:00 -2.62 C 2.6 g/m*3 -2.62 C 0 km/h
1527 18-12-2009 14:00:00 -2.06 C 2.73 g/m*3 -2.06 C 0 km/h
1528 18-12-2009 15:00:00 -1.86 C 2.87 g/m*3 -1.86 C 0 km/h
1529 18-12-2009 16:00:00 -2.38 C 2.95 g/m*3 -2.38 C 0 km/h
1530 18-12-2009 17:00:00 -2.96 C 2.99 g/m*3 -2.96 C 0 km/h
1531 18-12-2009 18:00:00 -3.54 C 2.4 g/m*3 -3.54 C 0 km/h
1532 18-12-2009 19:00:00 -4.02 C 1.95 g/m*3 -4.02 C 0 km/h
1533 18-12-2009 20:00:00 -4.98 C 1.56 g/m*3 -4.98 C 0 km/h
1534 18-12-2009 21:00:00 -5.38 C 1.6 g/m*3 -5.38 C 0 km/h
1535 18-12-2009 22:00:00 -6.42 C 1.86 g/m*3 -6.42 C 0 km/h
1536 18-12-2009 23:00:00 -7.76 C 1.88 g/m*3 -7.76 C 0 km/h
1537 19-12-2009 00:00:00 -8.88 C 1.56 g/m*3 -8.88 C 0 km/h
1538 19-12-2009 01:00:00 -9.86 C 1.33 g/m*3 -9.86 C 0 km/h
1539 19-12-2009 02:00:00 -10.32 C 1.2 g/m*3 -10.32 C 0 km/h
1540 19-12-2009 03:00:00 -12.24 C 1.07 g/m*3 -12.24 C 0 km/h
1541 19-12-2009 04:00:00 -12.58 C 1.08 g/m*3 -12.58 C 0 km/h
1542 19-12-2009 05:00:00 -13.14 C 1.01 g/m*3 -13.14 C 0 km/h
1543 19-12-2009 06:00:00 -13.68 C 1.03 g/m*3 -13.68 C 0 km/h
1544 19-12-2009 07:00:00 -13.7 C 1.08 g/m*3 -13.7 C 0 km/h
1545 19-12-2009 08:00:00 -13.8 C 1.09 g/m*3 -13.8 C 0 km/h
1546 19-12-2009 09:00:00 -13.9 C 1.09 g/m*3 -13.9 C 0 km/h
1547 19-12-2009 10:00:00 -13.16 C 1.17 g/m*3 -13.16 C 0 km/h
1548 19-12-2009 11:00:00 -12.7 C 1.14 g/m*3 -12.7 C 0 km/h
1549 19-12-2009 12:00:00 -11.84 C 1.13 g/m*3 -11.84 C 0 km/h
1550 19-12-2009 13:00:00 -11.4 C 1.11 g/m*3 -11.4 C 0 km/h
Sensor: Nr:Datum:Temp:Abs-Feuchte:Windchill:Wind:
Aussen-T/F 1551 19-12-2009 14:00:00 -11.18 C 1.12 g/m*3 -11.18 C 0 km/h
1552 19-12-2009 15:00:00 -11.18 C 1.14 g/m*3 -11.18 C 0 km/h
1553 19-12-2009 16:00:00 -12.1 C 1.11 g/m*3 -12.1 C 0 km/h
1554 19-12-2009 17:00:00 -12.6 C 1.09 g/m*3 -12.6 C 0 km/h
1555 19-12-2009 18:00:00 -13.46 C 1.05 g/m*3 -13.46 C 0 km/h
1556 19-12-2009 19:00:00 -13.98 C 1.09 g/m*3 -13.98 C 0 km/h
1557 19-12-2009 20:00:00 -14.82 C 1.07 g/m*3 -14.82 C 0 km/h
1558 19-12-2009 21:00:00 -15.1 C 1.05 g/m*3 -15.1 C 0 km/h
1559 19-12-2009 22:00:00 -15.5 C 1.03 g/m*3 -15.5 C 0 km/h
1560 19-12-2009 23:00:00 -15.84 C 0.99 g/m*3 -15.84 C 0 km/h
1561 20-12-2009 00:00:00 -16.16 C 0.97 g/m*3 -16.16 C 0 km/h
1562 20-12-2009 01:00:00 -16.34 C 0.95 g/m*3 -16.34 C 0 km/h
1563 20-12-2009 02:00:00 -16.06 C 0.99 g/m*3 -16.06 C 0 km/h
1564 20-12-2009 03:00:00 -15.58 C 1.03 g/m*3 -15.58 C 0 km/h
1565 20-12-2009 04:00:00 -14.56 C 1.11 g/m*3 -14.56 C 0 km/h
1566 20-12-2009 05:00:00 -13.48 C 1.21 g/m*3 -13.48 C 0 km/h
1567 20-12-2009 06:00:00 -12.42 C 1.23 g/m*3 -12.42 C 0 km/h
1568 20-12-2009 07:00:00 -12.6 C 1.24 g/m*3 -12.6 C 0 km/h
1569 20-12-2009 08:00:00 -11.18 C 1.42 g/m*3 -11.18 C 0 km/h
1570 20-12-2009 09:00:00 -9.62 C 1.57 g/m*3 -9.62 C 0 km/h
1571 20-12-2009 10:00:00 -7.98 C 1.64 g/m*3 -7.98 C 0 km/h
1572 20-12-2009 11:00:00 -6.9 C 1.74 g/m*3 -6.9 C 0 km/h
1573 20-12-2009 12:00:00 -6.02 C 2 g/m*3 -6.02 C 0 km/h
1574 20-12-2009 13:00:00 -5.66 C 2.36 g/m*3 -5.66 C 0 km/h
1575 20-12-2009 14:00:00 -5.24 C 2.58 g/m*3 -5.24 C 0 km/h
Sensor: Nr:Datum:Temp:Abs-Feuchte:Windchill:Wind:
Aussen-T/F 1576 20-12-2009 15:00:00 -4.66 C 2.71 g/m*3 -4.66 C 0 km/h
1577 20-12-2009 16:00:00 -3.9 C 2.81 g/m*3 -3.9 C 0 km/h
1578 20-12-2009 17:00:00 -3.06 C 2.92 g/m*3 -3.06 C 0 km/h
1579 20-12-2009 18:00:00 -2.58 C 3.02 g/m*3 -2.58 C 0 km/h
1580 20-12-2009 19:00:00 -1.92 C 3.11 g/m*3 -1.92 C 0 km/h
1581 20-12-2009 20:00:00 -1.62 C 3.16 g/m*3 -1.62 C 0 km/h
1582 20-12-2009 21:00:00 -1.24 C 3.09 g/m*3 -1.24 C 0 km/h
1583 20-12-2009 22:00:00 -1.84 C 2.82 g/m*3 -1.84 C 0 km/h
1584 20-12-2009 23:00:00 -2.32 C 2.85 g/m*3 -2.32 C 0 km/h
1585 21-12-2009 00:00:00 -3.1 C 2.8 g/m*3 -3.1 C 0 km/h
1586 21-12-2009 01:00:00 -3.84 C 2.74 g/m*3 -3.84 C 0 km/h
1587 21-12-2009 02:00:00 -4.2 C 2.76 g/m*3 -4.2 C 0 km/h
1588 21-12-2009 03:00:00 -3.94 C 2.83 g/m*3 -3.94 C 0 km/h
1589 21-12-2009 04:00:00 -4.74 C 2.7 g/m*3 -4.74 C 0 km/h
1590 21-12-2009 05:00:00 -5.22 C 2.71 g/m*3 -5.22 C 0 km/h
1591 21-12-2009 06:00:00 -4.88 C 2.78 g/m*3 -4.88 C 0 km/h
1592 21-12-2009 07:00:00 -4.4 C 2.79 g/m*3 -4.4 C 0 km/h
1593 21-12-2009 08:00:00 -5.46 C 2.53 g/m*3 -5.46 C 0 km/h
1594 21-12-2009 09:00:00 -5.54 C 2.59 g/m*3 -5.54 C 0 km/h
1595 21-12-2009 10:00:00 -3.98 C 2.82 g/m*3 -3.98 C 0 km/h
1596 21-12-2009 11:00:00 -2.38 C 2.87 g/m*3 -2.38 C 0 km/h
1597 21-12-2009 12:00:00 -1.06 C 3.07 g/m*3 -1.06 C 0 km/h
1598 21-12-2009 13:00:00 -0.58 C 3.33 g/m*3 -0.58 C 0 km/h
1599 21-12-2009 14:00:00 -0.18 C 3.47 g/m*3 -0.18 C 0 km/h
1600 21-12-2009 15:00:00 -0.2 C 3.61 g/m*3 -0.2 C 0 km/h
Sensor: Nr:Datum:Temp:Abs-Feuchte:Windchill:Wind:
Aussen-T/F 1601 21-12-2009 16:00:00 -0.64 C 3.63 g/m*3 -0.64 C 0 km/h
1602 21-12-2009 17:00:00 -0.86 C 3.72 g/m*3 -0.86 C 0 km/h
1603 21-12-2009 18:00:00 -0.4 C 3.9 g/m*3 -0.4 C 0 km/h
1604 21-12-2009 19:00:00 0.4 C 3.99 g/m*3 0.4 C 0 km/h
1605 21-12-2009 20:00:00 0.58 C 4.12 g/m*3 0.58 C 0 km/h
1606 21-12-2009 21:00:00 0.78 C 4.38 g/m*3 0.78 C 0 km/h
1607 21-12-2009 22:00:00 0.68 C 4.5 g/m*3 0.68 C 0 km/h
1608 21-12-2009 23:00:00 0.74 C 4.54 g/m*3 0.74 C 0 km/h
1609 22-12-2009 00:00:00 0.96 C 4.53 g/m*3 0.96 C 0 km/h
1610 22-12-2009 01:00:00 1.02 C 4.54 g/m*3 1.02 C 0 km/h
1611 22-12-2009 02:00:00 1.14 C 4.61 g/m*3 1.14 C 0 km/h
1612 22-12-2009 03:00:00 1.02 C 4.65 g/m*3 1.02 C 0 km/h
1613 22-12-2009 04:00:00 1.42 C 4.86 g/m*3 1.42 C 0 km/h
1614 22-12-2009 05:00:00 1.66 C 4.97 g/m*3 1.66 C 0 km/h
1615 22-12-2009 06:00:00 2.22 C 5.27 g/m*3 2.22 C 0 km/h
1616 22-12-2009 07:00:00 2.68 C 5.5 g/m*3 2.68 C 0 km/h
1617 22-12-2009 08:00:00 2.96 C 5.63 g/m*3 2.96 C 0 km/h
1618 22-12-2009 09:00:00 3.3 C 5.76 g/m*3 3.3 C 0 km/h
1619 22-12-2009 10:00:00 3.56 C 5.86 g/m*3 3.56 C 0 km/h
1620 22-12-2009 11:00:00 3.96 C 6.02 g/m*3 3.96 C 0 km/h
1621 22-12-2009 12:00:00 5.72 C 6.73 g/m*3 5.72 C 0 km/h
1622 22-12-2009 13:00:00 6.1 C 6.05 g/m*3 6.1 C 0 km/h
1623 22-12-2009 14:00:00 5.74 C 5.15 g/m*3 5.74 C 0 km/h
1624 22-12-2009 15:00:00 4.66 C 4.73 g/m*3 4.66 C 0 km/h
1625 22-12-2009 16:00:00 3.56 C 4.62 g/m*3 3.56 C 0 km/h
Sensor: Nr:Datum:Temp:Abs-Feuchte:Windchill:Wind:
Aussen-T/F 1626 22-12-2009 17:00:00 3.4 C 4.51 g/m*3 3.4 C 0 km/h
1627 22-12-2009 18:00:00 2.8 C 4.54 g/m*3 2.8 C 0 km/h
1628 22-12-2009 19:00:00 2.46 C 4.6 g/m*3 2.46 C 0 km/h
1629 22-12-2009 20:00:00 2.06 C 4.83 g/m*3 2.06 C 0 km/h
1630 22-12-2009 21:00:00 1.5 C 4.86 g/m*3 1.5 C 0 km/h
1631 22-12-2009 22:00:00 0.84 C 4.74 g/m*3 0.84 C 0 km/h
1632 22-12-2009 23:00:00 0.48 C 4.66 g/m*3 0.48 C 0 km/h
1633 23-12-2009 00:00:00 0.48 C 4.72 g/m*3 0.48 C 0 km/h
1634 23-12-2009 01:00:00 0.56 C 4.78 g/m*3 0.56 C 0 km/h
1635 23-12-2009 02:00:00 0.62 C 4.8 g/m*3 0.62 C 0 km/h
1636 23-12-2009 03:00:00 0.44 C 4.74 g/m*3 0.44 C 0 km/h
1637 23-12-2009 04:00:00 0.3 C 4.7 g/m*3 0.3 C 0 km/h
1638 23-12-2009 05:00:00 0.3 C 4.7 g/m*3 0.3 C 0 km/h
1639 23-12-2009 06:00:00 0.2 C 4.67 g/m*3 0.2 C 0 km/h
1640 23-12-2009 07:00:00 -0.16 C 4.55 g/m*3 -0.16 C 0 km/h
1641 23-12-2009 08:00:00 -1.28 C 4.21 g/m*3 -1.28 C 0 km/h
1642 23-12-2009 09:00:00 -0.88 C 4.33 g/m*3 -0.88 C 0 km/h
1643 23-12-2009 10:00:00 0.36 C 4.72 g/m*3 0.36 C 0 km/h
1644 23-12-2009 11:00:00 0.7 C 4.63 g/m*3 0.7 C 0 km/h
1645 23-12-2009 12:00:00 0.88 C 4.59 g/m*3 0.88 C 0 km/h
1646 23-12-2009 13:00:00 2.14 C 4.91 g/m*3 2.14 C 0 km/h
1647 23-12-2009 14:00:00 2 C 4.82 g/m*3 2 C 0 km/h
1648 23-12-2009 15:00:00 1.24 C 4.66 g/m*3 1.24 C 0 km/h
1649 23-12-2009 16:00:00 0.38 C 4.5 g/m*3 0.38 C 0 km/h
1650 23-12-2009 17:00:00 -0.36 C 4.38 g/m*3 -0.36 C 0 km/h
Sensor: Nr:Datum:Temp:Abs-Feuchte:Windchill:Wind:
Aussen-T/F 1651 23-12-2009 18:00:00 -0.56 C 4.36 g/m*3 -0.56 C 0 km/h
1652 23-12-2009 19:00:00 0.2 C 4.67 g/m*3 0.2 C 0 km/h
1653 23-12-2009 20:00:00 0.72 C 4.84 g/m*3 0.72 C 0 km/h
1654 23-12-2009 21:00:00 1.16 C 4.99 g/m*3 1.16 C 0 km/h
1655 23-12-2009 22:00:00 1.24 C 5.01 g/m*3 1.24 C 0 km/h
1656 23-12-2009 23:00:00 1.16 C 4.99 g/m*3 1.16 C 0 km/h
1657 24-12-2009 00:00:00 1.18 C 4.99 g/m*3 1.18 C 0 km/h
1658 24-12-2009 01:00:00 1.14 C 4.93 g/m*3 1.14 C 0 km/h
1659 24-12-2009 02:00:00 0.88 C 4.85 g/m*3 0.88 C 0 km/h
1660 24-12-2009 03:00:00 0.8 C 4.86 g/m*3 0.8 C 0 km/h
1661 24-12-2009 04:00:00 1.18 C 4.99 g/m*3 1.18 C 0 km/h
1662 24-12-2009 05:00:00 1.34 C 5.04 g/m*3 1.34 C 0 km/h
1663 24-12-2009 06:00:00 1.28 C 4.97 g/m*3 1.28 C 0 km/h
1664 24-12-2009 07:00:00 1.4 C 5.01 g/m*3 1.4 C 0 km/h
1665 24-12-2009 08:00:00 1.6 C 5.08 g/m*3 1.6 C 0 km/h
1666 24-12-2009 09:00:00 1.82 C 5.15 g/m*3 1.82 C 0 km/h
1667 24-12-2009 10:00:00 2.24 C 5.23 g/m*3 2.24 C 0 km/h
1668 24-12-2009 11:00:00 3.06 C 5.41 g/m*3 3.06 C 0 km/h
1669 24-12-2009 12:00:00 4.1 C 5.4 g/m*3 4.1 C 0 km/h
1670 24-12-2009 13:00:00 4.18 C 5.04 g/m*3 4.18 C 0 km/h
1671 24-12-2009 14:00:00 4.14 C 5.01 g/m*3 4.14 C 0 km/h
1672 24-12-2009 15:00:00 3.64 C 5.08 g/m*3 3.64 C 0 km/h
1673 24-12-2009 16:00:00 2.84 C 5.03 g/m*3 2.84 C 0 km/h
1674 24-12-2009 17:00:00 2.56 C 5.15 g/m*3 2.56 C 0 km/h
1675 24-12-2009 18:00:00 2.64 C 5.27 g/m*3 2.64 C 0 km/h
Sensor: Nr:Datum:Temp:Abs-Feuchte:Windchill:Wind:
Aussen-T/F 1676 24-12-2009 19:00:00 2.7 C 5.36 g/m*3 2.7 C 0 km/h
1677 24-12-2009 20:00:00 2.7 C 5.36 g/m*3 2.7 C 0 km/h
1678 24-12-2009 21:00:00 2.62 C 5.33 g/m*3 2.62 C 0 km/h
1679 24-12-2009 22:00:00 2.66 C 5.42 g/m*3 2.66 C 0 km/h
1680 24-12-2009 23:00:00 2.82 C 5.54 g/m*3 2.82 C 0 km/h
1681 25-12-2009 00:00:00 3.04 C 5.64 g/m*3 3.04 C 0 km/h
1682 25-12-2009 01:00:00 3.06 C 5.67 g/m*3 3.06 C 0 km/h
1683 25-12-2009 02:00:00 3.14 C 5.7 g/m*3 3.14 C 0 km/h
1684 25-12-2009 03:00:00 3.14 C 5.7 g/m*3 3.14 C 0 km/h
1685 25-12-2009 04:00:00 3.16 C 5.71 g/m*3 3.16 C 0 km/h
1686 25-12-2009 05:00:00 3.36 C 5.79 g/m*3 3.36 C 0 km/h
1687 25-12-2009 06:00:00 4.22 C 6.13 g/m*3 4.22 C 0 km/h
1688 25-12-2009 07:00:00 6.66 C 6.9 g/m*3 6.66 C 0 km/h
1689 25-12-2009 08:00:00 4.82 C 5.37 g/m*3 4.82 C 0 km/h
1690 25-12-2009 09:00:00 3.98 C 4.62 g/m*3 3.98 C 0 km/h
1691 25-12-2009 10:00:00 4.14 C 4.72 g/m*3 4.14 C 0 km/h
1692 25-12-2009 11:00:00 4.7 C 4.7 g/m*3 4.7 C 0 km/h
1693 25-12-2009 12:00:00 5.52 C 4.8 g/m*3 5.52 C 0 km/h
1694 25-12-2009 13:00:00 6.14 C 4.66 g/m*3 6.14 C 0 km/h
1695 25-12-2009 14:00:00 5.94 C 4.58 g/m*3 5.94 C 0 km/h
1696 25-12-2009 15:00:00 5.56 C 4.85 g/m*3 5.56 C 0 km/h
1697 25-12-2009 16:00:00 5.06 C 4.9 g/m*3 5.06 C 0 km/h
1698 25-12-2009 17:00:00 4.86 C 4.79 g/m*3 4.86 C 0 km/h
1699 25-12-2009 18:00:00 4.68 C 4.6 g/m*3 4.68 C 0 km/h
1700 25-12-2009 19:00:00 4.38 C 4.41 g/m*3 4.38 C 0 km/h
Sensor: Nr:Datum:Temp:Abs-Feuchte:Windchill:Wind:
Aussen-T/F 1701 25-12-2009 20:00:00 4.4 C 3.94 g/m*3 4.4 C 0 km/h
1702 25-12-2009 21:00:00 3.6 C 4.42 g/m*3 3.6 C 0 km/h
1703 25-12-2009 22:00:00 3.875 C 4.37 g/m*3 3.88 C 0 km/h
1704 25-12-2009 23:00:00 3.78 C 4.26 g/m*3 3.78 C 0 km/h
1705 26-12-2009 00:00:00 3.5 C 4.06 g/m*3 3.5 C 0 km/h
1706 26-12-2009 01:00:00 2.62 C 4.08 g/m*3 2.62 C 0 km/h
1707 26-12-2009 02:00:00 2.72 C 4.26 g/m*3 2.72 C 0 km/h
1708 26-12-2009 03:00:00 2.56 C 4.43 g/m*3 2.56 C 0 km/h
1709 26-12-2009 04:00:00 2.62 C 4.52 g/m*3 2.62 C 0 km/h
1710 26-12-2009 05:00:00 2.7 C 4.53 g/m*3 2.7 C 0 km/h
1711 26-12-2009 06:00:00 2.8 C 4.53 g/m*3 2.8 C 0 km/h
1712 26-12-2009 07:00:00 2.52 C 4.56 g/m*3 2.52 C 0 km/h
1713 26-12-2009 08:00:00 1.78 C 4.52 g/m*3 1.78 C 0 km/h
1714 26-12-2009 09:00:00 2.12 C 4.59 g/m*3 2.12 C 0 km/h
1715 26-12-2009 10:00:00 3.28 C 4.57 g/m*3 3.28 C 0 km/h
1716 26-12-2009 11:00:00 3.8 C 4.73 g/m*3 3.8 C 0 km/h
1717 26-12-2009 12:00:00 3.86 C 4.71 g/m*3 3.86 C 0 km/h
1718 26-12-2009 13:00:00 3.9 C 4.71 g/m*3 3.9 C 0 km/h
1719 26-12-2009 14:00:00 4.06 C 4.7 g/m*3 4.06 C 0 km/h
1720 26-12-2009 15:00:00 3.32 C 4.68 g/m*3 3.32 C 0 km/h
1721 26-12-2009 16:00:00 2.58 C 4.68 g/m*3 2.58 C 0 km/h
1722 26-12-2009 17:00:00 1.54 C 4.53 g/m*3 1.54 C 0 km/h
1723 26-12-2009 18:00:00 0.54 C 4.29 g/m*3 0.54 C 0 km/h
1724 26-12-2009 19:00:00 -0.02 C 4.26 g/m*3 -0.02 C 0 km/h
1725 26-12-2009 20:00:00 -0.56 C 4.17 g/m*3 -0.56 C 0 km/h
Sensor: Nr:Datum:Temp:Abs-Feuchte:Windchill:Wind:
Aussen-T/F 1726 26-12-2009 21:00:00 -0.8 C 4.17 g/m*3 -0.8 C 0 km/h
1727 26-12-2009 22:00:00 -1.02 C 4.13 g/m*3 -1.02 C 0 km/h
1728 26-12-2009 23:00:00 -1.32 C 4.07 g/m*3 -1.32 C 0 km/h
1729 27-12-2009 00:00:00 -1.78 C 3.94 g/m*3 -1.78 C 0 km/h
1730 27-12-2009 01:00:00 -2.06 C 3.86 g/m*3 -2.06 C 0 km/h
1731 27-12-2009 02:00:00 -2.1 C 3.88 g/m*3 -2.1 C 0 km/h
1732 27-12-2009 03:00:00 -2.24 C 3.85 g/m*3 -2.24 C 0 km/h
1733 27-12-2009 04:00:00 -2.72 C 3.73 g/m*3 -2.72 C 0 km/h
1734 27-12-2009 05:00:00 -2.76 C 3.75 g/m*3 -2.76 C 0 km/h
1735 27-12-2009 06:00:00 -2.94 C 3.71 g/m*3 -2.94 C 0 km/h
1736 27-12-2009 07:00:00 -3.16 C 3.65 g/m*3 -3.16 C 0 km/h
1737 27-12-2009 08:00:00 -2.74 C 3.77 g/m*3 -2.74 C 0 km/h
1738 27-12-2009 09:00:00 -1.52 C 4.14 g/m*3 -1.52 C 0 km/h
1739 27-12-2009 10:00:00 0.18 C 4.64 g/m*3 0.18 C 0 km/h
1740 27-12-2009 11:00:00 1.16 C 4.83 g/m*3 1.16 C 0 km/h
1741 27-12-2009 12:00:00 1.92 C 4.52 g/m*3 1.92 C 0 km/h
1742 27-12-2009 13:00:00 2.32 C 4.61 g/m*3 2.32 C 0 km/h
1743 27-12-2009 14:00:00 2.68 C 4.67 g/m*3 2.68 C 0 km/h
1744 27-12-2009 15:00:00 2.54 C 4.66 g/m*3 2.54 C 0 km/h
1745 27-12-2009 16:00:00 2.42 C 4.78 g/m*3 2.42 C 0 km/h
1746 27-12-2009 17:00:00 3.22 C 4.72 g/m*3 3.22 C 0 km/h
1747 27-12-2009 18:00:00 3.3 C 4.77 g/m*3 3.3 C 0 km/h
1748 27-12-2009 19:00:00 3.38 C 4.95 g/m*3 3.38 C 0 km/h
1749 27-12-2009 20:00:00 3.88 C 4.96 g/m*3 3.88 C 0 km/h
1750 27-12-2009 21:00:00 3.52 C 4.9 g/m*3 3.52 C 0 km/h
Sensor: Nr:Datum:Temp:Abs-Feuchte:Windchill:Wind:
Aussen-T/F 1751 27-12-2009 22:00:00 3.34 C 4.99 g/m*3 3.34 C 0 km/h
1752 27-12-2009 23:00:00 3.3 C 5.02 g/m*3 3.3 C 0 km/h
1753 28-12-2009 00:00:00 3.22 C 5.2 g/m*3 3.22 C 0 km/h
1754 28-12-2009 01:00:00 3.76 C 5.12 g/m*3 3.76 C 0 km/h
1755 28-12-2009 02:00:00 3.9 C 4.91 g/m*3 3.9 C 0 km/h
1756 28-12-2009 03:00:00 3.8 C 4.73 g/m*3 3.8 C 0 km/h
1757 28-12-2009 04:00:00 3.6 C 4.72 g/m*3 3.6 C 0 km/h
1758 28-12-2009 05:00:00 3.52 C 4.67 g/m*3 3.52 C 0 km/h
1759 28-12-2009 06:00:00 3.1 C 4.88 g/m*3 3.1 C 0 km/h
1760 28-12-2009 07:00:00 3.22 C 4.83 g/m*3 3.22 C 0 km/h
1761 28-12-2009 08:00:00 3.42 C 4.76 g/m*3 3.42 C 0 km/h
1762 28-12-2009 09:00:00 3.64 C 4.56 g/m*3 3.64 C 0 km/h
1763 28-12-2009 10:00:00 3.88 C 4.36 g/m*3 3.88 C 0 km/h
1764 28-12-2009 11:00:00 3.88 C 4.29 g/m*3 3.88 C 0 km/h
1765 28-12-2009 12:00:00 4.74 C 4.41 g/m*3 4.74 C 0 km/h
1766 28-12-2009 13:00:00 5 C 4.28 g/m*3 5 C 0 km/h
1767 28-12-2009 14:00:00 4.76 C 4.19 g/m*3 4.76 C 0 km/h
1768 28-12-2009 15:00:00 4.52 C 4.23 g/m*3 4.52 C 0 km/h
1769 28-12-2009 16:00:00 4.26 C 4.17 g/m*3 4.26 C 0 km/h
1770 28-12-2009 17:00:00 3.72 C 4.36 g/m*3 3.72 C 0 km/h
1771 28-12-2009 18:00:00 3.38 C 4.4 g/m*3 3.38 C 0 km/h
1772 28-12-2009 19:00:00 2.8 C 4.32 g/m*3 2.8 C 0 km/h
1773 28-12-2009 20:00:00 1.06 C 4.16 g/m*3 1.06 C 0 km/h
1774 28-12-2009 21:00:00 0.2 C 4.12 g/m*3 0.2 C 0 km/h
1775 28-12-2009 22:00:00 -0.7 C 3.9 g/m*3 -0.7 C 0 km/h
Sensor: Nr:Datum:Temp:Abs-Feuchte:Windchill:Wind:
Aussen-T/F 1776 28-12-2009 23:00:00 -1.26 C 3.84 g/m*3 -1.26 C 0 km/h
1777 29-12-2009 00:00:00 -1.94 C 3.7 g/m*3 -1.94 C 0 km/h
1778 29-12-2009 01:00:00 -2.12 C 3.69 g/m*3 -2.12 C 0 km/h
1779 29-12-2009 02:00:00 -2.24 C 3.7 g/m*3 -2.24 C 0 km/h
1780 29-12-2009 03:00:00 -2.16 C 3.76 g/m*3 -2.16 C 0 km/h
1781 29-12-2009 04:00:00 -2.56 C 3.67 g/m*3 -2.56 C 0 km/h
1782 29-12-2009 05:00:00 -2.78 C 3.65 g/m*3 -2.78 C 0 km/h
1783 29-12-2009 06:00:00 -2.52 C 3.75 g/m*3 -2.52 C 0 km/h
1784 29-12-2009 07:00:00 -1.38 C 4.14 g/m*3 -1.38 C 0 km/h
1785 29-12-2009 08:00:00 -0.86 C 4.3 g/m*3 -0.86 C 0 km/h
1786 29-12-2009 09:00:00 0.08 C 4.62 g/m*3 0.08 C 0 km/h
1787 29-12-2009 10:00:00 1 C 4.83 g/m*3 1 C 0 km/h
1788 29-12-2009 11:00:00 1.86 C 4.9 g/m*3 1.86 C 0 km/h
1789 29-12-2009 12:00:00 2.28 C 4.84 g/m*3 2.28 C 0 km/h
1790 29-12-2009 13:00:00 2.06 C 4.93 g/m*3 2.06 C 0 km/h
1791 29-12-2009 14:00:00 1.84 C 5 g/m*3 1.84 C 0 km/h
1792 29-12-2009 15:00:00 1.94 C 5.11 g/m*3 1.94 C 0 km/h
1793 29-12-2009 16:00:00 1.86 C 5.15 g/m*3 1.86 C 0 km/h
1794 29-12-2009 17:00:00 2.02 C 5.26 g/m*3 2.02 C 0 km/h
1795 29-12-2009 18:00:00 2.22 C 5.36 g/m*3 2.22 C 0 km/h
1796 29-12-2009 19:00:00 2.38 C 5.42 g/m*3 2.38 C 0 km/h
1797 29-12-2009 20:00:00 2.4 C 5.42 g/m*3 2.4 C 0 km/h
1798 29-12-2009 21:00:00 2.48 C 5.45 g/m*3 2.48 C 0 km/h
1799 29-12-2009 22:00:00 2.52 C 5.47 g/m*3 2.52 C 0 km/h
1800 29-12-2009 23:00:00 2.72 C 5.54 g/m*3 2.72 C 0 km/h
Sensor: Nr:Datum:Temp:Abs-Feuchte:Windchill:Wind:
Aussen-T/F 1801 30-12-2009 00:00:00 3.3 C 5.76 g/m*3 3.3 C 0 km/h
1802 30-12-2009 01:00:00 3.14 C 5.7 g/m*3 3.14 C 0 km/h
1803 30-12-2009 02:00:00 3.34 C 5.78 g/m*3 3.34 C 0 km/h
1804 30-12-2009 03:00:00 4.82 C 6.38 g/m*3 4.82 C 0 km/h
1805 30-12-2009 04:00:00 4.84 C 6.39 g/m*3 4.84 C 0 km/h
1806 30-12-2009 05:00:00 5.04 C 6.47 g/m*3 5.04 C 0 km/h
1807 30-12-2009 06:00:00 5.32 C 6.59 g/m*3 5.32 C 0 km/h
1808 30-12-2009 07:00:00 6.12 C 6.95 g/m*3 6.12 C 0 km/h
1809 30-12-2009 08:00:00 6.1 C 6.94 g/m*3 6.1 C 0 km/h
1810 30-12-2009 09:00:00 7.02 C 7.37 g/m*3 7.02 C 0 km/h
1811 30-12-2009 10:00:00 7.48 C 7.59 g/m*3 7.48 C 0 km/h
1812 30-12-2009 11:00:00 7.8 C 7.75 g/m*3 7.8 C 0 km/h
1813 30-12-2009 12:00:00 8.06 C 7.88 g/m*3 8.06 C 0 km/h
1814 30-12-2009 13:00:00 9.2 C 8.48 g/m*3 9.2 C 0 km/h
1815 30-12-2009 14:00:00 9.38 C 8.58 g/m*3 9.38 C 0 km/h
1816 30-12-2009 15:00:00 9.28 C 8.53 g/m*3 9.28 C 0 km/h
1817 30-12-2009 16:00:00 9.1 C 8.43 g/m*3 9.1 C 0 km/h
1818 30-12-2009 17:00:00 8.62 C 8.14 g/m*3 8.62 C 0 km/h
1819 30-12-2009 18:00:00 8.46 C 7.99 g/m*3 8.46 C 0 km/h
1820 30-12-2009 19:00:00 8.54 C 7.84 g/m*3 8.54 C 0 km/h
1821 30-12-2009 20:00:00 8.8 C 7.62 g/m*3 8.8 C 0 km/h
1822 30-12-2009 21:00:00 8.52 C 7.52 g/m*3 8.52 C 0 km/h
1823 30-12-2009 22:00:00 8.78 C 7.41 g/m*3 8.78 C 0 km/h
1824 30-12-2009 23:00:00 8.3 C 7.42 g/m*3 8.3 C 0 km/h
1825 31-12-2009 00:00:00 7.76 C 7.57 g/m*3 7.76 C 0 km/h
Sensor: Nr:Datum:Temp:Abs-Feuchte:Windchill:Wind:
Aussen-T/F 1826 31-12-2009 01:00:00 7.6 C 7.62 g/m*3 7.6 C 0 km/h
1827 31-12-2009 02:00:00 7.52 C 7.61 g/m*3 7.52 C 0 km/h
1828 31-12-2009 03:00:00 7.52 C 7.61 g/m*3 7.52 C 0 km/h
1829 31-12-2009 04:00:00 7.08 C 7.4 g/m*3 7.08 C 0 km/h
1830 31-12-2009 05:00:00 7.04 C 7.38 g/m*3 7.04 C 0 km/h
1831 31-12-2009 06:00:00 6.7 C 7.22 g/m*3 6.7 C 0 km/h
1832 31-12-2009 07:00:00 6.64 C 7.19 g/m*3 6.64 C 0 km/h
1833 31-12-2009 08:00:00 6.6 C 7.17 g/m*3 6.6 C 0 km/h
1834 31-12-2009 09:00:00 6.66 C 7.2 g/m*3 6.66 C 0 km/h
1835 31-12-2009 10:00:00 6.92 C 7.32 g/m*3 6.92 C 0 km/h
1836 31-12-2009 11:00:00 7.46 C 7.58 g/m*3 7.46 C 0 km/h
1837 31-12-2009 12:00:00 7.36 C 7.54 g/m*3 7.36 C 0 km/h
1838 31-12-2009 13:00:00 7.1 C 7.41 g/m*3 7.1 C 0 km/h
1839 31-12-2009 14:00:00 6.3 C 7.03 g/m*3 6.3 C 0 km/h
1840 31-12-2009 15:00:00 5.24 C 6.56 g/m*3 5.24 C 0 km/h
1841 31-12-2009 16:00:00 3.7 C 5.92 g/m*3 3.7 C 0 km/h
1842 31-12-2009 17:00:00 2.9 C 5.55 g/m*3 2.9 C 0 km/h
1843 31-12-2009 18:00:00 2.7 C 5.51 g/m*3 2.7 C 0 km/h
1844 31-12-2009 19:00:00 2.2 C 5.35 g/m*3 2.2 C 0 km/h
1845 31-12-2009 20:00:00 1.82 C 5.21 g/m*3 1.82 C 0 km/h
1846 31-12-2009 21:00:00 1.38 C 5.06 g/m*3 1.38 C 0 km/h
1847 31-12-2009 22:00:00 1 C 4.93 g/m*3 1 C 0 km/h
1848 31-12-2009 23:00:00 0.64 C 4.81 g/m*3 0.64 C 0 km/h
1849 01-01-2010 00:00:00 0.8 C 4.86 g/m*3 0.8 C 0 km/h
1850 01-01-2010 01:00:00 0.52 C 4.77 g/m*3 0.52 C 0 km/h
Sensor: Nr:Datum:Temp:Abs-Feuchte:Windchill:Wind:
Aussen-T/F 1851 01-01-2010 02:00:00 0.34 C 4.71 g/m*3 0.34 C 0 km/h
1852 01-01-2010 03:00:00 0.3 C 4.7 g/m*3 0.3 C 0 km/h
1853 01-01-2010 04:00:00 0.26 C 4.69 g/m*3 0.26 C 0 km/h
1854 01-01-2010 05:00:00 0.2 C 4.67 g/m*3 0.2 C 0 km/h
1855 01-01-2010 06:00:00 0.12 C 4.64 g/m*3 0.12 C 0 km/h
1856 01-01-2010 07:00:00 0.1 C 4.62 g/m*3 0.1 C 0 km/h
1857 01-01-2010 08:00:00 0.12 C 4.59 g/m*3 0.12 C 0 km/h
1858 01-01-2010 09:00:00 -0.06 C 4.54 g/m*3 -0.06 C 0 km/h
1859 01-01-2010 10:00:00 -0.14 C 4.5 g/m*3 -0.14 C 0 km/h
1860 01-01-2010 11:00:00 -0.16 C 4.42 g/m*3 -0.16 C 0 km/h
1861 01-01-2010 12:00:00 -0.18 C 4.34 g/m*3 -0.18 C 0 km/h
1862 01-01-2010 13:00:00 -0.28 C 4.28 g/m*3 -0.28 C 0 km/h
1863 01-01-2010 14:00:00 -0.24 C 4.28 g/m*3 -0.24 C 0 km/h
1864 01-01-2010 15:00:00 -0.2 C 4.26 g/m*3 -0.2 C 0 km/h
1865 01-01-2010 16:00:00 -0.28 C 4.3 g/m*3 -0.28 C 0 km/h
1866 01-01-2010 17:00:00 -0.46 C 4.27 g/m*3 -0.46 C 0 km/h
1867 01-01-2010 18:00:00 -0.64 C 4.23 g/m*3 -0.64 C 0 km/h
1868 01-01-2010 19:00:00 -0.82 C 4.14 g/m*3 -0.82 C 0 km/h
1869 01-01-2010 20:00:00 -0.76 C 3.97 g/m*3 -0.76 C 0 km/h
1870 01-01-2010 21:00:00 -0.8 C 3.89 g/m*3 -0.8 C 0 km/h
1871 01-01-2010 22:00:00 -0.88 C 3.83 g/m*3 -0.88 C 0 km/h
1872 01-01-2010 23:00:00 -1 C 3.84 g/m*3 -1 C 0 km/h
1873 02-01-2010 00:00:00 -1.12 C 3.73 g/m*3 -1.12 C 0 km/h
1874 02-01-2010 01:00:00 -1.38 C 3.61 g/m*3 -1.38 C 0 km/h
1875 02-01-2010 02:00:00 -1.48 C 3.51 g/m*3 -1.48 C 0 km/h
Sensor: Nr:Datum:Temp:Abs-Feuchte:Windchill:Wind:
Aussen-T/F 1876 02-01-2010 03:00:00 -1.78 C 3.33 g/m*3 -1.78 C 0 km/h
1877 02-01-2010 04:00:00 -2.06 C 3.22 g/m*3 -2.06 C 0 km/h
1878 02-01-2010 05:00:00 -2.2 C 3.3 g/m*3 -2.2 C 0 km/h
1879 02-01-2010 06:00:00 -2.38 C 3.06 g/m*3 -2.38 C 0 km/h
1880 02-01-2010 07:00:00 -2.62 C 2.75 g/m*3 -2.62 C 0 km/h
1881 02-01-2010 08:00:00 -3.32 C 2.76 g/m*3 -3.32 C 0 km/h
1882 02-01-2010 09:00:00 -3.74 C 2.9 g/m*3 -3.74 C 0 km/h
1883 02-01-2010 10:00:00 -3.4 C 2.98 g/m*3 -3.4 C 0 km/h
1884 02-01-2010 11:00:00 -2.92 C 3.06 g/m*3 -2.92 C 0 km/h
1885 02-01-2010 12:00:00 -1.98 C 3.22 g/m*3 -1.98 C 0 km/h
1886 02-01-2010 13:00:00 -1.58 C 3.34 g/m*3 -1.58 C 0 km/h
1887 02-01-2010 14:00:00 -0.82 C 3.34 g/m*3 -0.82 C 0 km/h
1888 02-01-2010 15:00:00 -1.22 C 3.41 g/m*3 -1.22 C 0 km/h
1889 02-01-2010 16:00:00 -0.56 C 3.51 g/m*3 -0.56 C 0 km/h
1890 02-01-2010 17:00:00 -0.46 C 3.51 g/m*3 -0.46 C 0 km/h
1891 02-01-2010 18:00:00 -0.36 C 3.54 g/m*3 -0.36 C 0 km/h
1892 02-01-2010 19:00:00 -0.2 C 3.6 g/m*3 -0.2 C 0 km/h
1893 02-01-2010 20:00:00 -0.12 C 3.68 g/m*3 -0.12 C 0 km/h
1894 02-01-2010 21:00:00 -0.1 C 3.68 g/m*3 -0.1 C 0 km/h
1895 02-01-2010 22:00:00 -0.14 C 3.65 g/m*3 -0.14 C 0 km/h
1896 02-01-2010 23:00:00 -0.32 C 3.66 g/m*3 -0.32 C 0 km/h
1897 03-01-2010 00:00:00 -0.42 C 3.68 g/m*3 -0.42 C 0 km/h
1898 03-01-2010 01:00:00 -0.16 C 3.76 g/m*3 -0.16 C 0 km/h
1899 03-01-2010 02:00:00 -0.06 C 3.69 g/m*3 -0.06 C 0 km/h
1900 03-01-2010 03:00:00 -0.5 C 3.58 g/m*3 -0.5 C 0 km/h
Sensor: Nr:Datum:Temp:Abs-Feuchte:Windchill:Wind:
Aussen-T/F 1901 03-01-2010 04:00:00 -0.24 C 4 g/m*3 -0.24 C 0 km/h
1902 03-01-2010 05:00:00 0.18 C 4.07 g/m*3 0.18 C 0 km/h
1903 03-01-2010 06:00:00 -0.02 C 4.34 g/m*3 -0.02 C 0 km/h
1904 03-01-2010 07:00:00 0.24 C 4.43 g/m*3 0.24 C 0 km/h
1905 03-01-2010 08:00:00 0.3 C 4.49 g/m*3 0.3 C 0 km/h
1906 03-01-2010 09:00:00 0.34 C 4.55 g/m*3 0.34 C 0 km/h
1907 03-01-2010 10:00:00 0.58 C 4.51 g/m*3 0.58 C 0 km/h
1908 03-01-2010 11:00:00 0.06 C 4.06 g/m*3 0.06 C 0 km/h
1909 03-01-2010 12:00:00 -1.32 C 3.62 g/m*3 -1.32 C 0 km/h
1910 03-01-2010 13:00:00 -2.14 C 3.4 g/m*3 -2.14 C 0 km/h
1911 03-01-2010 14:00:00 -2.38 C 3.21 g/m*3 -2.38 C 0 km/h
1912 03-01-2010 15:00:00 -2.76 C 2.95 g/m*3 -2.76 C 0 km/h
1913 03-01-2010 16:00:00 -3.8 C 2.69 g/m*3 -3.8 C 0 km/h
1914 03-01-2010 17:00:00 -4.54 C 2.63 g/m*3 -4.54 C 0 km/h
1915 03-01-2010 18:00:00 -4.52 C 2.69 g/m*3 -4.52 C 0 km/h
1916 03-01-2010 19:00:00 -4.42 C 2.74 g/m*3 -4.42 C 0 km/h
1917 03-01-2010 20:00:00 -4.3 C 2.79 g/m*3 -4.3 C 0 km/h
1918 03-01-2010 21:00:00 -4.26 C 2.79 g/m*3 -4.26 C 0 km/h
1919 03-01-2010 22:00:00 -4.44 C 2.74 g/m*3 -4.44 C 0 km/h
1920 03-01-2010 23:00:00 -4.54 C 2.75 g/m*3 -4.54 C 0 km/h
1921 04-01-2010 00:00:00 -4.38 C 2.8 g/m*3 -4.38 C 0 km/h
1922 04-01-2010 01:00:00 -4.36 C 2.77 g/m*3 -4.36 C 0 km/h
1923 04-01-2010 02:00:00 -4.3 C 2.71 g/m*3 -4.3 C 0 km/h
1924 04-01-2010 03:00:00 -4.34 C 2.56 g/m*3 -4.34 C 0 km/h
1925 04-01-2010 04:00:00 -4.3 C 2.58 g/m*3 -4.3 C 0 km/h
Sensor: Nr:Datum:Temp:Abs-Feuchte:Windchill:Wind:
Aussen-T/F 1926 04-01-2010 05:00:00 -4.28 C 2.6 g/m*3 -4.28 C 0 km/h
1927 04-01-2010 06:00:00 -4.36 C 2.68 g/m*3 -4.36 C 0 km/h
1928 04-01-2010 07:00:00 -4.38 C 2.64 g/m*3 -4.38 C 0 km/h
1929 04-01-2010 08:00:00 -4.4 C 2.57 g/m*3 -4.4 C 0 km/h
1930 04-01-2010 09:00:00 -4.24 C 2.57 g/m*3 -4.24 C 0 km/h
1931 04-01-2010 10:00:00 -3.74 C 2.59 g/m*3 -3.74 C 0 km/h
1932 04-01-2010 11:00:00 -3.08 C 2.55 g/m*3 -3.08 C 0 km/h
1933 04-01-2010 12:00:00 -3.46 C 2.3 g/m*3 -3.46 C 0 km/h
1934 04-01-2010 13:00:00 -3.9 C 2.34 g/m*3 -3.9 C 0 km/h
1935 04-01-2010 14:00:00 -3.38 C 2.3 g/m*3 -3.38 C 0 km/h
1936 04-01-2010 15:00:00 -4.26 C 2.21 g/m*3 -4.26 C 0 km/h
1937 04-01-2010 16:00:00 -5.44 C 2.18 g/m*3 -5.44 C 0 km/h
1938 04-01-2010 17:00:00 -6.38 C 2.18 g/m*3 -6.38 C 0 km/h
1939 04-01-2010 18:00:00 -6.9 C 2.19 g/m*3 -6.9 C 0 km/h
1940 04-01-2010 19:00:00 -7.42 C 2.18 g/m*3 -7.42 C 0 km/h
1941 04-01-2010 20:00:00 -7.88 C 2.16 g/m*3 -7.88 C 0 km/h
1942 04-01-2010 21:00:00 -8.54 C 2.09 g/m*3 -8.54 C 0 km/h
1943 04-01-2010 22:00:00 -8.84 C 2.08 g/m*3 -8.84 C 0 km/h
1944 04-01-2010 23:00:00 -9.22 C 2.02 g/m*3 -9.22 C 0 km/h
1945 05-01-2010 00:00:00 -9.56 C 1.98 g/m*3 -9.56 C 0 km/h
1946 05-01-2010 01:00:00 -9.8 C 1.96 g/m*3 -9.8 C 0 km/h
1947 05-01-2010 02:00:00 -10.1 C 1.92 g/m*3 -10.1 C 0 km/h
1948 05-01-2010 03:00:00 -10.2 C 1.9 g/m*3 -10.2 C 0 km/h
1949 05-01-2010 04:00:00 -10.08 C 1.92 g/m*3 -10.08 C 0 km/h
1950 05-01-2010 05:00:00 -8.58 C 2.19 g/m*3 -8.58 C 0 km/h
Sensor: Nr:Datum:Temp:Abs-Feuchte:Windchill:Wind:
Aussen-T/F 1951 05-01-2010 06:00:00 -8.12 C 2.22 g/m*3 -8.12 C 0 km/h
1952 05-01-2010 07:00:00 -8.88 C 2.06 g/m*3 -8.88 C 0 km/h
1953 05-01-2010 08:00:00 -8.98 C 2.06 g/m*3 -8.98 C 0 km/h
1954 05-01-2010 09:00:00 -8.96 C 2.06 g/m*3 -8.96 C 0 km/h
1955 05-01-2010 10:00:00 -8.4 C 2.16 g/m*3 -8.4 C 0 km/h
1956 05-01-2010 11:00:00 -7.92 C 2.23 g/m*3 -7.92 C 0 km/h
1957 05-01-2010 12:00:00 -7.18 C 2.35 g/m*3 -7.18 C 0 km/h
1958 05-01-2010 13:00:00 -6.5 C 2.45 g/m*3 -6.5 C 0 km/h
1959 05-01-2010 14:00:00 -5.88 C 2.53 g/m*3 -5.88 C 0 km/h
1960 05-01-2010 15:00:00 -5.6 C 2.53 g/m*3 -5.6 C 0 km/h
1961 05-01-2010 16:00:00 -5.88 C 2.51 g/m*3 -5.88 C 0 km/h
1962 05-01-2010 17:00:00 -6.62 C 2.42 g/m*3 -6.62 C 0 km/h
1963 05-01-2010 18:00:00 -7.22 C 2.35 g/m*3 -7.22 C 0 km/h
1964 05-01-2010 19:00:00 -7.28 C 2.36 g/m*3 -7.28 C 0 km/h
1965 05-01-2010 20:00:00 -7.24 C 2.4 g/m*3 -7.24 C 0 km/h
1966 05-01-2010 21:00:00 -7.1 C 2.43 g/m*3 -7.1 C 0 km/h
1967 05-01-2010 22:00:00 -7.76 C 2.28 g/m*3 -7.76 C 0 km/h
1968 05-01-2010 23:00:00 -8.18 C 2.23 g/m*3 -8.18 C 0 km/h
1969 06-01-2010 00:00:00 -8.56 C 2.17 g/m*3 -8.56 C 0 km/h
1970 06-01-2010 01:00:00 -9.02 C 2.1 g/m*3 -9.02 C 0 km/h
1971 06-01-2010 02:00:00 -9.34 C 2.05 g/m*3 -9.34 C 0 km/h
1972 06-01-2010 03:00:00 -9.5 C 2.02 g/m*3 -9.5 C 0 km/h
1973 06-01-2010 04:00:00 -9.76 C 1.97 g/m*3 -9.76 C 0 km/h
1974 06-01-2010 05:00:00 -9.9 C 1.95 g/m*3 -9.9 C 0 km/h
1975 06-01-2010 06:00:00 -10.08 C 1.92 g/m*3 -10.08 C 0 km/h
Sensor: Nr:Datum:Temp:Abs-Feuchte:Windchill:Wind:
Aussen-T/F 1976 06-01-2010 07:00:00 -10.3 C 1.87 g/m*3 -10.3 C 0 km/h
1977 06-01-2010 08:00:00 -9.44 C 1.98 g/m*3 -9.44 C 0 km/h
1978 06-01-2010 09:00:00 -8.9 C 2 g/m*3 -8.9 C 0 km/h
1979 06-01-2010 10:00:00 -7.88 C 2.09 g/m*3 -7.88 C 0 km/h
1980 06-01-2010 11:00:00 -6.76 C 2.19 g/m*3 -6.76 C 0 km/h
1981 06-01-2010 12:00:00 -6.16 C 2.28 g/m*3 -6.16 C 0 km/h
1982 06-01-2010 13:00:00 -5.2 C 2.4 g/m*3 -5.2 C 0 km/h
1983 06-01-2010 14:00:00 -4.34 C 2.51 g/m*3 -4.34 C 0 km/h
1984 06-01-2010 15:00:00 -3.98 C 2.55 g/m*3 -3.98 C 0 km/h
1985 06-01-2010 16:00:00 -4.12 C 2.6 g/m*3 -4.12 C 0 km/h
1986 06-01-2010 17:00:00 -4.28 C 2.65 g/m*3 -4.28 C 0 km/h
1987 06-01-2010 18:00:00 -4.36 C 2.67 g/m*3 -4.36 C 0 km/h
1988 06-01-2010 19:00:00 -4.42 C 2.69 g/m*3 -4.42 C 0 km/h
1989 06-01-2010 20:00:00 -4.28 C 2.67 g/m*3 -4.28 C 0 km/h
1990 06-01-2010 21:00:00 -4.5 C 2.39 g/m*3 -4.5 C 0 km/h
1991 06-01-2010 22:00:00 -4.98 C 2.22 g/m*3 -4.98 C 0 km/h
1992 06-01-2010 23:00:00 -5.28 C 2.29 g/m*3 -5.28 C 0 km/h
1993 07-01-2010 00:00:00 -5.26 C 2.37 g/m*3 -5.26 C 0 km/h
1994 07-01-2010 01:00:00 -5.2 C 2.38 g/m*3 -5.2 C 0 km/h
1995 07-01-2010 02:00:00 -5.8 C 2.31 g/m*3 -5.8 C 0 km/h
1996 07-01-2010 03:00:00 -5.92 C 2.36 g/m*3 -5.92 C 0 km/h
1997 07-01-2010 04:00:00 -5.42 C 2.49 g/m*3 -5.42 C 0 km/h
1998 07-01-2010 05:00:00 -5.1 C 2.57 g/m*3 -5.1 C 0 km/h
1999 07-01-2010 06:00:00 -4.96 C 2.6 g/m*3 -4.96 C 0 km/h
2000 07-01-2010 07:00:00 -4.96 C 2.63 g/m*3 -4.96 C 0 km/h
Sensor: Nr:Datum:Temp:Abs-Feuchte:Windchill:Wind:
Aussen-T/F 2001 07-01-2010 08:00:00 -4.78 C 2.7 g/m*3 -4.78 C 0 km/h
2002 07-01-2010 09:00:00 -4.46 C 2.77 g/m*3 -4.46 C 0 km/h
2003 07-01-2010 10:00:00 -3.5 C 2.9 g/m*3 -3.5 C 0 km/h
2004 07-01-2010 11:00:00 -2.86 C 2.88 g/m*3 -2.86 C 0 km/h
2005 07-01-2010 12:00:00 -1.98 C 2.99 g/m*3 -1.98 C 0 km/h
2006 07-01-2010 13:00:00 -1.28 C 3.09 g/m*3 -1.28 C 0 km/h
2007 07-01-2010 14:00:00 -1.3 C 3.03 g/m*3 -1.3 C 0 km/h
2008 07-01-2010 15:00:00 -1.7 C 3.02 g/m*3 -1.7 C 0 km/h
2009 07-01-2010 16:00:00 -2.16 C 3.08 g/m*3 -2.16 C 0 km/h
2010 07-01-2010 17:00:00 -2.6 C 3.12 g/m*3 -2.6 C 0 km/h
2011 07-01-2010 18:00:00 -3.08 C 3.07 g/m*3 -3.08 C 0 km/h
2012 07-01-2010 19:00:00 -3.24 C 3.03 g/m*3 -3.24 C 0 km/h
2013 07-01-2010 20:00:00 -3.52 C 3.02 g/m*3 -3.52 C 0 km/h
2014 07-01-2010 21:00:00 -3.32 C 3.06 g/m*3 -3.32 C 0 km/h
2015 07-01-2010 22:00:00 -3.66 C 2.93 g/m*3 -3.66 C 0 km/h
2016 07-01-2010 23:00:00 -4.275 C 2.82 g/m*3 -4.28 C 0 km/h
2017 08-01-2010 00:00:00 -4.24 C 2.87 g/m*3 -4.24 C 0 km/h
2018 08-01-2010 01:00:00 -4.62 C 2.8 g/m*3 -4.62 C 0 km/h
2019 08-01-2010 02:00:00 -5.32 C 2.67 g/m*3 -5.32 C 0 km/h
2020 08-01-2010 03:00:00 -5.56 C 2.67 g/m*3 -5.56 C 0 km/h
2021 08-01-2010 04:00:00 -5.5 C 2.7 g/m*3 -5.5 C 0 km/h
2022 08-01-2010 05:00:00 -6.22 C 2.54 g/m*3 -6.22 C 0 km/h
2023 08-01-2010 06:00:00 -6.8 C 2.44 g/m*3 -6.8 C 0 km/h
2024 08-01-2010 07:00:00 -7.6 C 2.29 g/m*3 -7.6 C 0 km/h
2025 08-01-2010 08:00:00 -8 C 2.22 g/m*3 -8 C 0 km/h
Sensor: Nr:Datum:Temp:Abs-Feuchte:Windchill:Wind:
Aussen-T/F 2026 08-01-2010 09:00:00 -8.14 C 2.19 g/m*3 -8.14 C 0 km/h
2027 08-01-2010 10:00:00 -6.36 C 2.5 g/m*3 -6.36 C 0 km/h
2028 08-01-2010 11:00:00 -5.26 C 2.47 g/m*3 -5.26 C 0 km/h
2029 08-01-2010 12:00:00 -4.74 C 2.43 g/m*3 -4.74 C 0 km/h
2030 08-01-2010 13:00:00 -4.84 C 2.37 g/m*3 -4.84 C 0 km/h
2031 08-01-2010 14:00:00 -3.72 C 2.61 g/m*3 -3.72 C 0 km/h
2032 08-01-2010 15:00:00 -3.08 C 2.66 g/m*3 -3.08 C 0 km/h
2033 08-01-2010 16:00:00 -2.74 C 2.57 g/m*3 -2.74 C 0 km/h
2034 08-01-2010 17:00:00 -2.82 C 2.55 g/m*3 -2.82 C 0 km/h
2035 08-01-2010 18:00:00 -3.02 C 2.47 g/m*3 -3.02 C 0 km/h
2036 08-01-2010 19:00:00 -3.2 C 2.42 g/m*3 -3.2 C 0 km/h
2037 08-01-2010 20:00:00 -3.3 C 2.4 g/m*3 -3.3 C 0 km/h
2038 08-01-2010 21:00:00 -3.42 C 2.52 g/m*3 -3.42 C 0 km/h
2039 08-01-2010 22:00:00 -3.46 C 2.59 g/m*3 -3.46 C 0 km/h
2040 08-01-2010 23:00:00 -3.76 C 2.76 g/m*3 -3.76 C 0 km/h
2041 09-01-2010 00:00:00 -3.92 C 2.89 g/m*3 -3.92 C 0 km/h
2042 09-01-2010 01:00:00 -3.94 C 2.88 g/m*3 -3.94 C 0 km/h
2043 09-01-2010 02:00:00 -3.78 C 2.67 g/m*3 -3.78 C 0 km/h
2044 09-01-2010 03:00:00 -3.72 C 2.57 g/m*3 -3.72 C 0 km/h
2045 09-01-2010 04:00:00 -4.02 C 2.71 g/m*3 -4.02 C 0 km/h
2046 09-01-2010 05:00:00 -4.1 C 2.93 g/m*3 -4.1 C 0 km/h
2047 09-01-2010 06:00:00 -4.04 C 3.06 g/m*3 -4.04 C 0 km/h
2048 09-01-2010 07:00:00 -3.78 C 3.18 g/m*3 -3.78 C 0 km/h
2049 09-01-2010 08:00:00 -3.42 C 3.3 g/m*3 -3.42 C 0 km/h
2050 09-01-2010 09:00:00 -2.9 C 3.46 g/m*3 -2.9 C 0 km/h
Sensor: Nr:Datum:Temp:Abs-Feuchte:Windchill:Wind:
Aussen-T/F 2051 09-01-2010 10:00:00 -2.06 C 3.63 g/m*3 -2.06 C 0 km/h
2052 09-01-2010 11:00:00 -1.84 C 3.55 g/m*3 -1.84 C 0 km/h
2053 09-01-2010 12:00:00 -1.94 C 3.35 g/m*3 -1.94 C 0 km/h
2054 09-01-2010 13:00:00 -1.78 C 3.09 g/m*3 -1.78 C 0 km/h
2055 09-01-2010 14:00:00 -1.68 C 3.03 g/m*3 -1.68 C 0 km/h
2056 09-01-2010 15:00:00 -1.7 C 2.98 g/m*3 -1.7 C 0 km/h
2057 09-01-2010 16:00:00 -1.74 C 2.98 g/m*3 -1.74 C 0 km/h
2058 09-01-2010 17:00:00 -1.8 C 2.95 g/m*3 -1.8 C 0 km/h
2059 09-01-2010 18:00:00 -1.86 C 2.99 g/m*3 -1.86 C 0 km/h
2060 09-01-2010 19:00:00 -1.86 C 2.97 g/m*3 -1.86 C 0 km/h
2061 09-01-2010 20:00:00 -1.88 C 2.97 g/m*3 -1.88 C 0 km/h
2062 09-01-2010 21:00:00 -1.92 C 2.96 g/m*3 -1.92 C 0 km/h
2063 09-01-2010 22:00:00 -2 C 2.99 g/m*3 -2 C 0 km/h
2064 09-01-2010 23:00:00 -2.04 C 3.03 g/m*3 -2.04 C 0 km/h
2065 10-01-2010 00:00:00 -2.1 C 3.01 g/m*3 -2.1 C 0 km/h
2066 10-01-2010 01:00:00 -2.18 C 3 g/m*3 -2.18 C 0 km/h
2067 10-01-2010 02:00:00 -2.38 C 3 g/m*3 -2.38 C 0 km/h
2068 10-01-2010 03:00:00 -2.48 C 3.03 g/m*3 -2.48 C 0 km/h
2069 10-01-2010 04:00:00 -2.6 C 3.05 g/m*3 -2.6 C 0 km/h
2070 10-01-2010 05:00:00 -2.68 C 3.13 g/m*3 -2.68 C 0 km/h
2071 10-01-2010 06:00:00 -2.76 C 3.18 g/m*3 -2.76 C 0 km/h
2072 10-01-2010 07:00:00 -2.84 C 3.19 g/m*3 -2.84 C 0 km/h
2073 10-01-2010 08:00:00 -2.9 C 3.25 g/m*3 -2.9 C 0 km/h
2074 10-01-2010 09:00:00 -2.66 C 3.34 g/m*3 -2.66 C 0 km/h
2075 10-01-2010 10:00:00 -2.16 C 3.47 g/m*3 -2.16 C 0 km/h
Sensor: Nr:Datum:Temp:Abs-Feuchte:Windchill:Wind:
Aussen-T/F 2076 10-01-2010 11:00:00 -1.48 C 3.55 g/m*3 -1.48 C 0 km/h
2077 10-01-2010 12:00:00 -0.68 C 3.58 g/m*3 -0.68 C 0 km/h
2078 10-01-2010 13:00:00 -0.48 C 3.28 g/m*3 -0.48 C 0 km/h
2079 10-01-2010 14:00:00 -0.44 C 3.32 g/m*3 -0.44 C 0 km/h
2080 10-01-2010 15:00:00 -0.52 C 3.3 g/m*3 -0.52 C 0 km/h
2081 10-01-2010 16:00:00 -0.98 C 3.29 g/m*3 -0.98 C 0 km/h
2082 10-01-2010 17:00:00 -1.7 C 3.25 g/m*3 -1.7 C 0 km/h
2083 10-01-2010 18:00:00 -1.84 C 3.31 g/m*3 -1.84 C 0 km/h
2084 10-01-2010 19:00:00 -1.86 C 3.35 g/m*3 -1.86 C 0 km/h
2085 10-01-2010 20:00:00 -1.8 C 3.4 g/m*3 -1.8 C 0 km/h
2086 10-01-2010 21:00:00 -1.78 C 3.42 g/m*3 -1.78 C 0 km/h
2087 10-01-2010 22:00:00 -1.8 C 3.42 g/m*3 -1.8 C 0 km/h
2088 10-01-2010 23:00:00 -1.8 C 3.42 g/m*3 -1.8 C 0 km/h
2089 11-01-2010 00:00:00 -1.84 C 3.41 g/m*3 -1.84 C 0 km/h
2090 11-01-2010 01:00:00 -2.18 C 3.35 g/m*3 -2.18 C 0 km/h
2091 11-01-2010 02:00:00 -2.1 C 3.44 g/m*3 -2.1 C 0 km/h
2092 11-01-2010 03:00:00 -2.1 C 3.5 g/m*3 -2.1 C 0 km/h
2093 11-01-2010 04:00:00 -2.02 C 3.52 g/m*3 -2.02 C 0 km/h
2094 11-01-2010 05:00:00 -1.98 C 3.5 g/m*3 -1.98 C 0 km/h
2095 11-01-2010 06:00:00 -1.92 C 3.52 g/m*3 -1.92 C 0 km/h
2096 11-01-2010 07:00:00 -1.96 C 3.51 g/m*3 -1.96 C 0 km/h
2097 11-01-2010 08:00:00 -2.06 C 3.51 g/m*3 -2.06 C 0 km/h
2098 11-01-2010 09:00:00 -1.88 C 3.57 g/m*3 -1.88 C 0 km/h
2099 11-01-2010 10:00:00 -1.26 C 3.69 g/m*3 -1.26 C 0 km/h
2100 11-01-2010 11:00:00 -0.74 C 3.67 g/m*3 -0.74 C 0 km/h
Sensor: Nr:Datum:Temp:Abs-Feuchte:Windchill:Wind:
Aussen-T/F 2101 11-01-2010 12:00:00 -0.58 C 3.49 g/m*3 -0.58 C 0 km/h
2102 11-01-2010 13:00:00 -0.52 C 3.48 g/m*3 -0.52 C 0 km/h
2103 11-01-2010 14:00:00 -0.6 C 3.51 g/m*3 -0.6 C 0 km/h
2104 11-01-2010 15:00:00 -0.76 C 3.59 g/m*3 -0.76 C 0 km/h
2105 11-01-2010 16:00:00 -0.9 C 3.76 g/m*3 -0.9 C 0 km/h
2106 11-01-2010 17:00:00 -1.2 C 3.79 g/m*3 -1.2 C 0 km/h
2107 11-01-2010 18:00:00 -1.3 C 3.84 g/m*3 -1.3 C 0 km/h
2108 11-01-2010 19:00:00 -1.36 C 3.84 g/m*3 -1.36 C 0 km/h
2109 11-01-2010 20:00:00 -1.3 C 3.85 g/m*3 -1.3 C 0 km/h
2110 11-01-2010 21:00:00 -1.3 C 3.82 g/m*3 -1.3 C 0 km/h
2111 11-01-2010 22:00:00 -1.22 C 3.83 g/m*3 -1.22 C 0 km/h
2112 11-01-2010 23:00:00 -1.2 C 3.82 g/m*3 -1.2 C 0 km/h
2113 12-01-2010 00:00:00 -1.3 C 3.75 g/m*3 -1.3 C 0 km/h
2114 12-01-2010 01:00:00 -1.3 C 3.68 g/m*3 -1.3 C 0 km/h
2115 12-01-2010 02:00:00 -1.36 C 3.66 g/m*3 -1.36 C 0 km/h
2116 12-01-2010 03:00:00 -1.48 C 3.64 g/m*3 -1.48 C 0 km/h
2117 12-01-2010 04:00:00 -1.72 C 3.63 g/m*3 -1.72 C 0 km/h
2118 12-01-2010 05:00:00 -1.94 C 3.6 g/m*3 -1.94 C 0 km/h
2119 12-01-2010 06:00:00 -2.06 C 3.57 g/m*3 -2.06 C 0 km/h
2120 12-01-2010 07:00:00 -2.2 C 3.48 g/m*3 -2.2 C 0 km/h
2121 12-01-2010 08:00:00 -2.38 C 3.37 g/m*3 -2.38 C 0 km/h
2122 12-01-2010 09:00:00 -2.18 C 3.32 g/m*3 -2.18 C 0 km/h
2123 12-01-2010 10:00:00 -1.68 C 3.31 g/m*3 -1.68 C 0 km/h
2124 12-01-2010 11:00:00 -1.14 C 3.32 g/m*3 -1.14 C 0 km/h
2125 12-01-2010 12:00:00 -1.08 C 3.27 g/m*3 -1.08 C 0 km/h
Sensor: Nr:Datum:Temp:Abs-Feuchte:Windchill:Wind:
Aussen-T/F 2126 12-01-2010 13:00:00 -1.2 C 3.22 g/m*3 -1.2 C 0 km/h
2127 12-01-2010 14:00:00 -1.1 C 3.28 g/m*3 -1.1 C 0 km/h
2128 12-01-2010 15:00:00 -1.36 C 3.32 g/m*3 -1.36 C 0 km/h
2129 12-01-2010 16:00:00 -1.58 C 3.34 g/m*3 -1.58 C 0 km/h
2130 12-01-2010 17:00:00 -1.9 C 3.31 g/m*3 -1.9 C 0 km/h
2131 12-01-2010 18:00:00 -1.82 C 3.35 g/m*3 -1.82 C 0 km/h
2132 12-01-2010 19:00:00 -1.94 C 3.24 g/m*3 -1.94 C 0 km/h
2133 12-01-2010 20:00:00 -1.9 C 3.25 g/m*3 -1.9 C 0 km/h
2134 12-01-2010 21:00:00 -1.68 C 3.28 g/m*3 -1.68 C 0 km/h
2135 12-01-2010 22:00:00 -1.7 C 3.22 g/m*3 -1.7 C 0 km/h
2136 12-01-2010 23:00:00 -1.8 C 3.19 g/m*3 -1.8 C 0 km/h
2137 13-01-2010 00:00:00 -1.78 C 3.18 g/m*3 -1.78 C 0 km/h
2138 13-01-2010 01:00:00 -2.54 C 3.08 g/m*3 -2.54 C 0 km/h
2139 13-01-2010 02:00:00 -2.8 C 3.11 g/m*3 -2.8 C 0 km/h
2140 13-01-2010 03:00:00 -3.18 C 3.06 g/m*3 -3.18 C 0 km/h
2141 13-01-2010 04:00:00 -3.06 C 3.08 g/m*3 -3.06 C 0 km/h
2142 13-01-2010 05:00:00 -2.96 C 3.02 g/m*3 -2.96 C 0 km/h
2143 13-01-2010 06:00:00 -2.76 C 2.96 g/m*3 -2.76 C 0 km/h
2144 13-01-2010 07:00:00 -2.92 C 2.88 g/m*3 -2.92 C 0 km/h
2145 13-01-2010 08:00:00 -3.12 C 2.78 g/m*3 -3.12 C 0 km/h
2146 13-01-2010 09:00:00 -2.96 C 2.72 g/m*3 -2.96 C 0 km/h
2147 13-01-2010 10:00:00 -2.48 C 2.67 g/m*3 -2.48 C 0 km/h
2148 13-01-2010 11:00:00 -1.86 C 2.65 g/m*3 -1.86 C 0 km/h
2149 13-01-2010 12:00:00 -1.16 C 2.74 g/m*3 -1.16 C 0 km/h
2150 13-01-2010 13:00:00 -1.06 C 2.9 g/m*3 -1.06 C 0 km/h
Sensor: Nr:Datum:Temp:Abs-Feuchte:Windchill:Wind:
Aussen-T/F 2151 13-01-2010 14:00:00 -1.4 C 3.04 g/m*3 -1.4 C 0 km/h
2152 13-01-2010 15:00:00 -1.6 C 3.04 g/m*3 -1.6 C 0 km/h
2153 13-01-2010 16:00:00 -1.92 C 3.03 g/m*3 -1.92 C 0 km/h
2154 13-01-2010 17:00:00 -2.26 C 2.96 g/m*3 -2.26 C 0 km/h
2155 13-01-2010 18:00:00 -2.32 C 2.93 g/m*3 -2.32 C 0 km/h
2156 13-01-2010 19:00:00 -2.3 C 2.98 g/m*3 -2.3 C 0 km/h
2157 13-01-2010 20:00:00 -2.12 C 3.06 g/m*3 -2.12 C 0 km/h
2158 13-01-2010 21:00:00 -1.88 C 3.18 g/m*3 -1.88 C 0 km/h
2159 13-01-2010 22:00:00 -1.64 C 3.3 g/m*3 -1.64 C 0 km/h
2160 13-01-2010 23:00:00 -1.5 C 3.37 g/m*3 -1.5 C 0 km/h
2161 14-01-2010 00:00:00 -1.42 C 3.43 g/m*3 -1.42 C 0 km/h
2162 14-01-2010 01:00:00 -1.4 C 3.5 g/m*3 -1.4 C 0 km/h
2163 14-01-2010 02:00:00 -1.2 C 3.6 g/m*3 -1.2 C 0 km/h
2164 14-01-2010 03:00:00 -1.04 C 3.7 g/m*3 -1.04 C 0 km/h
2165 14-01-2010 04:00:00 -0.88 C 3.78 g/m*3 -0.88 C 0 km/h
2166 14-01-2010 05:00:00 -0.7 C 3.84 g/m*3 -0.7 C 0 km/h
2167 14-01-2010 06:00:00 -0.64 C 3.87 g/m*3 -0.64 C 0 km/h
2168 14-01-2010 07:00:00 -0.64 C 3.89 g/m*3 -0.64 C 0 km/h
2169 14-01-2010 08:00:00 -0.74 C 3.83 g/m*3 -0.74 C 0 km/h
2170 14-01-2010 09:00:00 -0.6 C 3.9 g/m*3 -0.6 C 0 km/h
2171 14-01-2010 10:00:00 0.68 C 4.11 g/m*3 0.68 C 0 km/h
2172 14-01-2010 11:00:00 1.5 C 4.09 g/m*3 1.5 C 0 km/h
2173 14-01-2010 12:00:00 1.88 C 4.09 g/m*3 1.88 C 0 km/h
2174 14-01-2010 13:00:00 2 C 4.06 g/m*3 2 C 0 km/h
2175 14-01-2010 14:00:00 2.04 C 4.07 g/m*3 2.04 C 0 km/h
Sensor: Nr:Datum:Temp:Abs-Feuchte:Windchill:Wind:
Aussen-T/F 2176 14-01-2010 15:00:00 1.74 C 4.13 g/m*3 1.74 C 0 km/h
2177 14-01-2010 16:00:00 1.42 C 4.17 g/m*3 1.42 C 0 km/h
2178 14-01-2010 17:00:00 1.18 C 4.19 g/m*3 1.18 C 0 km/h
2179 14-01-2010 18:00:00 1.08 C 4.23 g/m*3 1.08 C 0 km/h
2180 14-01-2010 19:00:00 0.98 C 4.22 g/m*3 0.98 C 0 km/h
2181 14-01-2010 20:00:00 0.96 C 4.25 g/m*3 0.96 C 0 km/h
2182 14-01-2010 21:00:00 0.82 C 4.26 g/m*3 0.82 C 0 km/h
2183 14-01-2010 22:00:00 0.8 C 4.2 g/m*3 0.8 C 0 km/h
2184 14-01-2010 23:00:00 0.68 C 4.1 g/m*3 0.68 C 0 km/h
2185 15-01-2010 00:00:00 0.62 C 4.11 g/m*3 0.62 C 0 km/h
2186 15-01-2010 01:00:00 0.64 C 4.15 g/m*3 0.64 C 0 km/h
2187 15-01-2010 02:00:00 0.7 C 4.21 g/m*3 0.7 C 0 km/h
2188 15-01-2010 03:00:00 0.64 C 4.18 g/m*3 0.64 C 0 km/h
2189 15-01-2010 04:00:00 0.7 C 4.13 g/m*3 0.7 C 0 km/h
2190 15-01-2010 05:00:00 0.68 C 4.11 g/m*3 0.68 C 0 km/h
2191 15-01-2010 06:00:00 0.62 C 4.13 g/m*3 0.62 C 0 km/h
2192 15-01-2010 07:00:00 0.7 C 4.13 g/m*3 0.7 C 0 km/h
2193 15-01-2010 08:00:00 0.6 C 4.09 g/m*3 0.6 C 0 km/h
2194 15-01-2010 09:00:00 0.64 C 4.05 g/m*3 0.64 C 0 km/h
2195 15-01-2010 10:00:00 0.86 C 4.06 g/m*3 0.86 C 0 km/h
2196 15-01-2010 11:00:00 0.8 C 3.95 g/m*3 0.8 C 0 km/h
2197 15-01-2010 12:00:00 1.08 C 3.89 g/m*3 1.08 C 0 km/h
2198 15-01-2010 13:00:00 1.48 C 3.96 g/m*3 1.48 C 0 km/h
2199 15-01-2010 14:00:00 2.16 C 3.97 g/m*3 2.16 C 0 km/h
2200 15-01-2010 15:00:00 1.94 C 3.96 g/m*3 1.94 C 0 km/h
Sensor: Nr:Datum:Temp:Abs-Feuchte:Windchill:Wind:
Aussen-T/F 2201 15-01-2010 16:00:00 1.46 C 4.01 g/m*3 1.46 C 0 km/h
2202 15-01-2010 17:00:00 1.04 C 4.06 g/m*3 1.04 C 0 km/h
2203 15-01-2010 18:00:00 0.8 C 4.1 g/m*3 0.8 C 0 km/h
2204 15-01-2010 19:00:00 0.62 C 4.13 g/m*3 0.62 C 0 km/h
2205 15-01-2010 20:00:00 0.66 C 4.15 g/m*3 0.66 C 0 km/h
2206 15-01-2010 21:00:00 0.56 C 4.1 g/m*3 0.56 C 0 km/h
2207 15-01-2010 22:00:00 0.5 C 4.06 g/m*3 0.5 C 0 km/h
2208 15-01-2010 23:00:00 0.46 C 4.02 g/m*3 0.46 C 0 km/h
2209 16-01-2010 00:00:00 0.4 C 3.93 g/m*3 0.4 C 0 km/h
2210 16-01-2010 01:00:00 0.22 C 3.89 g/m*3 0.22 C 0 km/h
2211 16-01-2010 02:00:00 0.1 C 3.85 g/m*3 0.1 C 0 km/h
2212 16-01-2010 03:00:00 0.16 C 3.86 g/m*3 0.16 C 0 km/h
2213 16-01-2010 04:00:00 0.18 C 3.83 g/m*3 0.18 C 0 km/h
2214 16-01-2010 05:00:00 -0.08 C 3.8 g/m*3 -0.08 C 0 km/h
2215 16-01-2010 06:00:00 -0.36 C 3.8 g/m*3 -0.36 C 0 km/h
2216 16-01-2010 07:00:00 -0.58 C 3.75 g/m*3 -0.58 C 0 km/h
2217 16-01-2010 08:00:00 -0.64 C 3.71 g/m*3 -0.64 C 0 km/h
2218 16-01-2010 09:00:00 -0.4 C 3.75 g/m*3 -0.4 C 0 km/h
2219 16-01-2010 10:00:00 -0.5 C 3.59 g/m*3 -0.5 C 0 km/h
2220 16-01-2010 11:00:00 -0.26 C 3.54 g/m*3 -0.26 C 0 km/h
2221 16-01-2010 12:00:00 -0.16 C 3.5 g/m*3 -0.16 C 0 km/h
2222 16-01-2010 13:00:00 -0.14 C 3.49 g/m*3 -0.14 C 0 km/h
2223 16-01-2010 14:00:00 -0.36 C 3.53 g/m*3 -0.36 C 0 km/h
2224 16-01-2010 15:00:00 -0.12 C 3.6 g/m*3 -0.12 C 0 km/h
2225 16-01-2010 16:00:00 -0.2 C 3.65 g/m*3 -0.2 C 0 km/h
Sensor: Nr:Datum:Temp:Abs-Feuchte:Windchill:Wind:
Aussen-T/F 2226 16-01-2010 17:00:00 -0.1 C 3.71 g/m*3 -0.1 C 0 km/h
2227 16-01-2010 18:00:00 0.04 C 3.73 g/m*3 0.04 C 0 km/h
2228 16-01-2010 19:00:00 0.2 C 3.74 g/m*3 0.2 C 0 km/h
2229 16-01-2010 20:00:00 0.12 C 3.73 g/m*3 0.12 C 0 km/h
2230 16-01-2010 21:00:00 -0.12 C 3.85 g/m*3 -0.12 C 0 km/h
2231 16-01-2010 22:00:00 -0.18 C 4.03 g/m*3 -0.18 C 0 km/h
2232 16-01-2010 23:00:00 -0.06 C 4.11 g/m*3 -0.06 C 0 km/h
2233 17-01-2010 00:00:00 0.12 C 4.25 g/m*3 0.12 C 0 km/h
2234 17-01-2010 01:00:00 0.34 C 4.45 g/m*3 0.34 C 0 km/h
2235 17-01-2010 02:00:00 0.52 C 4.59 g/m*3 0.52 C 0 km/h
2236 17-01-2010 03:00:00 0.62 C 4.68 g/m*3 0.62 C 0 km/h
2237 17-01-2010 04:00:00 0.96 C 4.84 g/m*3 0.96 C 0 km/h
2238 17-01-2010 05:00:00 1.14 C 4.93 g/m*3 1.14 C 0 km/h
2239 17-01-2010 06:00:00 1.08 C 4.93 g/m*3 1.08 C 0 km/h
2240 17-01-2010 07:00:00 1.18 C 4.99 g/m*3 1.18 C 0 km/h
2241 17-01-2010 08:00:00 1.3 C 5.03 g/m*3 1.3 C 0 km/h
2242 17-01-2010 09:00:00 1.48 C 5.1 g/m*3 1.48 C 0 km/h
2243 17-01-2010 10:00:00 1.94 C 5.26 g/m*3 1.94 C 0 km/h
2244 17-01-2010 11:00:00 2.24 C 5.37 g/m*3 2.24 C 0 km/h
2245 17-01-2010 12:00:00 3.26 C 5.75 g/m*3 3.26 C 0 km/h
2246 17-01-2010 13:00:00 3.32 C 5.77 g/m*3 3.32 C 0 km/h
2247 17-01-2010 14:00:00 3.9 C 6 g/m*3 3.9 C 0 km/h
2248 17-01-2010 15:00:00 4.58 C 5.89 g/m*3 4.58 C 0 km/h
2249 17-01-2010 16:00:00 3.78 C 5.23 g/m*3 3.78 C 0 km/h
2250 17-01-2010 17:00:00 2.96 C 5.21 g/m*3 2.96 C 0 km/h
Sensor: Nr:Datum:Temp:Abs-Feuchte:Windchill:Wind:
Aussen-T/F 2251 17-01-2010 18:00:00 2.86 C 5.08 g/m*3 2.86 C 0 km/h
2252 17-01-2010 19:00:00 2.6 C 5.01 g/m*3 2.6 C 0 km/h
2253 17-01-2010 20:00:00 2.18 C 4.97 g/m*3 2.18 C 0 km/h
2254 17-01-2010 21:00:00 2.22 C 5.03 g/m*3 2.22 C 0 km/h
2255 17-01-2010 22:00:00 2.6 C 5.13 g/m*3 2.6 C 0 km/h
2256 17-01-2010 23:00:00 3.14 C 5.13 g/m*3 3.14 C 0 km/h
2257 18-01-2010 00:00:00 3.04 C 5.14 g/m*3 3.04 C 0 km/h
2258 18-01-2010 01:00:00 2.7 C 5.29 g/m*3 2.7 C 0 km/h
2259 18-01-2010 02:00:00 2.56 C 5.33 g/m*3 2.56 C 0 km/h
2260 18-01-2010 03:00:00 2.58 C 5.37 g/m*3 2.58 C 0 km/h
2261 18-01-2010 04:00:00 2.82 C 5.42 g/m*3 2.82 C 0 km/h
2262 18-01-2010 05:00:00 3.06 C 5.29 g/m*3 3.06 C 0 km/h
2263 18-01-2010 06:00:00 3.12 C 5.21 g/m*3 3.12 C 0 km/h
2264 18-01-2010 07:00:00 2.96 C 5.21 g/m*3 2.96 C 0 km/h
2265 18-01-2010 08:00:00 3.08 C 5.21 g/m*3 3.08 C 0 km/h
2266 18-01-2010 09:00:00 3.4 C 5.24 g/m*3 3.4 C 0 km/h
2267 18-01-2010 10:00:00 4.12 C 5.27 g/m*3 4.12 C 0 km/h
2268 18-01-2010 11:00:00 3.96 C 5.21 g/m*3 3.96 C 0 km/h
2269 18-01-2010 12:00:00 4.5 C 5.19 g/m*3 4.5 C 0 km/h
2270 18-01-2010 13:00:00 4.76 C 5.02 g/m*3 4.76 C 0 km/h
2271 18-01-2010 14:00:00 4.86 C 4.79 g/m*3 4.86 C 0 km/h
2272 18-01-2010 15:00:00 4.64 C 4.82 g/m*3 4.64 C 0 km/h
2273 18-01-2010 16:00:00 4.06 C 4.77 g/m*3 4.06 C 0 km/h
2274 18-01-2010 17:00:00 3.44 C 4.78 g/m*3 3.44 C 0 km/h
2275 18-01-2010 18:00:00 3.22 C 4.83 g/m*3 3.22 C 0 km/h
Sensor: Nr:Datum:Temp:Abs-Feuchte:Windchill:Wind:
Aussen-T/F 2276 18-01-2010 19:00:00 3.02 C 4.82 g/m*3 3.02 C 0 km/h
2277 18-01-2010 20:00:00 2.92 C 4.86 g/m*3 2.92 C 0 km/h
2278 18-01-2010 21:00:00 2.9 C 4.83 g/m*3 2.9 C 0 km/h
2279 18-01-2010 22:00:00 2.68 C 4.83 g/m*3 2.68 C 0 km/h
2280 18-01-2010 23:00:00 2.8 C 4.79 g/m*3 2.8 C 0 km/h
2281 19-01-2010 00:00:00 2.52 C 4.8 g/m*3 2.52 C 0 km/h
2282 19-01-2010 01:00:00 2.2 C 5.04 g/m*3 2.2 C 0 km/h
2283 19-01-2010 02:00:00 1.94 C 4.96 g/m*3 1.94 C 0 km/h
2284 19-01-2010 03:00:00 1.4 C 4.84 g/m*3 1.4 C 0 km/h
2285 19-01-2010 04:00:00 1.5 C 4.93 g/m*3 1.5 C 0 km/h
2286 19-01-2010 05:00:00 1.6 C 4.94 g/m*3 1.6 C 0 km/h
2287 19-01-2010 06:00:00 1.5 C 4.93 g/m*3 1.5 C 0 km/h
2288 19-01-2010 07:00:00 1.72 C 5.07 g/m*3 1.72 C 0 km/h
2289 19-01-2010 08:00:00 1.9 C 5.12 g/m*3 1.9 C 0 km/h
2290 19-01-2010 09:00:00 2.02 C 5.09 g/m*3 2.02 C 0 km/h
2291 19-01-2010 10:00:00 2.34 C 5.12 g/m*3 2.34 C 0 km/h
2292 19-01-2010 11:00:00 2.76 C 5.18 g/m*3 2.76 C 0 km/h
2293 19-01-2010 12:00:00 3.08 C 5.21 g/m*3 3.08 C 0 km/h
2294 19-01-2010 13:00:00 2.98 C 5.21 g/m*3 2.98 C 0 km/h
2295 19-01-2010 14:00:00 2.98 C 5.33 g/m*3 2.98 C 0 km/h
2296 19-01-2010 15:00:00 3.34 C 5.44 g/m*3 3.34 C 0 km/h
2297 19-01-2010 16:00:00 3.1 C 5.34 g/m*3 3.1 C 0 km/h
2298 19-01-2010 17:00:00 2.72 C 5.25 g/m*3 2.72 C 0 km/h
2299 19-01-2010 18:00:00 2.4 C 5.16 g/m*3 2.4 C 0 km/h
2300 19-01-2010 19:00:00 2 C 5.06 g/m*3 2 C 0 km/h
Sensor: Nr:Datum:Temp:Abs-Feuchte:Windchill:Wind:
Aussen-T/F 2301 19-01-2010 20:00:00 2 C 5.09 g/m*3 2 C 0 km/h
2302 19-01-2010 21:00:00 2.04 C 5.13 g/m*3 2.04 C 0 km/h
2303 19-01-2010 22:00:00 1.9 C 5.08 g/m*3 1.9 C 0 km/h
2304 19-01-2010 23:00:00 1.96 C 5.12 g/m*3 1.96 C 0 km/h
2305 20-01-2010 00:00:00 2.02 C 5.12 g/m*3 2.02 C 0 km/h
2306 20-01-2010 01:00:00 2.16 C 5.17 g/m*3 2.16 C 0 km/h
2307 20-01-2010 02:00:00 2.06 C 5.13 g/m*3 2.06 C 0 km/h
2308 20-01-2010 03:00:00 1.92 C 5.08 g/m*3 1.92 C 0 km/h
2309 20-01-2010 04:00:00 1.8 C 5.04 g/m*3 1.8 C 0 km/h
2310 20-01-2010 05:00:00 1.72 C 5.02 g/m*3 1.72 C 0 km/h
2311 20-01-2010 06:00:00 0.6 C 4.61 g/m*3 0.6 C 0 km/h
2312 20-01-2010 07:00:00 -0.06 C 4.44 g/m*3 -0.06 C 0 km/h
2313 20-01-2010 08:00:00 -0.78 C 4.22 g/m*3 -0.78 C 0 km/h
2314 20-01-2010 09:00:00 -0.62 C 4.33 g/m*3 -0.62 C 0 km/h
2315 20-01-2010 10:00:00 1.28 C 5.02 g/m*3 1.28 C 0 km/h
2316 20-01-2010 11:00:00 2.74 C 5.37 g/m*3 2.74 C 0 km/h
2317 20-01-2010 12:00:00 3.3 C 4.71 g/m*3 3.3 C 0 km/h
2318 20-01-2010 13:00:00 3.76 C 4.47 g/m*3 3.76 C 0 km/h
2319 20-01-2010 14:00:00 4.06 C 4.37 g/m*3 4.06 C 0 km/h
2320 20-01-2010 15:00:00 3.76 C 4.43 g/m*3 3.76 C 0 km/h
2321 20-01-2010 16:00:00 3.34 C 4.4 g/m*3 3.34 C 0 km/h
2322 20-01-2010 17:00:00 2.58 C 4.47 g/m*3 2.58 C 0 km/h
2323 20-01-2010 18:00:00 1.96 C 4.46 g/m*3 1.96 C 0 km/h
2324 20-01-2010 19:00:00 2 C 4.58 g/m*3 2 C 0 km/h
2325 20-01-2010 20:00:00 2.44 C 4.42 g/m*3 2.44 C 0 km/h
Sensor: Nr:Datum:Temp:Abs-Feuchte:Windchill:Wind:
Aussen-T/F 2326 20-01-2010 21:00:00 1.62 C 4.2 g/m*3 1.62 C 0 km/h
2327 20-01-2010 22:00:00 1.88 C 4.19 g/m*3 1.88 C 0 km/h
2328 20-01-2010 23:00:00 1.84 C 4.17 g/m*3 1.84 C 0 km/h
2329 21-01-2010 00:00:00 1.82 C 4.04 g/m*3 1.82 C 0 km/h
2330 21-01-2010 01:00:00 1.76 C 3.82 g/m*3 1.76 C 0 km/h
2331 21-01-2010 02:00:00 1.72 C 3.89 g/m*3 1.72 C 0 km/h
2332 21-01-2010 03:00:00 1.72 C 3.99 g/m*3 1.72 C 0 km/h
2333 21-01-2010 04:00:00 1.76 C 3.96 g/m*3 1.76 C 0 km/h
2334 21-01-2010 05:00:00 1.7 C 3.99 g/m*3 1.7 C 0 km/h
2335 21-01-2010 06:00:00 1.52 C 4.06 g/m*3 1.52 C 0 km/h
2336 21-01-2010 07:00:00 1.38 C 4.2 g/m*3 1.38 C 0 km/h
2337 21-01-2010 08:00:00 1.36 C 4.26 g/m*3 1.36 C 0 km/h
2338 21-01-2010 09:00:00 1.92 C 4.24 g/m*3 1.92 C 0 km/h
2339 21-01-2010 10:00:00 2.68 C 3.96 g/m*3 2.68 C 0 km/h
2340 21-01-2010 11:00:00 3.22 C 3.8 g/m*3 3.22 C 0 km/h
2341 21-01-2010 12:00:00 3.56 C 3.77 g/m*3 3.56 C 0 km/h
2342 21-01-2010 13:00:00 3.82 C 3.76 g/m*3 3.82 C 0 km/h
2343 21-01-2010 14:00:00 3.6 C 3.84 g/m*3 3.6 C 0 km/h
2344 21-01-2010 15:00:00 3.36 C 4.08 g/m*3 3.36 C 0 km/h
2345 21-01-2010 16:00:00 3.14 C 4.01 g/m*3 3.14 C 0 km/h
2346 21-01-2010 17:00:00 2.9 C 4.05 g/m*3 2.9 C 0 km/h
2347 21-01-2010 18:00:00 2.76 C 4.06 g/m*3 2.76 C 0 km/h
2348 21-01-2010 19:00:00 2.72 C 4.07 g/m*3 2.72 C 0 km/h
2349 21-01-2010 20:00:00 2.62 C 4.06 g/m*3 2.62 C 0 km/h
2350 21-01-2010 21:00:00 2.62 C 4.03 g/m*3 2.62 C 0 km/h
Sensor: Nr:Datum:Temp:Abs-Feuchte:Windchill:Wind:
Aussen-T/F 2351 21-01-2010 22:00:00 2.6 C 4.15 g/m*3 2.6 C 0 km/h
2352 21-01-2010 23:00:00 2.6 C 4.26 g/m*3 2.6 C 0 km/h
2353 22-01-2010 00:00:00 2.54 C 4.27 g/m*3 2.54 C 0 km/h
2354 22-01-2010 01:00:00 2.5 C 4.29 g/m*3 2.5 C 0 km/h
2355 22-01-2010 02:00:00 2.4 C 4.34 g/m*3 2.4 C 0 km/h
2356 22-01-2010 03:00:00 2.4 C 4.38 g/m*3 2.4 C 0 km/h
2357 22-01-2010 04:00:00 2.32 C 4.37 g/m*3 2.32 C 0 km/h
2358 22-01-2010 05:00:00 2.28 C 4.36 g/m*3 2.28 C 0 km/h
2359 22-01-2010 06:00:00 2.2 C 4.34 g/m*3 2.2 C 0 km/h
2360 22-01-2010 07:00:00 2.16 C 4.37 g/m*3 2.16 C 0 km/h
2361 22-01-2010 08:00:00 1.98 C 4.35 g/m*3 1.98 C 0 km/h
2362 22-01-2010 09:00:00 2.34 C 4.37 g/m*3 2.34 C 0 km/h
2363 22-01-2010 10:00:00 2.98 C 4.18 g/m*3 2.98 C 0 km/h
2364 22-01-2010 11:00:00 3.9 C 4.08 g/m*3 3.9 C 0 km/h
2365 22-01-2010 12:00:00 4.46 C 4.04 g/m*3 4.46 C 0 km/h
2366 22-01-2010 13:00:00 4.82 C 4.08 g/m*3 4.82 C 0 km/h
2367 22-01-2010 14:00:00 4.6 C 4.14 g/m*3 4.6 C 0 km/h
2368 22-01-2010 15:00:00 4.62 C 4.13 g/m*3 4.62 C 0 km/h
2369 22-01-2010 16:00:00 3.82 C 4.26 g/m*3 3.82 C 0 km/h
2370 22-01-2010 17:00:00 3.44 C 4.29 g/m*3 3.44 C 0 km/h
2371 22-01-2010 18:00:00 3.08 C 4.21 g/m*3 3.08 C 0 km/h
2372 22-01-2010 19:00:00 2.42 C 4.12 g/m*3 2.42 C 0 km/h
2373 22-01-2010 20:00:00 2.34 C 4.17 g/m*3 2.34 C 0 km/h
2374 22-01-2010 21:00:00 2.32 C 4.22 g/m*3 2.32 C 0 km/h
2375 22-01-2010 22:00:00 2.3 C 4.17 g/m*3 2.3 C 0 km/h
Sensor: Nr:Datum:Temp:Abs-Feuchte:Windchill:Wind:
Aussen-T/F 2376 22-01-2010 23:00:00 2.26 C 4 g/m*3 2.26 C 0 km/h
2377 23-01-2010 00:00:00 1.56 C 3.77 g/m*3 1.56 C 0 km/h
2378 23-01-2010 01:00:00 0.8 C 3.65 g/m*3 0.8 C 0 km/h
2379 23-01-2010 02:00:00 0.44 C 3.6 g/m*3 0.44 C 0 km/h
2380 23-01-2010 03:00:00 0.34 C 3.62 g/m*3 0.34 C 0 km/h
2381 23-01-2010 04:00:00 -0.08 C 3.56 g/m*3 -0.08 C 0 km/h
2382 23-01-2010 05:00:00 -0.36 C 3.49 g/m*3 -0.36 C 0 km/h
2383 23-01-2010 06:00:00 -0.58 C 3.44 g/m*3 -0.58 C 0 km/h
2384 23-01-2010 07:00:00 -1.04 C 3.36 g/m*3 -1.04 C 0 km/h
2385 23-01-2010 08:00:00 -1.08 C 3.28 g/m*3 -1.08 C 0 km/h
2386 23-01-2010 09:00:00 -1.06 C 3.21 g/m*3 -1.06 C 0 km/h
2387 23-01-2010 10:00:00 -1.12 C 3.17 g/m*3 -1.12 C 0 km/h
2388 23-01-2010 11:00:00 -0.86 C 3.19 g/m*3 -0.86 C 0 km/h
2389 23-01-2010 12:00:00 -0.7 C 3.23 g/m*3 -0.7 C 0 km/h
2390 23-01-2010 13:00:00 -0.52 C 3.27 g/m*3 -0.52 C 0 km/h
2391 23-01-2010 14:00:00 -0.3 C 3.3 g/m*3 -0.3 C 0 km/h
2392 23-01-2010 15:00:00 -0.58 C 3.28 g/m*3 -0.58 C 0 km/h
2393 23-01-2010 16:00:00 -0.64 C 3.31 g/m*3 -0.64 C 0 km/h
2394 23-01-2010 17:00:00 -0.6 C 3.36 g/m*3 -0.6 C 0 km/h
2395 23-01-2010 18:00:00 -0.64 C 3.34 g/m*3 -0.64 C 0 km/h
2396 23-01-2010 19:00:00 -0.7 C 3.3 g/m*3 -0.7 C 0 km/h
2397 23-01-2010 20:00:00 -0.66 C 3.24 g/m*3 -0.66 C 0 km/h
2398 23-01-2010 21:00:00 -0.58 C 3.26 g/m*3 -0.58 C 0 km/h
2399 23-01-2010 22:00:00 -0.5 C 3.28 g/m*3 -0.5 C 0 km/h
2400 23-01-2010 23:00:00 -0.46 C 3.27 g/m*3 -0.46 C 0 km/h
Sensor: Nr:Datum:Temp:Abs-Feuchte:Windchill:Wind:
Aussen-T/F 2401 24-01-2010 00:00:00 -0.5 C 3.24 g/m*3 -0.5 C 0 km/h
2402 24-01-2010 01:00:00 -0.5 C 3.24 g/m*3 -0.5 C 0 km/h
2403 24-01-2010 02:00:00 -0.46 C 3.26 g/m*3 -0.46 C 0 km/h
2404 24-01-2010 03:00:00 -0.58 C 3.43 g/m*3 -0.58 C 0 km/h
2405 24-01-2010 04:00:00 -0.48 C 3.63 g/m*3 -0.48 C 0 km/h
2406 24-01-2010 05:00:00 -0.3 C 3.78 g/m*3 -0.3 C 0 km/h
2407 24-01-2010 06:00:00 -0.42 C 3.84 g/m*3 -0.42 C 0 km/h
2408 24-01-2010 07:00:00 -0.46 C 3.9 g/m*3 -0.46 C 0 km/h
2409 24-01-2010 08:00:00 -0.46 C 3.99 g/m*3 -0.46 C 0 km/h
2410 24-01-2010 09:00:00 -0.26 C 4.09 g/m*3 -0.26 C 0 km/h
2411 24-01-2010 10:00:00 0.26 C 4.22 g/m*3 0.26 C 0 km/h
2412 24-01-2010 11:00:00 0.78 C 4.27 g/m*3 0.78 C 0 km/h
2413 24-01-2010 12:00:00 0.9 C 4.18 g/m*3 0.9 C 0 km/h
2414 24-01-2010 13:00:00 1.26 C 4.34 g/m*3 1.26 C 0 km/h
2415 24-01-2010 14:00:00 1.62 C 4.48 g/m*3 1.62 C 0 km/h
2416 24-01-2010 15:00:00 1.28 C 4.37 g/m*3 1.28 C 0 km/h
2417 24-01-2010 16:00:00 1.26 C 4.44 g/m*3 1.26 C 0 km/h
2418 24-01-2010 17:00:00 1.02 C 4.44 g/m*3 1.02 C 0 km/h
2419 24-01-2010 18:00:00 0.7 C 4.4 g/m*3 0.7 C 0 km/h
2420 24-01-2010 19:00:00 0.56 C 4.42 g/m*3 0.56 C 0 km/h
2421 24-01-2010 20:00:00 0.54 C 4.46 g/m*3 0.54 C 0 km/h
2422 24-01-2010 21:00:00 0.44 C 4.42 g/m*3 0.44 C 0 km/h
2423 24-01-2010 22:00:00 0.2 C 4.37 g/m*3 0.2 C 0 km/h
2424 24-01-2010 23:00:00 0.12 C 4.42 g/m*3 0.12 C 0 km/h
2425 25-01-2010 00:00:00 0.1 C 4.44 g/m*3 0.1 C 0 km/h
Sensor: Nr:Datum:Temp:Abs-Feuchte:Windchill:Wind:
Aussen-T/F 2426 25-01-2010 01:00:00 0.06 C 4.44 g/m*3 0.06 C 0 km/h
2427 25-01-2010 02:00:00 0 C 4.46 g/m*3 0 C 0 km/h
2428 25-01-2010 03:00:00 -0.08 C 4.43 g/m*3 -0.08 C 0 km/h
2429 25-01-2010 04:00:00 -0.12 C 4.38 g/m*3 -0.12 C 0 km/h
2430 25-01-2010 05:00:00 -0.2 C 4.35 g/m*3 -0.2 C 0 km/h
2431 25-01-2010 06:00:00 -0.3 C 4.27 g/m*3 -0.3 C 0 km/h
2432 25-01-2010 07:00:00 -0.4 C 4.2 g/m*3 -0.4 C 0 km/h
2433 25-01-2010 08:00:00 -0.66 C 4.12 g/m*3 -0.66 C 0 km/h
2434 25-01-2010 09:00:00 -0.3 C 4.15 g/m*3 -0.3 C 0 km/h
2435 25-01-2010 10:00:00 0 C 4.04 g/m*3 0 C 0 km/h
2436 25-01-2010 11:00:00 0.42 C 4.08 g/m*3 0.42 C 0 km/h
2437 25-01-2010 12:00:00 1.02 C 4.06 g/m*3 1.02 C 0 km/h
2438 25-01-2010 13:00:00 1.02 C 3.87 g/m*3 1.02 C 0 km/h
2439 25-01-2010 14:00:00 1.12 C 3.94 g/m*3 1.12 C 0 km/h
2440 25-01-2010 15:00:00 0.98 C 4.01 g/m*3 0.98 C 0 km/h
2441 25-01-2010 16:00:00 0.8 C 4.15 g/m*3 0.8 C 0 km/h
2442 25-01-2010 17:00:00 0.4 C 4.11 g/m*3 0.4 C 0 km/h
2443 25-01-2010 18:00:00 0.04 C 4.21 g/m*3 0.04 C 0 km/h
2444 25-01-2010 19:00:00 -0.5 C 4.22 g/m*3 -0.5 C 0 km/h
2445 25-01-2010 20:00:00 -0.64 C 4.22 g/m*3 -0.64 C 0 km/h
2446 25-01-2010 21:00:00 -0.7 C 4.16 g/m*3 -0.7 C 0 km/h
2447 25-01-2010 22:00:00 -0.74 C 4.07 g/m*3 -0.74 C 0 km/h
2448 25-01-2010 23:00:00 -0.92 C 3.96 g/m*3 -0.92 C 0 km/h
2449 26-01-2010 00:00:00 -1.16 C 3.89 g/m*3 -1.16 C 0 km/h
2450 26-01-2010 01:00:00 -1.56 C 3.83 g/m*3 -1.56 C 0 km/h
Sensor: Nr:Datum:Temp:Abs-Feuchte:Windchill:Wind:
Aussen-T/F 2451 26-01-2010 02:00:00 -1.74 C 3.78 g/m*3 -1.74 C 0 km/h
2452 26-01-2010 03:00:00 -1.86 C 3.75 g/m*3 -1.86 C 0 km/h
2453 26-01-2010 04:00:00 -2.14 C 3.7 g/m*3 -2.14 C 0 km/h
2454 26-01-2010 05:00:00 -2.18 C 3.65 g/m*3 -2.18 C 0 km/h
2455 26-01-2010 06:00:00 -2.34 C 3.58 g/m*3 -2.34 C 0 km/h
2456 26-01-2010 07:00:00 -2.16 C 3.6 g/m*3 -2.16 C 0 km/h
2457 26-01-2010 08:00:00 -2.78 C 3.12 g/m*3 -2.78 C 0 km/h
2458 26-01-2010 09:00:00 -3.52 C 2.65 g/m*3 -3.52 C 0 km/h
2459 26-01-2010 10:00:00 -3.42 C 2.43 g/m*3 -3.42 C 0 km/h
2460 26-01-2010 11:00:00 -3.06 C 2.37 g/m*3 -3.06 C 0 km/h
2461 26-01-2010 12:00:00 -2.66 C 2.37 g/m*3 -2.66 C 0 km/h
2462 26-01-2010 13:00:00 -2.46 C 2.31 g/m*3 -2.46 C 0 km/h
2463 26-01-2010 14:00:00 -1.08 C 2.35 g/m*3 -1.08 C 0 km/h
2464 26-01-2010 15:00:00 -1.16 C 2.33 g/m*3 -1.16 C 0 km/h
2465 26-01-2010 16:00:00 -2.44 C 2.33 g/m*3 -2.44 C 0 km/h
2466 26-01-2010 17:00:00 -3.78 C 2.31 g/m*3 -3.78 C 0 km/h
2467 26-01-2010 18:00:00 -4.86 C 2.33 g/m*3 -4.86 C 0 km/h
2468 26-01-2010 19:00:00 -5.58 C 2.3 g/m*3 -5.58 C 0 km/h
2469 26-01-2010 20:00:00 -6.2 C 2.3 g/m*3 -6.2 C 0 km/h
2470 26-01-2010 21:00:00 -6.82 C 2.24 g/m*3 -6.82 C 0 km/h
2471 26-01-2010 22:00:00 -7.12 C 2.25 g/m*3 -7.12 C 0 km/h
2472 26-01-2010 23:00:00 -7.72 C 2.12 g/m*3 -7.72 C 0 km/h
2473 27-01-2010 00:00:00 -8.32 C 2.05 g/m*3 -8.32 C 0 km/h
2474 27-01-2010 01:00:00 -8.94 C 1.96 g/m*3 -8.94 C 0 km/h
2475 27-01-2010 02:00:00 -9.3 C 1.91 g/m*3 -9.3 C 0 km/h
Sensor: Nr:Datum:Temp:Abs-Feuchte:Windchill:Wind:
Aussen-T/F 2476 27-01-2010 03:00:00 -9.06 C 1.94 g/m*3 -9.06 C 0 km/h
2477 27-01-2010 04:00:00 -8.58 C 1.99 g/m*3 -8.58 C 0 km/h
2478 27-01-2010 05:00:00 -8.58 C 1.97 g/m*3 -8.58 C 0 km/h
2479 27-01-2010 06:00:00 -8.94 C 1.91 g/m*3 -8.94 C 0 km/h
2480 27-01-2010 07:00:00 -9.22 C 1.86 g/m*3 -9.22 C 0 km/h
2481 27-01-2010 08:00:00 -9.24 C 1.87 g/m*3 -9.24 C 0 km/h
2482 27-01-2010 09:00:00 -8.84 C 1.89 g/m*3 -8.84 C 0 km/h
2483 27-01-2010 10:00:00 -8.2 C 1.9 g/m*3 -8.2 C 0 km/h
2484 27-01-2010 11:00:00 -6.62 C 2 g/m*3 -6.62 C 0 km/h
2485 27-01-2010 12:00:00 -4.64 C 2.14 g/m*3 -4.64 C 0 km/h
2486 27-01-2010 13:00:00 -3.74 C 2.13 g/m*3 -3.74 C 0 km/h
2487 27-01-2010 14:00:00 -2.18 C 2.35 g/m*3 -2.18 C 0 km/h
2488 27-01-2010 15:00:00 -2.14 C 2.45 g/m*3 -2.14 C 0 km/h
2489 27-01-2010 16:00:00 -2.08 C 2.31 g/m*3 -2.08 C 0 km/h
2490 27-01-2010 17:00:00 -2.38 C 2.16 g/m*3 -2.38 C 0 km/h
2491 27-01-2010 18:00:00 -2.32 C 2.32 g/m*3 -2.32 C 0 km/h
2492 27-01-2010 19:00:00 -1.84 C 2.39 g/m*3 -1.84 C 0 km/h
2493 27-01-2010 20:00:00 -1.9 C 2.53 g/m*3 -1.9 C 0 km/h
2494 27-01-2010 21:00:00 -1.92 C 2.63 g/m*3 -1.92 C 0 km/h
2495 27-01-2010 22:00:00 -1.94 C 2.71 g/m*3 -1.94 C 0 km/h
2496 27-01-2010 23:00:00 -2.06 C 2.89 g/m*3 -2.06 C 0 km/h
2497 28-01-2010 00:00:00 -2.02 C 3.06 g/m*3 -2.02 C 0 km/h
2498 28-01-2010 01:00:00 -1.84 C 3.46 g/m*3 -1.84 C 0 km/h
2499 28-01-2010 02:00:00 -1.1 C 3.49 g/m*3 -1.1 C 0 km/h
2500 28-01-2010 03:00:00 -0.92 C 3.57 g/m*3 -0.92 C 0 km/h
Sensor: Nr:Datum:Temp:Abs-Feuchte:Windchill:Wind:
Aussen-T/F 2501 28-01-2010 04:00:00 -0.68 C 3.77 g/m*3 -0.68 C 0 km/h
2502 28-01-2010 05:00:00 -0.5 C 4.15 g/m*3 -0.5 C 0 km/h
2503 28-01-2010 06:00:00 0.9 C 4.56 g/m*3 0.9 C 0 km/h
2504 28-01-2010 07:00:00 1.18 C 4.31 g/m*3 1.18 C 0 km/h
2505 28-01-2010 08:00:00 1.28 C 4.42 g/m*3 1.28 C 0 km/h
2506 28-01-2010 09:00:00 1.7 C 4.42 g/m*3 1.7 C 0 km/h
2507 28-01-2010 10:00:00 2.42 C 4.17 g/m*3 2.42 C 0 km/h
2508 28-01-2010 11:00:00 2.74 C 4.01 g/m*3 2.74 C 0 km/h
2509 28-01-2010 12:00:00 3.2 C 3.9 g/m*3 3.2 C 0 km/h
2510 28-01-2010 13:00:00 3.38 C 3.88 g/m*3 3.38 C 0 km/h
2511 28-01-2010 14:00:00 2.2 C 4.26 g/m*3 2.2 C 0 km/h
2512 28-01-2010 15:00:00 2.7 C 4.01 g/m*3 2.7 C 0 km/h
2513 28-01-2010 16:00:00 2.88 C 3.72 g/m*3 2.88 C 0 km/h
2514 28-01-2010 17:00:00 2.32 C 3.98 g/m*3 2.32 C 0 km/h
2515 28-01-2010 18:00:00 1.34 C 4.42 g/m*3 1.34 C 0 km/h
2516 28-01-2010 19:00:00 1.36 C 4.53 g/m*3 1.36 C 0 km/h
2517 28-01-2010 20:00:00 1.62 C 4.27 g/m*3 1.62 C 0 km/h
2518 28-01-2010 21:00:00 1.58 C 4.21 g/m*3 1.58 C 0 km/h
2519 28-01-2010 22:00:00 1.66 C 4.18 g/m*3 1.66 C 0 km/h
2520 28-01-2010 23:00:00 1.56 C 4.16 g/m*3 1.56 C 0 km/h
2521 29-01-2010 00:00:00 1.46 C 4.27 g/m*3 1.46 C 0 km/h
2522 29-01-2010 01:00:00 1.4 C 4.33 g/m*3 1.4 C 0 km/h
2523 29-01-2010 02:00:00 1.08 C 4.47 g/m*3 1.08 C 0 km/h
2524 29-01-2010 03:00:00 1.3 C 4.56 g/m*3 1.3 C 0 km/h
2525 29-01-2010 04:00:00 1.34 C 4.57 g/m*3 1.34 C 0 km/h
Sensor: Nr:Datum:Temp:Abs-Feuchte:Windchill:Wind:
Aussen-T/F 2526 29-01-2010 05:00:00 1 C 4.62 g/m*3 1 C 0 km/h
2527 29-01-2010 06:00:00 0.96 C 4.7 g/m*3 0.96 C 0 km/h
2528 29-01-2010 07:00:00 1.04 C 4.59 g/m*3 1.04 C 0 km/h
2529 29-01-2010 08:00:00 1.52 C 4.44 g/m*3 1.52 C 0 km/h
2530 29-01-2010 09:00:00 1.7 C 4.43 g/m*3 1.7 C 0 km/h
2531 29-01-2010 10:00:00 2.22 C 4.39 g/m*3 2.22 C 0 km/h
2532 29-01-2010 11:00:00 2.6 C 4.36 g/m*3 2.6 C 0 km/h
2533 29-01-2010 12:00:00 2.8 C 4.35 g/m*3 2.8 C 0 km/h
2534 29-01-2010 13:00:00 2.66 C 4.42 g/m*3 2.66 C 0 km/h
2535 29-01-2010 14:00:00 2.24 C 4.54 g/m*3 2.24 C 0 km/h
2536 29-01-2010 15:00:00 2.06 C 4.54 g/m*3 2.06 C 0 km/h
2537 29-01-2010 16:00:00 1.82 C 4.56 g/m*3 1.82 C 0 km/h
2538 29-01-2010 17:00:00 1.34 C 4.71 g/m*3 1.34 C 0 km/h
2539 29-01-2010 18:00:00 0.84 C 4.7 g/m*3 0.84 C 0 km/h
2540 29-01-2010 19:00:00 0.78 C 4.81 g/m*3 0.78 C 0 km/h
2541 29-01-2010 20:00:00 0.74 C 4.73 g/m*3 0.74 C 0 km/h
2542 29-01-2010 21:00:00 0.48 C 4.53 g/m*3 0.48 C 0 km/h
2543 29-01-2010 22:00:00 0.14 C 4.18 g/m*3 0.14 C 0 km/h
2544 29-01-2010 23:00:00 -0.14 C 4.07 g/m*3 -0.14 C 0 km/h
2545 30-01-2010 00:00:00 -0.22 C 3.87 g/m*3 -0.22 C 0 km/h
2546 30-01-2010 01:00:00 -0.22 C 3.8 g/m*3 -0.22 C 0 km/h
2547 30-01-2010 02:00:00 -0.86 C 3.81 g/m*3 -0.86 C 0 km/h
2548 30-01-2010 03:00:00 -1.2 C 3.72 g/m*3 -1.2 C 0 km/h
2549 30-01-2010 04:00:00 -1.42 C 3.54 g/m*3 -1.42 C 0 km/h
2550 30-01-2010 05:00:00 -0.98 C 3.49 g/m*3 -0.98 C 0 km/h
Sensor: Nr:Datum:Temp:Abs-Feuchte:Windchill:Wind:
Aussen-T/F 2551 30-01-2010 06:00:00 -0.16 C 3.46 g/m*3 -0.16 C 0 km/h
2552 30-01-2010 07:00:00 -0.14 C 3.44 g/m*3 -0.14 C 0 km/h
2553 30-01-2010 08:00:00 -0.24 C 3.62 g/m*3 -0.24 C 0 km/h
2554 30-01-2010 09:00:00 -0.2 C 3.7 g/m*3 -0.2 C 0 km/h
2555 30-01-2010 10:00:00 -0.06 C 3.7 g/m*3 -0.06 C 0 km/h
2556 30-01-2010 11:00:00 -0.16 C 3.98 g/m*3 -0.16 C 0 km/h
2557 30-01-2010 12:00:00 -0.18 C 3.98 g/m*3 -0.18 C 0 km/h
2558 30-01-2010 13:00:00 0.12 C 3.61 g/m*3 0.12 C 0 km/h
2559 30-01-2010 14:00:00 0.14 C 3.45 g/m*3 0.14 C 0 km/h
2560 30-01-2010 15:00:00 -0.98 C 3.54 g/m*3 -0.98 C 0 km/h
2561 30-01-2010 16:00:00 -1.46 C 3.24 g/m*3 -1.46 C 0 km/h
2562 30-01-2010 17:00:00 -2.06 C 3.26 g/m*3 -2.06 C 0 km/h
2563 30-01-2010 18:00:00 -2.42 C 3.21 g/m*3 -2.42 C 0 km/h
2564 30-01-2010 19:00:00 -3.3 C 2.97 g/m*3 -3.3 C 0 km/h
2565 30-01-2010 20:00:00 -4.46 C 2.77 g/m*3 -4.46 C 0 km/h
2566 30-01-2010 21:00:00 -4.46 C 2.81 g/m*3 -4.46 C 0 km/h
2567 30-01-2010 22:00:00 -5.86 C 2.51 g/m*3 -5.86 C 0 km/h
2568 30-01-2010 23:00:00 -6.32 C 2.45 g/m*3 -6.32 C 0 km/h
2569 31-01-2010 00:00:00 -5.98 C 2.52 g/m*3 -5.98 C 0 km/h
2570 31-01-2010 01:00:00 -4.8 C 2.72 g/m*3 -4.8 C 0 km/h
2571 31-01-2010 02:00:00 -4.26 C 2.96 g/m*3 -4.26 C 0 km/h
2572 31-01-2010 03:00:00 -3.72 C 3.1 g/m*3 -3.72 C 0 km/h
2573 31-01-2010 04:00:00 -3.3 C 3.18 g/m*3 -3.3 C 0 km/h
2574 31-01-2010 05:00:00 -3 C 3.24 g/m*3 -3 C 0 km/h
2575 31-01-2010 06:00:00 -2.78 C 3.27 g/m*3 -2.78 C 0 km/h
Sensor: Nr:Datum:Temp:Abs-Feuchte:Windchill:Wind:
Aussen-T/F 2576 31-01-2010 07:00:00 -2.56 C 3.31 g/m*3 -2.56 C 0 km/h
2577 31-01-2010 08:00:00 -2.4 C 3.37 g/m*3 -2.4 C 0 km/h
2578 31-01-2010 09:00:00 -2.02 C 3.37 g/m*3 -2.02 C 0 km/h
2579 31-01-2010 10:00:00 -1.66 C 3.31 g/m*3 -1.66 C 0 km/h
2580 31-01-2010 11:00:00 -0.84 C 3.4 g/m*3 -0.84 C 0 km/h
2581 31-01-2010 12:00:00 0.62 C 3.52 g/m*3 0.62 C 0 km/h
2582 31-01-2010 13:00:00 1.9 C 3.3 g/m*3 1.9 C 0 km/h
2583 31-01-2010 14:00:00 2.22 C 3.06 g/m*3 2.22 C 0 km/h
2584 31-01-2010 15:00:00 1.3 C 3 g/m*3 1.3 C 0 km/h
2585 31-01-2010 16:00:00 0.78 C 3.12 g/m*3 0.78 C 0 km/h
2586 31-01-2010 17:00:00 -0.34 C 3.1 g/m*3 -0.34 C 0 km/h
2587 31-01-2010 18:00:00 -1.48 C 3.12 g/m*3 -1.48 C 0 km/h
2588 31-01-2010 19:00:00 -1.88 C 3.11 g/m*3 -1.88 C 0 km/h
2589 31-01-2010 20:00:00 -2 C 3.18 g/m*3 -2 C 0 km/h
2590 31-01-2010 21:00:00 -1.46 C 3.31 g/m*3 -1.46 C 0 km/h
2591 31-01-2010 22:00:00 -0.68 C 3.36 g/m*3 -0.68 C 0 km/h
2592 31-01-2010 23:00:00 -0.62 C 3.38 g/m*3 -0.62 C 0 km/h
2593 01-02-2010 00:00:00 -0.86 C 3.37 g/m*3 -0.86 C 0 km/h
2594 01-02-2010 01:00:00 -0.48 C 3.36 g/m*3 -0.48 C 0 km/h
2595 01-02-2010 02:00:00 -0.76 C 3.25 g/m*3 -0.76 C 0 km/h
2596 01-02-2010 03:00:00 -0.76 C 3.27 g/m*3 -0.76 C 0 km/h
2597 01-02-2010 04:00:00 -0.84 C 3.27 g/m*3 -0.84 C 0 km/h
2598 01-02-2010 05:00:00 -0.52 C 3.32 g/m*3 -0.52 C 0 km/h
2599 01-02-2010 06:00:00 -0.36 C 3.36 g/m*3 -0.36 C 0 km/h
2600 01-02-2010 07:00:00 -0.6 C 3.37 g/m*3 -0.6 C 0 km/h
Sensor: Nr:Datum:Temp:Abs-Feuchte:Windchill:Wind:
Aussen-T/F 2601 01-02-2010 08:00:00 -0.4 C 3.4 g/m*3 -0.4 C 0 km/h
2602 01-02-2010 09:00:00 -0.28 C 3.38 g/m*3 -0.28 C 0 km/h
2603 01-02-2010 10:00:00 0.18 C 3.37 g/m*3 0.18 C 0 km/h
2604 01-02-2010 11:00:00 0.74 C 3.26 g/m*3 0.74 C 0 km/h
2605 01-02-2010 12:00:00 1.48 C 3.28 g/m*3 1.48 C 0 km/h
2606 01-02-2010 13:00:00 1.86 C 3.27 g/m*3 1.86 C 0 km/h
2607 01-02-2010 14:00:00 1.96 C 3.38 g/m*3 1.96 C 0 km/h
2608 01-02-2010 15:00:00 1.32 C 3.78 g/m*3 1.32 C 0 km/h
2609 01-02-2010 16:00:00 0.78 C 4.07 g/m*3 0.78 C 0 km/h
2610 01-02-2010 17:00:00 0.46 C 4.22 g/m*3 0.46 C 0 km/h
2611 01-02-2010 18:00:00 0.2 C 4.42 g/m*3 0.2 C 0 km/h
2612 01-02-2010 19:00:00 0.34 C 4.53 g/m*3 0.34 C 0 km/h
2613 01-02-2010 20:00:00 0.42 C 4.42 g/m*3 0.42 C 0 km/h
2614 01-02-2010 21:00:00 0.24 C 4.33 g/m*3 0.24 C 0 km/h
2615 01-02-2010 22:00:00 0.38 C 4.44 g/m*3 0.38 C 0 km/h
2616 01-02-2010 23:00:00 0.34 C 4.3 g/m*3 0.34 C 0 km/h
2617 02-02-2010 00:00:00 0.18 C 3.77 g/m*3 0.18 C 0 km/h
2618 02-02-2010 01:00:00 -0.58 C 3.55 g/m*3 -0.58 C 0 km/h
2619 02-02-2010 02:00:00 -1.2 C 3.35 g/m*3 -1.2 C 0 km/h
2620 02-02-2010 03:00:00 -2.86 C 3.17 g/m*3 -2.86 C 0 km/h
2621 02-02-2010 04:00:00 -2.86 C 3.36 g/m*3 -2.86 C 0 km/h
2622 02-02-2010 05:00:00 -2.34 C 3.56 g/m*3 -2.34 C 0 km/h
2623 02-02-2010 06:00:00 -1.54 C 3.66 g/m*3 -1.54 C 0 km/h
2624 02-02-2010 07:00:00 -1.58 C 3.5 g/m*3 -1.58 C 0 km/h
2625 02-02-2010 08:00:00 -1.16 C 3.5 g/m*3 -1.16 C 0 km/h
Sensor: Nr:Datum:Temp:Abs-Feuchte:Windchill:Wind:
Aussen-T/F 2626 02-02-2010 09:00:00 -0.32 C 3.69 g/m*3 -0.32 C 0 km/h
2627 02-02-2010 10:00:00 0.78 C 3.9 g/m*3 0.78 C 0 km/h
2628 02-02-2010 11:00:00 1.48 C 3.98 g/m*3 1.48 C 0 km/h
2629 02-02-2010 12:00:00 2 C 4.15 g/m*3 2 C 0 km/h
2630 02-02-2010 13:00:00 2.52 C 4.21 g/m*3 2.52 C 0 km/h
2631 02-02-2010 14:00:00 2.84 C 4.22 g/m*3 2.84 C 0 km/h
2632 02-02-2010 15:00:00 2.66 C 4.37 g/m*3 2.66 C 0 km/h
2633 02-02-2010 16:00:00 2.36 C 4.43 g/m*3 2.36 C 0 km/h
2634 02-02-2010 17:00:00 2.14 C 4.47 g/m*3 2.14 C 0 km/h
2635 02-02-2010 18:00:00 2.22 C 4.43 g/m*3 2.22 C 0 km/h
2636 02-02-2010 19:00:00 2.18 C 4.49 g/m*3 2.18 C 0 km/h
2637 02-02-2010 20:00:00 2.4 C 4.59 g/m*3 2.4 C 0 km/h
2638 02-02-2010 21:00:00 2.6 C 4.59 g/m*3 2.6 C 0 km/h
2639 02-02-2010 22:00:00 2.52 C 4.74 g/m*3 2.52 C 0 km/h
2640 02-02-2010 23:00:00 2.72 C 4.82 g/m*3 2.72 C 0 km/h
2641 03-02-2010 00:00:00 3.48 C 4.9 g/m*3 3.48 C 0 km/h
2642 03-02-2010 01:00:00 4.14 C 4.98 g/m*3 4.14 C 0 km/h
2643 03-02-2010 02:00:00 3.88 C 5.01 g/m*3 3.88 C 0 km/h
2644 03-02-2010 03:00:00 1.78 C 4.85 g/m*3 1.78 C 0 km/h
2645 03-02-2010 04:00:00 1.08 C 4.75 g/m*3 1.08 C 0 km/h
2646 03-02-2010 05:00:00 1.12 C 4.85 g/m*3 1.12 C 0 km/h
2647 03-02-2010 06:00:00 1.08 C 4.91 g/m*3 1.08 C 0 km/h
2648 03-02-2010 07:00:00 0.98 C 4.9 g/m*3 0.98 C 0 km/h
2649 03-02-2010 08:00:00 1.06 C 4.95 g/m*3 1.06 C 0 km/h
2650 03-02-2010 09:00:00 1.44 C 5.08 g/m*3 1.44 C 0 km/h
Sensor: Nr:Datum:Temp:Abs-Feuchte:Windchill:Wind:
Aussen-T/F 2651 03-02-2010 10:00:00 2.46 C 5.32 g/m*3 2.46 C 0 km/h
2652 03-02-2010 11:00:00 3.16 C 5.14 g/m*3 3.16 C 0 km/h
2653 03-02-2010 12:00:00 3.08 C 5.08 g/m*3 3.08 C 0 km/h
2654 03-02-2010 13:00:00 3.2 C 5.24 g/m*3 3.2 C 0 km/h
2655 03-02-2010 14:00:00 3.28 C 5.27 g/m*3 3.28 C 0 km/h
2656 03-02-2010 15:00:00 3.02 C 5.24 g/m*3 3.02 C 0 km/h
2657 03-02-2010 16:00:00 2.58 C 5.14 g/m*3 2.58 C 0 km/h
2658 03-02-2010 17:00:00 2.18 C 5.07 g/m*3 2.18 C 0 km/h
2659 03-02-2010 18:00:00 1.88 C 5.05 g/m*3 1.88 C 0 km/h
2660 03-02-2010 19:00:00 1.75 C 5.03 g/m*3 1.75 C 0 km/h
2661 03-02-2010 20:00:00 1.85 C 5.12 g/m*3 1.85 C 0 km/h
2662 03-02-2010 21:00:00 1.73333 C 5.07 g/m*3 1.73 C 0 km/h
2663 03-02-2010 22:00:00 1.8 C 5.1 g/m*3 1.8 C 0 km/h
2664 03-02-2010 23:00:00 1.86667 C 5.12 g/m*3 1.87 C 0 km/h
2665 04-02-2010 00:00:00 2 C 5.17 g/m*3 2 C 0 km/h
2666 04-02-2010 01:00:00 2 C 5.2 g/m*3 2 C 0 km/h
2667 04-02-2010 02:00:00 2.13333 C 5.27 g/m*3 2.13 C 0 km/h
2668 04-02-2010 03:00:00 2.25 C 5.31 g/m*3 2.25 C 0 km/h
2669 04-02-2010 04:00:00 2.33333 C 5.34 g/m*3 2.33 C 0 km/h
2670 04-02-2010 05:00:00 2.6 C 5.5 g/m*3 2.6 C 0 km/h
2671 04-02-2010 06:00:00 3.3 C 5.76 g/m*3 3.3 C 0 km/h
2672 04-02-2010 07:00:00 3.3 C 5.76 g/m*3 3.3 C 0 km/h
2673 04-02-2010 08:00:00 3.26667 C 5.75 g/m*3 3.27 C 0 km/h
2674 04-02-2010 09:00:00 4.1 C 6.08 g/m*3 4.1 C 0 km/h
2675 04-02-2010 10:00:00 4.95 C 6.16 g/m*3 4.95 C 0 km/h
Sensor: Nr:Datum:Temp:Abs-Feuchte:Windchill:Wind:
Aussen-T/F 2676 04-02-2010 11:00:00 6.3 C 6.09 g/m*3 6.3 C 0 km/h
2677 04-02-2010 12:00:00 7.3 C 5.89 g/m*3 7.3 C 0 km/h
2678 04-02-2010 13:00:00 8.4 C 5.94 g/m*3 8.4 C 0 km/h
2679 04-02-2010 14:00:00 8.35 C 5.71 g/m*3 8.35 C 0 km/h
2680 04-02-2010 15:00:00 8.8 C 5.83 g/m*3 8.8 C 0 km/h
2681 04-02-2010 16:00:00 7.16667 C 5.48 g/m*3 7.17 C 0 km/h
2682 04-02-2010 17:00:00 5.35 C 5.42 g/m*3 5.35 C 0 km/h
2683 04-02-2010 18:00:00 4 C 5.26 g/m*3 4 C 0 km/h
2684 04-02-2010 19:00:00 3.15 C 5.14 g/m*3 3.15 C 0 km/h
2685 04-02-2010 20:00:00 2.6 C 5.12 g/m*3 2.6 C 0 km/h
2686 04-02-2010 21:00:00 2.4 C 5.16 g/m*3 2.4 C 0 km/h
2687 04-02-2010 22:00:00 2 C 5.11 g/m*3 2 C 0 km/h
2688 04-02-2010 23:00:00 1.86667 C 5.12 g/m*3 1.87 C 0 km/h
2689 05-02-2010 00:00:00 2.4 C 5.34 g/m*3 2.4 C 0 km/h
2690 05-02-2010 01:00:00 1.85 C 5.14 g/m*3 1.85 C 0 km/h
2691 05-02-2010 02:00:00 2.5 C 5.31 g/m*3 2.5 C 0 km/h
2692 05-02-2010 03:00:00 2.75 C 5.12 g/m*3 2.75 C 0 km/h
2693 05-02-2010 04:00:00 2.8 C 4.97 g/m*3 2.8 C 0 km/h
2694 05-02-2010 05:00:00 2.7 C 4.87 g/m*3 2.7 C 0 km/h
2695 05-02-2010 06:00:00 2.75 C 4.85 g/m*3 2.75 C 0 km/h
2696 05-02-2010 07:00:00 2.56667 C 4.87 g/m*3 2.57 C 0 km/h
2697 05-02-2010 08:00:00 3.3 C 4.88 g/m*3 3.3 C 0 km/h
2698 05-02-2010 09:00:00 3.83333 C 4.8 g/m*3 3.83 C 0 km/h
2699 05-02-2010 10:00:00 4.05 C 4.53 g/m*3 4.05 C 0 km/h
2700 05-02-2010 11:00:00 4.3 C 4.48 g/m*3 4.3 C 0 km/h
Sensor: Nr:Datum:Temp:Abs-Feuchte:Windchill:Wind:
Aussen-T/F 2701 05-02-2010 12:00:00 4.36667 C 4.32 g/m*3 4.37 C 0 km/h
2702 05-02-2010 13:00:00 4.7 C 4.46 g/m*3 4.7 C 0 km/h
2703 05-02-2010 14:00:00 4.83333 C 4.37 g/m*3 4.83 C 0 km/h
2704 05-02-2010 15:00:00 4.35 C 4.39 g/m*3 4.35 C 0 km/h
2705 05-02-2010 16:00:00 3.7 C 4.67 g/m*3 3.7 C 0 km/h
2706 05-02-2010 17:00:00 3.33333 C 4.9 g/m*3 3.33 C 0 km/h
2707 05-02-2010 18:00:00 3.2 C 5.03 g/m*3 3.2 C 0 km/h
2708 05-02-2010 19:00:00 3.1 C 5.09 g/m*3 3.1 C 0 km/h
2709 05-02-2010 20:00:00 2.9 C 5.11 g/m*3 2.9 C 0 km/h
2710 05-02-2010 21:00:00 2.7 C 5.13 g/m*3 2.7 C 0 km/h
2711 05-02-2010 22:00:00 2.86667 C 5.22 g/m*3 2.87 C 0 km/h
2712 05-02-2010 23:00:00 3 C 5.23 g/m*3 3 C 0 km/h
2713 06-02-2010 00:00:00 2.76667 C 5.21 g/m*3 2.77 C 0 km/h
2714 06-02-2010 01:00:00 2.25 C 5.03 g/m*3 2.25 C 0 km/h
2715 06-02-2010 02:00:00 2.55 C 5.19 g/m*3 2.55 C 0 km/h
2716 06-02-2010 03:00:00 2.56667 C 5.2 g/m*3 2.57 C 0 km/h
2717 06-02-2010 04:00:00 2.7 C 5.3 g/m*3 2.7 C 0 km/h
2718 06-02-2010 05:00:00 3 C 5.41 g/m*3 3 C 0 km/h
2719 06-02-2010 06:00:00 3.1 C 5.45 g/m*3 3.1 C 0 km/h
2720 06-02-2010 07:00:00 3.05 C 5.43 g/m*3 3.05 C 0 km/h
2721 06-02-2010 08:00:00 3.23333 C 5.5 g/m*3 3.23 C 0 km/h
2722 06-02-2010 09:00:00 3.85 C 5.7 g/m*3 3.85 C 0 km/h
2723 06-02-2010 10:00:00 5.1 C 5.95 g/m*3 5.1 C 0 km/h
2724 06-02-2010 11:00:00 6 C 5.84 g/m*3 6 C 0 km/h
2725 06-02-2010 12:00:00 6.8 C 5.97 g/m*3 6.8 C 0 km/h
Sensor: Nr:Datum:Temp:Abs-Feuchte:Windchill:Wind:
Aussen-T/F 2726 06-02-2010 13:00:00 7.33333 C 5.54 g/m*3 7.33 C 0 km/h
2727 06-02-2010 14:00:00 7.05 C 5.25 g/m*3 7.05 C 0 km/h
2728 06-02-2010 15:00:00 6.53333 C 5.41 g/m*3 6.53 C 0 km/h
2729 06-02-2010 16:00:00 6.1 C 5.41 g/m*3 6.1 C 0 km/h
2730 06-02-2010 17:00:00 5.75 C 5.46 g/m*3 5.75 C 0 km/h
2731 06-02-2010 18:00:00 5.33333 C 5.4 g/m*3 5.33 C 0 km/h
2732 06-02-2010 19:00:00 5.1 C 5.4 g/m*3 5.1 C 0 km/h
2733 06-02-2010 20:00:00 4.93333 C 5.41 g/m*3 4.93 C 0 km/h
2734 06-02-2010 21:00:00 4.8 C 5.43 g/m*3 4.8 C 0 km/h
2735 06-02-2010 22:00:00 4.75 C 5.48 g/m*3 4.75 C 0 km/h
2736 06-02-2010 23:00:00 4.63333 C 5.44 g/m*3 4.63 C 0 km/h
2737 07-02-2010 00:00:00 4.5 C 5.46 g/m*3 4.5 C 0 km/h
2738 07-02-2010 01:00:00 4.5 C 5.46 g/m*3 4.5 C 0 km/h
2739 07-02-2010 02:00:00 4.15 C 5.39 g/m*3 4.15 C 0 km/h
2740 07-02-2010 03:00:00 4.1 C 5.5 g/m*3 4.1 C 0 km/h
2741 07-02-2010 04:00:00 4.03333 C 5.59 g/m*3 4.03 C 0 km/h
2742 07-02-2010 05:00:00 3.95 C 5.64 g/m*3 3.95 C 0 km/h
2743 07-02-2010 06:00:00 3.8 C 5.65 g/m*3 3.8 C 0 km/h
2744 07-02-2010 07:00:00 3.7 C 5.64 g/m*3 3.7 C 0 km/h
2745 07-02-2010 08:00:00 3.75 C 5.69 g/m*3 3.75 C 0 km/h
2746 07-02-2010 09:00:00 3.93333 C 5.74 g/m*3 3.93 C 0 km/h
2747 07-02-2010 10:00:00 4.3 C 5.71 g/m*3 4.3 C 0 km/h
2748 07-02-2010 11:00:00 4.7 C 5.22 g/m*3 4.7 C 0 km/h
2749 07-02-2010 12:00:00 5.5 C 4.95 g/m*3 5.5 C 0 km/h
2750 07-02-2010 13:00:00 5.7 C 4.66 g/m*3 5.7 C 0 km/h
Sensor: Nr:Datum:Temp:Abs-Feuchte:Windchill:Wind:
Aussen-T/F 2751 07-02-2010 14:00:00 5.93333 C 4.5 g/m*3 5.93 C 0 km/h
2752 07-02-2010 15:00:00 5.45 C 4.48 g/m*3 5.45 C 0 km/h
2753 07-02-2010 16:00:00 4.8 C 4.74 g/m*3 4.8 C 0 km/h
2754 07-02-2010 17:00:00 4.6 C 4.93 g/m*3 4.6 C 0 km/h
2755 07-02-2010 18:00:00 4.3 C 4.96 g/m*3 4.3 C 0 km/h
2756 07-02-2010 19:00:00 3.83333 C 4.59 g/m*3 3.83 C 0 km/h
2757 07-02-2010 20:00:00 3.4 C 4.37 g/m*3 3.4 C 0 km/h
2758 07-02-2010 21:00:00 2.73333 C 4.09 g/m*3 2.73 C 0 km/h
2759 07-02-2010 22:00:00 2.2 C 3.69 g/m*3 2.2 C 0 km/h
2760 07-02-2010 23:00:00 1.85 C 3.66 g/m*3 1.85 C 0 km/h
2761 08-02-2010 00:00:00 1.46667 C 3.55 g/m*3 1.47 C 0 km/h
2762 08-02-2010 01:00:00 1.1 C 3.42 g/m*3 1.1 C 0 km/h
2763 08-02-2010 02:00:00 0.76667 C 3.47 g/m*3 0.77 C 0 km/h
2764 08-02-2010 03:00:00 0.5 C 3.41 g/m*3 0.5 C 0 km/h
2765 08-02-2010 04:00:00 0.3 C 3.31 g/m*3 0.3 C 0 km/h
2766 08-02-2010 05:00:00 -0.06667 C 3.23 g/m*3 -0.07 C 0 km/h
2767 08-02-2010 06:00:00 -0.35 C 3.24 g/m*3 -0.35 C 0 km/h
2768 08-02-2010 07:00:00 -0.63333 C 3.14 g/m*3 -0.63 C 0 km/h
2769 08-02-2010 08:00:00 -0.9 C 3.03 g/m*3 -0.9 C 0 km/h
2770 08-02-2010 09:00:00 -0.75 C 2.97 g/m*3 -0.75 C 0 km/h
2771 08-02-2010 10:00:00 -0.56667 C 2.9 g/m*3 -0.57 C 0 km/h
2772 08-02-2010 11:00:00 -0.35 C 2.79 g/m*3 -0.35 C 0 km/h
2773 08-02-2010 12:00:00 -0.13333 C 2.58 g/m*3 -0.13 C 0 km/h
2774 08-02-2010 13:00:00 0.65 C 2.61 g/m*3 0.65 C 0 km/h
2775 08-02-2010 14:00:00 0.55 C 2.64 g/m*3 0.55 C 0 km/h
Sensor: Nr:Datum:Temp:Abs-Feuchte:Windchill:Wind:
Aussen-T/F 2776 08-02-2010 15:00:00 -0.63333 C 2.58 g/m*3 -0.63 C 0 km/h
2777 08-02-2010 16:00:00 -1.25 C 2.58 g/m*3 -1.25 C 0 km/h
2778 08-02-2010 17:00:00 -2.1 C 2.51 g/m*3 -2.1 C 0 km/h
2779 08-02-2010 18:00:00 -2.35 C 2.51 g/m*3 -2.35 C 0 km/h
2780 08-02-2010 19:00:00 -2.45 C 2.49 g/m*3 -2.45 C 0 km/h
2781 08-02-2010 20:00:00 -2.6 C 2.48 g/m*3 -2.6 C 0 km/h
2782 08-02-2010 21:00:00 -2.6 C 2.51 g/m*3 -2.6 C 0 km/h
2783 08-02-2010 22:00:00 -2.66667 C 2.45 g/m*3 -2.67 C 0 km/h
2784 08-02-2010 23:00:00 -3.1 C 2.34 g/m*3 -3.1 C 0 km/h
2785 09-02-2010 00:00:00 -3.35 C 2.32 g/m*3 -3.35 C 0 km/h
2786 09-02-2010 01:00:00 -3.26667 C 2.36 g/m*3 -3.27 C 0 km/h
2787 09-02-2010 02:00:00 -3.2 C 2.34 g/m*3 -3.2 C 0 km/h
2788 09-02-2010 03:00:00 -3.33333 C 2.3 g/m*3 -3.33 C 0 km/h
2789 09-02-2010 04:00:00 -3.45 C 2.28 g/m*3 -3.45 C 0 km/h
2790 09-02-2010 05:00:00 -3.5 C 2.27 g/m*3 -3.5 C 0 km/h
2791 09-02-2010 06:00:00 -3.7 C 2.3 g/m*3 -3.7 C 0 km/h
2792 09-02-2010 07:00:00 -3.8 C 2.28 g/m*3 -3.8 C 0 km/h
2793 09-02-2010 08:00:00 -3.96667 C 2.27 g/m*3 -3.97 C 0 km/h
2794 09-02-2010 09:00:00 -3.95 C 2.29 g/m*3 -3.95 C 0 km/h
2795 09-02-2010 10:00:00 -3.8 C 2.45 g/m*3 -3.8 C 0 km/h
2796 09-02-2010 11:00:00 -3.36667 C 2.42 g/m*3 -3.37 C 0 km/h
2797 09-02-2010 12:00:00 -3.25 C 2.22 g/m*3 -3.25 C 0 km/h
2798 09-02-2010 13:00:00 -2.86667 C 2.13 g/m*3 -2.87 C 0 km/h
2799 09-02-2010 14:00:00 -3.45 C 2.02 g/m*3 -3.45 C 0 km/h
2800 09-02-2010 15:00:00 -3.55 C 1.98 g/m*3 -3.55 C 0 km/h
Sensor: Nr:Datum:Temp:Abs-Feuchte:Windchill:Wind:
Aussen-T/F 2801 09-02-2010 16:00:00 -3.63333 C 1.98 g/m*3 -3.63 C 0 km/h
2802 09-02-2010 17:00:00 -3.95 C 2.06 g/m*3 -3.95 C 0 km/h
2803 09-02-2010 18:00:00 -4.13333 C 2.13 g/m*3 -4.13 C 0 km/h
2804 09-02-2010 19:00:00 -4.1 C 2.18 g/m*3 -4.1 C 0 km/h
2805 09-02-2010 20:00:00 -4.55 C 2.09 g/m*3 -4.55 C 0 km/h
2806 09-02-2010 21:00:00 -4.63333 C 1.82 g/m*3 -4.63 C 0 km/h
2807 09-02-2010 22:00:00 -4.55 C 1.85 g/m*3 -4.55 C 0 km/h
2808 09-02-2010 23:00:00 -4.53333 C 1.94 g/m*3 -4.53 C 0 km/h
2809 10-02-2010 00:00:00 -4.65 C 2.1 g/m*3 -4.65 C 0 km/h
2810 10-02-2010 01:00:00 -4.7 C 2.14 g/m*3 -4.7 C 0 km/h
2811 10-02-2010 02:00:00 -4.66667 C 2.27 g/m*3 -4.67 C 0 km/h
2812 10-02-2010 03:00:00 -4.8 C 2.33 g/m*3 -4.8 C 0 km/h
2813 10-02-2010 04:00:00 -4.96667 C 2.32 g/m*3 -4.97 C 0 km/h
2814 10-02-2010 05:00:00 -5 C 2.37 g/m*3 -5 C 0 km/h
2815 10-02-2010 06:00:00 -5.1 C 2.33 g/m*3 -5.1 C 0 km/h
2816 10-02-2010 07:00:00 -5.46667 C 2.33 g/m*3 -5.47 C 0 km/h
2817 10-02-2010 08:00:00 -5.4 C 2.35 g/m*3 -5.4 C 0 km/h
2818 10-02-2010 09:00:00 -4.8 C 2.41 g/m*3 -4.8 C 0 km/h
2819 10-02-2010 10:00:00 -4.4 C 2.4 g/m*3 -4.4 C 0 km/h
2820 10-02-2010 11:00:00 -3.85 C 2.39 g/m*3 -3.85 C 0 km/h
2821 10-02-2010 12:00:00 -3.43333 C 2.36 g/m*3 -3.43 C 0 km/h
2822 10-02-2010 13:00:00 -2.9 C 2.39 g/m*3 -2.9 C 0 km/h
2823 10-02-2010 14:00:00 -3.23333 C 2.24 g/m*3 -3.23 C 0 km/h
2824 10-02-2010 15:00:00 -3.15 C 2.33 g/m*3 -3.15 C 0 km/h
2825 10-02-2010 16:00:00 -3.45 C 2.28 g/m*3 -3.45 C 0 km/h
Sensor: Nr:Datum:Temp:Abs-Feuchte:Windchill:Wind:
Aussen-T/F 2826 10-02-2010 17:00:00 -3.86667 C 2.34 g/m*3 -3.87 C 0 km/h
2827 10-02-2010 18:00:00 -5.2 C 2.38 g/m*3 -5.2 C 0 km/h
2828 10-02-2010 19:00:00 -5.83333 C 2.32 g/m*3 -5.83 C 0 km/h
2829 10-02-2010 20:00:00 -6.4 C 2.32 g/m*3 -6.4 C 0 km/h
2830 10-02-2010 21:00:00 -6.35 C 2.33 g/m*3 -6.35 C 0 km/h
2831 10-02-2010 22:00:00 -6.56667 C 2.26 g/m*3 -6.57 C 0 km/h
2832 10-02-2010 23:00:00 -7.2 C 2.13 g/m*3 -7.2 C 0 km/h
2833 11-02-2010 00:00:00 -6.53333 C 2.19 g/m*3 -6.53 C 0 km/h
2834 11-02-2010 01:00:00 -7.8 C 1.93 g/m*3 -7.8 C 0 km/h
2835 11-02-2010 02:00:00 -7.55 C 2.06 g/m*3 -7.55 C 0 km/h
2836 11-02-2010 03:00:00 -6.96667 C 2.12 g/m*3 -6.97 C 0 km/h
2837 11-02-2010 04:00:00 -6.6 C 2.14 g/m*3 -6.6 C 0 km/h
2838 11-02-2010 05:00:00 -6.1 C 2.24 g/m*3 -6.1 C 0 km/h
2839 11-02-2010 06:00:00 -5.85 C 2.4 g/m*3 -5.85 C 0 km/h
2840 11-02-2010 07:00:00 -5.65 C 2.49 g/m*3 -5.65 C 0 km/h
2841 11-02-2010 08:00:00 -5.36667 C 2.59 g/m*3 -5.37 C 0 km/h
2842 11-02-2010 09:00:00 -4.7 C 2.66 g/m*3 -4.7 C 0 km/h
2843 11-02-2010 10:00:00 -3.66667 C 2.76 g/m*3 -3.67 C 0 km/h
2844 11-02-2010 11:00:00 -2.8 C 2.79 g/m*3 -2.8 C 0 km/h
2845 11-02-2010 12:00:00 -2.25 C 2.94 g/m*3 -2.25 C 0 km/h
2846 11-02-2010 13:00:00 -1.3 C 3.03 g/m*3 -1.3 C 0 km/h
2847 11-02-2010 14:00:00 -1.15 C 3.02 g/m*3 -1.15 C 0 km/h
2848 11-02-2010 15:00:00 -1.36667 C 2.88 g/m*3 -1.37 C 0 km/h
2849 11-02-2010 16:00:00 -1.5 C 2.9 g/m*3 -1.5 C 0 km/h
2850 11-02-2010 17:00:00 -1.7 C 2.8 g/m*3 -1.7 C 0 km/h
Sensor: Nr:Datum:Temp:Abs-Feuchte:Windchill:Wind:
Aussen-T/F 2851 11-02-2010 18:00:00 -1.8 C 2.72 g/m*3 -1.8 C 0 km/h
2852 11-02-2010 19:00:00 -1.8 C 2.65 g/m*3 -1.8 C 0 km/h
2853 11-02-2010 20:00:00 -1.8 C 2.69 g/m*3 -1.8 C 0 km/h
2854 11-02-2010 21:00:00 -2.15 C 2.9 g/m*3 -2.15 C 0 km/h
2855 11-02-2010 22:00:00 -2.5 C 3.07 g/m*3 -2.5 C 0 km/h
2856 11-02-2010 23:00:00 -2.53333 C 3.15 g/m*3 -2.53 C 0 km/h
2857 12-02-2010 00:00:00 -2.65 C 3.2 g/m*3 -2.65 C 0 km/h
2858 12-02-2010 01:00:00 -2.66667 C 3.2 g/m*3 -2.67 C 0 km/h
2859 12-02-2010 02:00:00 -2.6 C 3.17 g/m*3 -2.6 C 0 km/h
2860 12-02-2010 03:00:00 -2.65 C 3.18 g/m*3 -2.65 C 0 km/h
2861 12-02-2010 04:00:00 -2.6 C 3.21 g/m*3 -2.6 C 0 km/h
2862 12-02-2010 05:00:00 -2.55 C 3.2 g/m*3 -2.55 C 0 km/h
2863 12-02-2010 06:00:00 -2.56667 C 3.17 g/m*3 -2.57 C 0 km/h
2864 12-02-2010 07:00:00 -2.75 C 3.12 g/m*3 -2.75 C 0 km/h
2865 12-02-2010 08:00:00 -2.65 C 3.02 g/m*3 -2.65 C 0 km/h
2866 12-02-2010 09:00:00 -2.46667 C 3 g/m*3 -2.47 C 0 km/h
2867 12-02-2010 10:00:00 -2 C 2.89 g/m*3 -2 C 0 km/h
2868 12-02-2010 11:00:00 -1.16667 C 2.79 g/m*3 -1.17 C 0 km/h
2869 12-02-2010 12:00:00 -1.25 C 2.73 g/m*3 -1.25 C 0 km/h
2870 12-02-2010 13:00:00 -1.2 C 2.88 g/m*3 -1.2 C 0 km/h
2871 12-02-2010 14:00:00 -0.76667 C 2.94 g/m*3 -0.77 C 0 km/h
2872 12-02-2010 15:00:00 -0.8 C 2.86 g/m*3 -0.8 C 0 km/h
2873 12-02-2010 16:00:00 -1.1 C 2.84 g/m*3 -1.1 C 0 km/h
2874 12-02-2010 17:00:00 -1.65 C 2.74 g/m*3 -1.65 C 0 km/h
2875 12-02-2010 18:00:00 -2.15 C 2.75 g/m*3 -2.15 C 0 km/h
Sensor: Nr:Datum:Temp:Abs-Feuchte:Windchill:Wind:
Aussen-T/F 2876 12-02-2010 19:00:00 -2.46667 C 2.69 g/m*3 -2.47 C 0 km/h
2877 12-02-2010 20:00:00 -2.6 C 2.73 g/m*3 -2.6 C 0 km/h
2878 12-02-2010 21:00:00 -2.7 C 2.72 g/m*3 -2.7 C 0 km/h
2879 12-02-2010 22:00:00 -2.85 C 2.74 g/m*3 -2.85 C 0 km/h
2880 12-02-2010 23:00:00 -3.1 C 2.69 g/m*3 -3.1 C 0 km/h
2881 13-02-2010 00:00:00 -3.43333 C 2.73 g/m*3 -3.43 C 0 km/h
2882 13-02-2010 01:00:00 -3.95 C 2.77 g/m*3 -3.95 C 0 km/h
2883 13-02-2010 02:00:00 -4 C 2.74 g/m*3 -4 C 0 km/h
2884 13-02-2010 03:00:00 -4.2 C 2.72 g/m*3 -4.2 C 0 km/h
2885 13-02-2010 04:00:00 -4.15 C 2.77 g/m*3 -4.15 C 0 km/h
2886 13-02-2010 05:00:00 -3.96667 C 2.82 g/m*3 -3.97 C 0 km/h
2887 13-02-2010 06:00:00 -3.85 C 2.85 g/m*3 -3.85 C 0 km/h
2888 13-02-2010 07:00:00 -3.76667 C 2.81 g/m*3 -3.77 C 0 km/h
2889 13-02-2010 08:00:00 -3.4 C 2.88 g/m*3 -3.4 C 0 km/h
2890 13-02-2010 09:00:00 -2.75 C 2.9 g/m*3 -2.75 C 0 km/h
2891 13-02-2010 10:00:00 -2.46667 C 2.69 g/m*3 -2.47 C 0 km/h
2892 13-02-2010 11:00:00 -1.7 C 2.71 g/m*3 -1.7 C 0 km/h
2893 13-02-2010 12:00:00 -1 C 2.74 g/m*3 -1 C 0 km/h
2894 13-02-2010 13:00:00 -1.2 C 2.74 g/m*3 -1.2 C 0 km/h
2895 13-02-2010 14:00:00 -0.55 C 2.64 g/m*3 -0.55 C 0 km/h
2896 13-02-2010 15:00:00 -0.5 C 2.56 g/m*3 -0.5 C 0 km/h
2897 13-02-2010 16:00:00 -0.95 C 2.56 g/m*3 -0.95 C 0 km/h
2898 13-02-2010 17:00:00 -1.76667 C 2.8 g/m*3 -1.77 C 0 km/h
2899 13-02-2010 18:00:00 -2.05 C 2.96 g/m*3 -2.05 C 0 km/h
2900 13-02-2010 19:00:00 -2.15 C 3 g/m*3 -2.15 C 0 km/h
Sensor: Nr:Datum:Temp:Abs-Feuchte:Windchill:Wind:
Aussen-T/F 2901 13-02-2010 20:00:00 -2.3 C 3 g/m*3 -2.3 C 0 km/h
2902 13-02-2010 21:00:00 -2.4 C 2.99 g/m*3 -2.4 C 0 km/h
2903 13-02-2010 22:00:00 -2.53333 C 3 g/m*3 -2.53 C 0 km/h
2904 13-02-2010 23:00:00 -2.75 C 3.04 g/m*3 -2.75 C 0 km/h
2905 14-02-2010 00:00:00 -3 C 3 g/m*3 -3 C 0 km/h
2906 14-02-2010 01:00:00 -3.3 C 2.96 g/m*3 -3.3 C 0 km/h
2907 14-02-2010 02:00:00 -3.4 C 2.98 g/m*3 -3.4 C 0 km/h
2908 14-02-2010 03:00:00 -3.46667 C 3 g/m*3 -3.47 C 0 km/h
2909 14-02-2010 04:00:00 -3.55 C 2.98 g/m*3 -3.55 C 0 km/h
2910 14-02-2010 05:00:00 -3.65 C 2.98 g/m*3 -3.65 C 0 km/h
2911 14-02-2010 06:00:00 -3.7 C 2.99 g/m*3 -3.7 C 0 km/h
2912 14-02-2010 07:00:00 -3.5 C 3.03 g/m*3 -3.5 C 0 km/h
2913 14-02-2010 08:00:00 -3.43333 C 3.05 g/m*3 -3.43 C 0 km/h
2914 14-02-2010 09:00:00 -3.15 C 3.11 g/m*3 -3.15 C 0 km/h
2915 14-02-2010 10:00:00 -2.6 C 3.21 g/m*3 -2.6 C 0 km/h
2916 14-02-2010 11:00:00 -1.83333 C 3.23 g/m*3 -1.83 C 0 km/h
2917 14-02-2010 12:00:00 -0.85 C 3.13 g/m*3 -0.85 C 0 km/h
2918 14-02-2010 13:00:00 0.6 C 3.06 g/m*3 0.6 C 0 km/h
2919 14-02-2010 14:00:00 1.4 C 3.07 g/m*3 1.4 C 0 km/h
2920 14-02-2010 15:00:00 0.75 C 2.96 g/m*3 0.75 C 0 km/h
2921 14-02-2010 16:00:00 -0.23333 C 3.02 g/m*3 -0.23 C 0 km/h
2922 14-02-2010 17:00:00 -0.8 C 3.16 g/m*3 -0.8 C 0 km/h
2923 14-02-2010 18:00:00 -1.3 C 3.25 g/m*3 -1.3 C 0 km/h
2924 14-02-2010 19:00:00 -1.75 C 3.28 g/m*3 -1.75 C 0 km/h
2925 14-02-2010 20:00:00 -1.8 C 3.33 g/m*3 -1.8 C 0 km/h
Sensor: Nr:Datum:Temp:Abs-Feuchte:Windchill:Wind:
Aussen-T/F 2926 14-02-2010 21:00:00 -2.4 C 3.17 g/m*3 -2.4 C 0 km/h
2927 14-02-2010 22:00:00 -2.95 C 3.02 g/m*3 -2.95 C 0 km/h
2928 14-02-2010 23:00:00 -3 C 2.99 g/m*3 -3 C 0 km/h
2929 15-02-2010 00:00:00 -3 C 2.99 g/m*3 -3 C 0 km/h
2930 15-02-2010 01:00:00 -2.95 C 2.98 g/m*3 -2.95 C 0 km/h
2931 15-02-2010 02:00:00 -2.7 C 3.01 g/m*3 -2.7 C 0 km/h
2932 15-02-2010 03:00:00 -2.6 C 2.99 g/m*3 -2.6 C 0 km/h
2933 15-02-2010 04:00:00 -2.6 C 3.02 g/m*3 -2.6 C 0 km/h
2934 15-02-2010 05:00:00 -2.6 C 3.09 g/m*3 -2.6 C 0 km/h
2935 15-02-2010 06:00:00 -2.75 C 3.04 g/m*3 -2.75 C 0 km/h
2936 15-02-2010 07:00:00 -3.06667 C 2.96 g/m*3 -3.07 C 0 km/h
2937 15-02-2010 08:00:00 -3.05 C 2.94 g/m*3 -3.05 C 0 km/h
2938 15-02-2010 09:00:00 -2.26667 C 2.98 g/m*3 -2.27 C 0 km/h
2939 15-02-2010 10:00:00 -0.8 C 3.07 g/m*3 -0.8 C 0 km/h
2940 15-02-2010 11:00:00 -0.25 C 3.07 g/m*3 -0.25 C 0 km/h
2941 15-02-2010 12:00:00 0.8 C 3.16 g/m*3 0.8 C 0 km/h
2942 15-02-2010 13:00:00 1.7 C 3.27 g/m*3 1.7 C 0 km/h
2943 15-02-2010 14:00:00 1.73333 C 3.27 g/m*3 1.73 C 0 km/h
2944 15-02-2010 15:00:00 1.8 C 3.43 g/m*3 1.8 C 0 km/h
2945 15-02-2010 16:00:00 1.4 C 3.41 g/m*3 1.4 C 0 km/h
2946 15-02-2010 17:00:00 0.26667 C 3.44 g/m*3 0.27 C 0 km/h
2947 15-02-2010 18:00:00 -0.5 C 3.44 g/m*3 -0.5 C 0 km/h
2948 15-02-2010 19:00:00 -0.96667 C 3.46 g/m*3 -0.97 C 0 km/h
2949 15-02-2010 20:00:00 -1.25 C 3.42 g/m*3 -1.25 C 0 km/h
2950 15-02-2010 21:00:00 -1.2 C 3.45 g/m*3 -1.2 C 0 km/h
Sensor: Nr:Datum:Temp:Abs-Feuchte:Windchill:Wind:
Aussen-T/F 2951 15-02-2010 22:00:00 -1.06667 C 3.52 g/m*3 -1.07 C 0 km/h
2952 15-02-2010 23:00:00 -1.25 C 3.47 g/m*3 -1.25 C 0 km/h
2953 16-02-2010 00:00:00 -2.06667 C 3.26 g/m*3 -2.07 C 0 km/h
2954 16-02-2010 01:00:00 -2.9 C 3.15 g/m*3 -2.9 C 0 km/h
2955 16-02-2010 02:00:00 -3.05 C 3.13 g/m*3 -3.05 C 0 km/h
2956 16-02-2010 03:00:00 -3.26667 C 3.11 g/m*3 -3.27 C 0 km/h
2957 16-02-2010 04:00:00 -2.8 C 3.25 g/m*3 -2.8 C 0 km/h
2958 16-02-2010 05:00:00 -2.66667 C 3.26 g/m*3 -2.67 C 0 km/h
2959 16-02-2010 06:00:00 -2.3 C 3.32 g/m*3 -2.3 C 0 km/h
2960 16-02-2010 07:00:00 -2.65 C 3.22 g/m*3 -2.65 C 0 km/h
2961 16-02-2010 08:00:00 -2.4 C 3.29 g/m*3 -2.4 C 0 km/h
2962 16-02-2010 09:00:00 -1.05 C 3.49 g/m*3 -1.05 C 0 km/h
2963 16-02-2010 10:00:00 -0.2 C 3.35 g/m*3 -0.2 C 0 km/h
2964 16-02-2010 11:00:00 0.35 C 3.25 g/m*3 0.35 C 0 km/h
2965 16-02-2010 12:00:00 1.8 C 3.12 g/m*3 1.8 C 0 km/h
2966 16-02-2010 13:00:00 2.83333 C 2.68 g/m*3 2.83 C 0 km/h
2967 16-02-2010 14:00:00 3.45 C 2.6 g/m*3 3.45 C 0 km/h
2968 16-02-2010 15:00:00 3.86667 C 2.46 g/m*3 3.87 C 0 km/h
2969 16-02-2010 16:00:00 4.25 C 2.42 g/m*3 4.25 C 0 km/h
2970 16-02-2010 17:00:00 1.95 C 2.6 g/m*3 1.95 C 0 km/h
2971 16-02-2010 18:00:00 -1.2 C 2.7 g/m*3 -1.2 C 0 km/h
2972 16-02-2010 19:00:00 -2.6 C 2.75 g/m*3 -2.6 C 0 km/h
2973 16-02-2010 20:00:00 -3.26667 C 2.72 g/m*3 -3.27 C 0 km/h
2974 16-02-2010 21:00:00 -3.95 C 2.64 g/m*3 -3.95 C 0 km/h
2975 16-02-2010 22:00:00 -4.35 C 2.6 g/m*3 -4.35 C 0 km/h
Sensor: Nr:Datum:Temp:Abs-Feuchte:Windchill:Wind:
Aussen-T/F 2976 16-02-2010 23:00:00 -4.9 C 2.5 g/m*3 -4.9 C 0 km/h
2977 17-02-2010 00:00:00 -5.55 C 2.39 g/m*3 -5.55 C 0 km/h
2978 17-02-2010 01:00:00 -6.23333 C 2.3 g/m*3 -6.23 C 0 km/h
2979 17-02-2010 02:00:00 -6.7 C 2.26 g/m*3 -6.7 C 0 km/h
2980 17-02-2010 03:00:00 -6.55 C 2.3 g/m*3 -6.55 C 0 km/h
2981 17-02-2010 04:00:00 -5.53333 C 2.48 g/m*3 -5.53 C 0 km/h
2982 17-02-2010 05:00:00 -5.05 C 2.51 g/m*3 -5.05 C 0 km/h
2983 17-02-2010 06:00:00 -4.7 C 2.57 g/m*3 -4.7 C 0 km/h
2984 17-02-2010 07:00:00 -4.25 C 2.61 g/m*3 -4.25 C 0 km/h
2985 17-02-2010 08:00:00 -3.6 C 2.69 g/m*3 -3.6 C 0 km/h
2986 17-02-2010 09:00:00 -2.9 C 2.56 g/m*3 -2.9 C 0 km/h
2987 17-02-2010 10:00:00 -2.45 C 2.53 g/m*3 -2.45 C 0 km/h
2988 17-02-2010 11:00:00 -0.33333 C 2.81 g/m*3 -0.33 C 0 km/h
2989 17-02-2010 12:00:00 3.1 C 2.75 g/m*3 3.1 C 0 km/h
2990 17-02-2010 13:00:00 2.85 C 2.71 g/m*3 2.85 C 0 km/h
2991 17-02-2010 14:00:00 2.3 C 3.29 g/m*3 2.3 C 0 km/h
2992 17-02-2010 15:00:00 1.25 C 3.91 g/m*3 1.25 C 0 km/h
2993 17-02-2010 16:00:00 1.06667 C 4.17 g/m*3 1.07 C 0 km/h
2994 17-02-2010 17:00:00 0.65 C 4.18 g/m*3 0.65 C 0 km/h
2995 17-02-2010 18:00:00 0.5 C 4.26 g/m*3 0.5 C 0 km/h
2996 17-02-2010 19:00:00 0.5 C 4.38 g/m*3 0.5 C 0 km/h
2997 17-02-2010 20:00:00 0.7 C 4.53 g/m*3 0.7 C 0 km/h
2998 17-02-2010 21:00:00 0.76667 C 4.53 g/m*3 0.77 C 0 km/h
2999 17-02-2010 22:00:00 0.8 C 4.51 g/m*3 0.8 C 0 km/h
3000 17-02-2010 23:00:00 0.8 C 4.51 g/m*3 0.8 C 0 km/h
Sensor: Nr:Datum:Temp:Abs-Feuchte:Windchill:Wind:
Aussen-T/F 3001 18-02-2010 00:00:00 0.86667 C 4.53 g/m*3 0.87 C 0 km/h
3002 18-02-2010 01:00:00 1 C 4.57 g/m*3 1 C 0 km/h
3003 18-02-2010 02:00:00 1.06667 C 4.59 g/m*3 1.07 C 0 km/h
3004 18-02-2010 03:00:00 1.1 C 4.6 g/m*3 1.1 C 0 km/h
3005 18-02-2010 04:00:00 1 C 4.62 g/m*3 1 C 0 km/h
3006 18-02-2010 05:00:00 1.1 C 4.65 g/m*3 1.1 C 0 km/h
3007 18-02-2010 06:00:00 1.15 C 4.69 g/m*3 1.15 C 0 km/h
3008 18-02-2010 07:00:00 1.1 C 4.7 g/m*3 1.1 C 0 km/h
3009 18-02-2010 08:00:00 1.25 C 4.8 g/m*3 1.25 C 0 km/h
3010 18-02-2010 09:00:00 1.85 C 5.03 g/m*3 1.85 C 0 km/h
3011 18-02-2010 10:00:00 3.33333 C 5.51 g/m*3 3.33 C 0 km/h
3012 18-02-2010 11:00:00 4.25 C 5.14 g/m*3 4.25 C 0 km/h
3013 18-02-2010 12:00:00 5.2 C 4.71 g/m*3 5.2 C 0 km/h
3014 18-02-2010 13:00:00 7.1 C 4.25 g/m*3 7.1 C 0 km/h
3015 18-02-2010 14:00:00 8.25 C 4.12 g/m*3 8.25 C 0 km/h
3016 18-02-2010 15:00:00 9.56667 C 3.66 g/m*3 9.57 C 0 km/h
3017 18-02-2010 16:00:00 9.45 C 3.58 g/m*3 9.45 C 0 km/h
3018 18-02-2010 17:00:00 6.46667 C 3.54 g/m*3 6.47 C 0 km/h
3019 18-02-2010 18:00:00 3.6 C 3.93 g/m*3 3.6 C 0 km/h
3020 18-02-2010 19:00:00 2.55 C 4.15 g/m*3 2.55 C 0 km/h
3021 18-02-2010 20:00:00 1.9 C 4.14 g/m*3 1.9 C 0 km/h
3022 18-02-2010 21:00:00 1.4 C 4.21 g/m*3 1.4 C 0 km/h
3023 18-02-2010 22:00:00 1.86667 C 4.33 g/m*3 1.87 C 0 km/h
3024 18-02-2010 23:00:00 1.8 C 4.41 g/m*3 1.8 C 0 km/h
3025 19-02-2010 00:00:00 1.95 C 4.57 g/m*3 1.95 C 0 km/h
Sensor: Nr:Datum:Temp:Abs-Feuchte:Windchill:Wind:
Aussen-T/F 3026 19-02-2010 01:00:00 2.03333 C 4.7 g/m*3 2.03 C 0 km/h
3027 19-02-2010 02:00:00 2.05 C 4.68 g/m*3 2.05 C 0 km/h
3028 19-02-2010 03:00:00 1.73333 C 4.69 g/m*3 1.73 C 0 km/h
3029 19-02-2010 04:00:00 1.6 C 4.7 g/m*3 1.6 C 0 km/h
3030 19-02-2010 05:00:00 1.75 C 4.78 g/m*3 1.75 C 0 km/h
3031 19-02-2010 06:00:00 2 C 4.74 g/m*3 2 C 0 km/h
3032 19-02-2010 07:00:00 1.6 C 4.6 g/m*3 1.6 C 0 km/h
3033 19-02-2010 08:00:00 1.73333 C 4.69 g/m*3 1.73 C 0 km/h
3034 19-02-2010 09:00:00 2.8 C 4.87 g/m*3 2.8 C 0 km/h
3035 19-02-2010 10:00:00 4.15 C 5.07 g/m*3 4.15 C 0 km/h
3036 19-02-2010 11:00:00 5.93333 C 4.87 g/m*3 5.93 C 0 km/h
3037 19-02-2010 12:00:00 7.3 C 4.39 g/m*3 7.3 C 0 km/h
3038 19-02-2010 13:00:00 7.63333 C 4.04 g/m*3 7.63 C 0 km/h
3039 19-02-2010 14:00:00 7.5 C 3.96 g/m*3 7.5 C 0 km/h
3040 19-02-2010 15:00:00 7.5 C 3.6 g/m*3 7.5 C 0 km/h
3041 19-02-2010 16:00:00 5.96667 C 3.28 g/m*3 5.97 C 0 km/h
3042 19-02-2010 17:00:00 5.05 C 3.03 g/m*3 5.05 C 0 km/h
3043 19-02-2010 18:00:00 4.1 C 3.09 g/m*3 4.1 C 0 km/h
3044 19-02-2010 19:00:00 3.6 C 3.25 g/m*3 3.6 C 0 km/h
3045 19-02-2010 20:00:00 3.3 C 3.4 g/m*3 3.3 C 0 km/h
3046 19-02-2010 21:00:00 3.2 C 3.53 g/m*3 3.2 C 0 km/h
3047 19-02-2010 22:00:00 2.52 C 3.47 g/m*3 2.52 C 0 km/h
3048 19-02-2010 23:00:00 2.18 C 3.24 g/m*3 2.18 C 0 km/h
3049 20-02-2010 00:00:00 1.18 C 3.36 g/m*3 1.18 C 0 km/h
3050 20-02-2010 01:00:00 0.04 C 3.47 g/m*3 0.04 C 0 km/h
Sensor: Nr:Datum:Temp:Abs-Feuchte:Windchill:Wind:
Aussen-T/F 3051 20-02-2010 02:00:00 -0.32 C 3.58 g/m*3 -0.32 C 0 km/h
3052 20-02-2010 03:00:00 -0.72 C 3.49 g/m*3 -0.72 C 0 km/h
3053 20-02-2010 04:00:00 -0.58 C 3.55 g/m*3 -0.58 C 0 km/h
3054 20-02-2010 05:00:00 -0.14 C 3.59 g/m*3 -0.14 C 0 km/h
3055 20-02-2010 06:00:00 0.12 C 3.7 g/m*3 0.12 C 0 km/h
3056 20-02-2010 07:00:00 -0.5 C 3.7 g/m*3 -0.5 C 0 km/h
3057 20-02-2010 08:00:00 0.4 C 3.95 g/m*3 0.4 C 0 km/h
3058 20-02-2010 09:00:00 1.3 C 3.85 g/m*3 1.3 C 0 km/h
3059 20-02-2010 10:00:00 1.54 C 3.74 g/m*3 1.54 C 0 km/h
3060 20-02-2010 11:00:00 3.24 C 3.61 g/m*3 3.24 C 0 km/h
3061 20-02-2010 12:00:00 4.02 C 3.41 g/m*3 4.02 C 0 km/h
3062 20-02-2010 13:00:00 4.36 C 3.18 g/m*3 4.36 C 0 km/h
3063 20-02-2010 14:00:00 4.56 C 3.22 g/m*3 4.56 C 0 km/h
3064 20-02-2010 15:00:00 4.86 C 3.16 g/m*3 4.86 C 0 km/h
3065 20-02-2010 16:00:00 5 C 3.07 g/m*3 5 C 0 km/h
3066 20-02-2010 17:00:00 4.4 C 3.19 g/m*3 4.4 C 0 km/h
3067 20-02-2010 18:00:00 2.64 C 3.54 g/m*3 2.64 C 0 km/h
3068 20-02-2010 19:00:00 1.9 C 3.44 g/m*3 1.9 C 0 km/h
3069 20-02-2010 20:00:00 0.86 C 3.44 g/m*3 0.86 C 0 km/h
3070 20-02-2010 21:00:00 0.8 C 3.33 g/m*3 0.8 C 0 km/h
3071 20-02-2010 22:00:00 0.7 C 3.36 g/m*3 0.7 C 0 km/h
3072 20-02-2010 23:00:00 0.98 C 3.53 g/m*3 0.98 C 0 km/h
3073 21-02-2010 00:00:00 1.96 C 3.65 g/m*3 1.96 C 0 km/h
3074 21-02-2010 01:00:00 1.84 C 3.59 g/m*3 1.84 C 0 km/h
3075 21-02-2010 02:00:00 1.68 C 3.61 g/m*3 1.68 C 0 km/h
Sensor: Nr:Datum:Temp:Abs-Feuchte:Windchill:Wind:
Aussen-T/F 3076 21-02-2010 03:00:00 0.96 C 3.88 g/m*3 0.96 C 0 km/h
3077 21-02-2010 04:00:00 0.38 C 4.12 g/m*3 0.38 C 0 km/h
3078 21-02-2010 05:00:00 0.5 C 4.37 g/m*3 0.5 C 0 km/h
3079 21-02-2010 06:00:00 0.72 C 4.53 g/m*3 0.72 C 0 km/h
3080 21-02-2010 07:00:00 0.84 C 4.45 g/m*3 0.84 C 0 km/h
3081 21-02-2010 08:00:00 1.4 C 4.41 g/m*3 1.4 C 0 km/h
3082 21-02-2010 09:00:00 1.94 C 4.47 g/m*3 1.94 C 0 km/h
3083 21-02-2010 10:00:00 2.86 C 4.44 g/m*3 2.86 C 0 km/h
3084 21-02-2010 11:00:00 3.78 C 4.34 g/m*3 3.78 C 0 km/h
3085 21-02-2010 12:00:00 4.76 C 3.91 g/m*3 4.76 C 0 km/h
3086 21-02-2010 13:00:00 4.84 C 3.94 g/m*3 4.84 C 0 km/h
3087 21-02-2010 14:00:00 5.34 C 4.02 g/m*3 5.34 C 0 km/h
3088 21-02-2010 15:00:00 6.1 C 4.11 g/m*3 6.1 C 0 km/h
3089 21-02-2010 16:00:00 6.56 C 4.16 g/m*3 6.56 C 0 km/h
3090 21-02-2010 17:00:00 5.68 C 4.11 g/m*3 5.68 C 0 km/h
3091 21-02-2010 18:00:00 4.2 C 4.29 g/m*3 4.2 C 0 km/h
3092 21-02-2010 19:00:00 2.84 C 4.39 g/m*3 2.84 C 0 km/h
3093 21-02-2010 20:00:00 2.68 C 4.53 g/m*3 2.68 C 0 km/h
3094 21-02-2010 21:00:00 2.88 C 4.59 g/m*3 2.88 C 0 km/h
3095 21-02-2010 22:00:00 2.3 C 4.54 g/m*3 2.3 C 0 km/h
3096 21-02-2010 23:00:00 2.04 C 4.58 g/m*3 2.04 C 0 km/h
3097 22-02-2010 00:00:00 1.74 C 4.56 g/m*3 1.74 C 0 km/h
3098 22-02-2010 01:00:00 1.4 C 4.48 g/m*3 1.4 C 0 km/h
3099 22-02-2010 02:00:00 1.12 C 4.41 g/m*3 1.12 C 0 km/h
3100 22-02-2010 03:00:00 1.08 C 4.45 g/m*3 1.08 C 0 km/h
Sensor: Nr:Datum:Temp:Abs-Feuchte:Windchill:Wind:
Aussen-T/F 3101 22-02-2010 04:00:00 1.14 C 4.49 g/m*3 1.14 C 0 km/h
3102 22-02-2010 05:00:00 1.32 C 4.56 g/m*3 1.32 C 0 km/h
3103 22-02-2010 06:00:00 1.54 C 4.63 g/m*3 1.54 C 0 km/h
3104 22-02-2010 07:00:00 2.08 C 4.85 g/m*3 2.08 C 0 km/h
3105 22-02-2010 08:00:00 3.24 C 5.14 g/m*3 3.24 C 0 km/h
3106 22-02-2010 09:00:00 4.78 C 5.26 g/m*3 4.78 C 0 km/h
3107 22-02-2010 10:00:00 6.74 C 5.12 g/m*3 6.74 C 0 km/h
3108 22-02-2010 11:00:00 8.36 C 5.21 g/m*3 8.36 C 0 km/h
3109 22-02-2010 12:00:00 9.16 C 5.59 g/m*3 9.16 C 0 km/h
3110 22-02-2010 13:00:00 11.34 C 5.24 g/m*3 11.34 C 0 km/h
3111 22-02-2010 14:00:00 12.3 C 5.06 g/m*3 12.3 C 0 km/h
3112 22-02-2010 15:00:00 12.88 C 5.13 g/m*3 12.88 C 0 km/h
3113 22-02-2010 16:00:00 11.8 C 5.37 g/m*3 11.8 C 0 km/h
3114 22-02-2010 17:00:00 11.26 C 5.56 g/m*3 11.26 C 0 km/h
3115 22-02-2010 18:00:00 9.66 C 5.74 g/m*3 9.66 C 0 km/h
3116 22-02-2010 19:00:00 8.98 C 5.81 g/m*3 8.98 C 0 km/h
3117 22-02-2010 20:00:00 9.24 C 5.59 g/m*3 9.24 C 0 km/h
3118 22-02-2010 21:00:00 8.84 C 5.52 g/m*3 8.84 C 0 km/h
3119 22-02-2010 22:00:00 10.26 C 5.56 g/m*3 10.26 C 0 km/h
3120 22-02-2010 23:00:00 12.08 C 5.42 g/m*3 12.08 C 0 km/h
3121 23-02-2010 00:00:00 12.14 C 5.44 g/m*3 12.14 C 0 km/h
3122 23-02-2010 01:00:00 11.5 C 5.68 g/m*3 11.5 C 0 km/h
3123 23-02-2010 02:00:00 10.6 C 6.25 g/m*3 10.6 C 0 km/h
3124 23-02-2010 03:00:00 9.12 C 6.97 g/m*3 9.12 C 0 km/h
3125 23-02-2010 04:00:00 8.56 C 7.18 g/m*3 8.56 C 0 km/h
Sensor: Nr:Datum:Temp:Abs-Feuchte:Windchill:Wind:
Aussen-T/F 3126 23-02-2010 05:00:00 8.44 C 7.11 g/m*3 8.44 C 0 km/h
3127 23-02-2010 06:00:00 8.5 C 7.09 g/m*3 8.5 C 0 km/h
3128 23-02-2010 07:00:00 8.22 C 7.01 g/m*3 8.22 C 0 km/h
3129 23-02-2010 08:00:00 8.62 C 7.24 g/m*3 8.62 C 0 km/h
3130 23-02-2010 09:00:00 9.12 C 7.16 g/m*3 9.12 C 0 km/h
3131 23-02-2010 10:00:00 10.4 C 6.94 g/m*3 10.4 C 0 km/h
3132 23-02-2010 11:00:00 11.2 C 6.71 g/m*3 11.2 C 0 km/h
3133 23-02-2010 12:00:00 10.66 C 6.9 g/m*3 10.66 C 0 km/h
3134 23-02-2010 13:00:00 10.42 C 7.41 g/m*3 10.42 C 0 km/h
3135 23-02-2010 14:00:00 10.92 C 7.73 g/m*3 10.92 C 0 km/h
3136 23-02-2010 15:00:00 11.02 C 7.68 g/m*3 11.02 C 0 km/h
3137 23-02-2010 16:00:00 10.56 C 7.46 g/m*3 10.56 C 0 km/h
3138 23-02-2010 17:00:00 10.16 C 7.2 g/m*3 10.16 C 0 km/h
3139 23-02-2010 18:00:00 9.6 C 7.35 g/m*3 9.6 C 0 km/h
3140 23-02-2010 19:00:00 9.18 C 7.56 g/m*3 9.18 C 0 km/h
3141 23-02-2010 20:00:00 9.06 C 7.77 g/m*3 9.06 C 0 km/h
3142 23-02-2010 21:00:00 9.48 C 7.55 g/m*3 9.48 C 0 km/h
3143 23-02-2010 22:00:00 9.1 C 6.81 g/m*3 9.1 C 0 km/h
3144 23-02-2010 23:00:00 8.32 C 6.67 g/m*3 8.32 C 0 km/h
3145 24-02-2010 00:00:00 7.84 C 6.73 g/m*3 7.84 C 0 km/h
3146 24-02-2010 01:00:00 8.04 C 6.81 g/m*3 8.04 C 0 km/h
3147 24-02-2010 02:00:00 8 C 6.7 g/m*3 8 C 0 km/h
3148 24-02-2010 03:00:00 7.92 C 6.81 g/m*3 7.92 C 0 km/h
3149 24-02-2010 04:00:00 8.02 C 6.85 g/m*3 8.02 C 0 km/h
3150 24-02-2010 05:00:00 8.32 C 6.87 g/m*3 8.32 C 0 km/h
Sensor: Nr:Datum:Temp:Abs-Feuchte:Windchill:Wind:
Aussen-T/F 3151 24-02-2010 06:00:00 7.76 C 6.56 g/m*3 7.76 C 0 km/h
3152 24-02-2010 07:00:00 7.42 C 6.59 g/m*3 7.42 C 0 km/h
3153 24-02-2010 08:00:00 7.9 C 6.74 g/m*3 7.9 C 0 km/h
3154 24-02-2010 09:00:00 9.04 C 6.66 g/m*3 9.04 C 0 km/h
3155 24-02-2010 10:00:00 10.24 C 6.33 g/m*3 10.24 C 0 km/h
3156 24-02-2010 11:00:00 11.14 C 5.72 g/m*3 11.14 C 0 km/h
3157 24-02-2010 12:00:00 11.54 C 5.61 g/m*3 11.54 C 0 km/h
3158 24-02-2010 13:00:00 12.08 C 5.51 g/m*3 12.08 C 0 km/h
3159 24-02-2010 14:00:00 12.7 C 5.41 g/m*3 12.7 C 0 km/h
3160 24-02-2010 15:00:00 13.46 C 5.41 g/m*3 13.46 C 0 km/h
3161 24-02-2010 16:00:00 14.44 C 5.33 g/m*3 14.44 C 0 km/h
3162 24-02-2010 17:00:00 12.02 C 5.59 g/m*3 12.02 C 0 km/h
3163 24-02-2010 18:00:00 9.78 C 5.91 g/m*3 9.78 C 0 km/h
3164 24-02-2010 19:00:00 9 C 6.7 g/m*3 9 C 0 km/h
3165 24-02-2010 20:00:00 8.38 C 7.27 g/m*3 8.38 C 0 km/h
3166 24-02-2010 21:00:00 8.04 C 7.28 g/m*3 8.04 C 0 km/h
3167 24-02-2010 22:00:00 7.78 C 6.98 g/m*3 7.78 C 0 km/h
3168 24-02-2010 23:00:00 8.34 C 6.61 g/m*3 8.34 C 0 km/h
3169 25-02-2010 00:00:00 8.5 C 6.35 g/m*3 8.5 C 0 km/h
3170 25-02-2010 01:00:00 8.44 C 6.28 g/m*3 8.44 C 0 km/h
3171 25-02-2010 02:00:00 8 C 6.25 g/m*3 8 C 0 km/h
3172 25-02-2010 03:00:00 7.44 C 6.51 g/m*3 7.44 C 0 km/h
3173 25-02-2010 04:00:00 7.16 C 6.51 g/m*3 7.16 C 0 km/h
3174 25-02-2010 05:00:00 7.48 C 6.51 g/m*3 7.48 C 0 km/h
3175 25-02-2010 06:00:00 8.44 C 5.92 g/m*3 8.44 C 0 km/h
Sensor: Nr:Datum:Temp:Abs-Feuchte:Windchill:Wind:
Aussen-T/F 3176 25-02-2010 07:00:00 8.72 C 5.84 g/m*3 8.72 C 0 km/h
3177 25-02-2010 08:00:00 8.8 C 5.81 g/m*3 8.8 C 0 km/h
3178 25-02-2010 09:00:00 9.58 C 5.6 g/m*3 9.58 C 0 km/h
3179 25-02-2010 10:00:00 10.26 C 5.43 g/m*3 10.26 C 0 km/h
3180 25-02-2010 11:00:00 11.04 C 5.14 g/m*3 11.04 C 0 km/h
3181 25-02-2010 12:00:00 11.34 C 4.81 g/m*3 11.34 C 0 km/h
3182 25-02-2010 13:00:00 12.44 C 4.73 g/m*3 12.44 C 0 km/h
3183 25-02-2010 14:00:00 12.6 C 4.85 g/m*3 12.6 C 0 km/h
3184 25-02-2010 15:00:00 12.56 C 4.48 g/m*3 12.56 C 0 km/h
3185 25-02-2010 16:00:00 11.82 C 4.51 g/m*3 11.82 C 0 km/h
3186 25-02-2010 17:00:00 11.06 C 4.9 g/m*3 11.06 C 0 km/h
3187 25-02-2010 18:00:00 9.44 C 5.86 g/m*3 9.44 C 0 km/h
3188 25-02-2010 19:00:00 8.5 C 6.78 g/m*3 8.5 C 0 km/h
3189 25-02-2010 20:00:00 8.66 C 6.69 g/m*3 8.66 C 0 km/h
3190 25-02-2010 21:00:00 9.1 C 6.57 g/m*3 9.1 C 0 km/h
3191 25-02-2010 22:00:00 9.18 C 6.62 g/m*3 9.18 C 0 km/h
3192 25-02-2010 23:00:00 9.36 C 6.77 g/m*3 9.36 C 0 km/h
3193 26-02-2010 00:00:00 9.34 C 6.87 g/m*3 9.34 C 0 km/h
3194 26-02-2010 01:00:00 9.5 C 6.99 g/m*3 9.5 C 0 km/h
3195 26-02-2010 02:00:00 9.78 C 7.04 g/m*3 9.78 C 0 km/h
3196 26-02-2010 03:00:00 9.86 C 6.95 g/m*3 9.86 C 0 km/h
3197 26-02-2010 04:00:00 9.54 C 6.77 g/m*3 9.54 C 0 km/h
3198 26-02-2010 05:00:00 9.34 C 6.38 g/m*3 9.34 C 0 km/h
3199 26-02-2010 06:00:00 9.1 C 6.19 g/m*3 9.1 C 0 km/h
3200 26-02-2010 07:00:00 9.14 C 6.12 g/m*3 9.14 C 0 km/h
Sensor: Nr:Datum:Temp:Abs-Feuchte:Windchill:Wind:
Aussen-T/F 3201 26-02-2010 08:00:00 9.7 C 5.68 g/m*3 9.7 C 0 km/h
3202 26-02-2010 09:00:00 10.22 C 5.45 g/m*3 10.22 C 0 km/h
3203 26-02-2010 10:00:00 9.92 C 5.67 g/m*3 9.92 C 0 km/h
3204 26-02-2010 11:00:00 10.76 C 5.34 g/m*3 10.76 C 0 km/h
3205 26-02-2010 12:00:00 10.32 C 5.68 g/m*3 10.32 C 0 km/h
3206 26-02-2010 13:00:00 10.9 C 5.43 g/m*3 10.9 C 0 km/h
3207 26-02-2010 14:00:00 10.4 C 5.19 g/m*3 10.4 C 0 km/h
3208 26-02-2010 15:00:00 8.7 C 5.22 g/m*3 8.7 C 0 km/h
3209 26-02-2010 16:00:00 7.98 C 4.26 g/m*3 7.98 C 0 km/h
3210 26-02-2010 17:00:00 7.9 C 4.12 g/m*3 7.9 C 0 km/h
3211 26-02-2010 18:00:00 6.82 C 4.43 g/m*3 6.82 C 0 km/h
3212 26-02-2010 19:00:00 6.04 C 4.15 g/m*3 6.04 C 0 km/h
3213 26-02-2010 20:00:00 5.94 C 4.03 g/m*3 5.94 C 0 km/h
3214 26-02-2010 21:00:00 5.64 C 3.96 g/m*3 5.64 C 0 km/h
3215 26-02-2010 22:00:00 5.3 C 3.77 g/m*3 5.3 C 0 km/h
3216 26-02-2010 23:00:00 4.9 C 3.65 g/m*3 4.9 C 0 km/h
3217 27-02-2010 00:00:00 4.34 C 3.59 g/m*3 4.34 C 0 km/h